Darstellungsparameter: Aktuell verwendete Einstellungen:
Skalierung der Graphiken ... ?
xyx+y,   Skalierungsfaktor:      Skalierung: Modus: x, Faktor: 1
Darstellungszeitraum ... ?
Vom - - bis: - -   Zeitraum: 02.09.2013 - 01.03.2014
Min/Max/Avg-Anzeige ... ?
Zeige MMA aktuell
Zeige MMA Monat
Zeige MMA alles
Zeige --A aktuell
Zeige --A Monat
Zeige --A alles
Keine MMA-Anzeige
MMA:
Keine MMA-Graphiken
MMA-Basis: 02.09.2013 - 01.03.2014
Quicknavigation für Darstellung... ?
Tage:      1T, 2T, 3T, 5T -1T -2T -3T -5T +1T +2T +3T +5T
Wochen: 1W, 2W, 3W -1W -2W -3W +1W +2W +3W
Monate: 1M, 3M, 6M -1M -3M -6M +1M +3M +6M
Jahre:    1J, 3J, 5J, 10J -1J -3J -5J -10J +1J +3J +5J +10J
Nutze für die Darstellung ... ?
Originaldaten oder Mittelwerte auf ...
Stundenbasis Tagesbasis Wochenbasis
Monatsbasis Jahresbasis      Datenbasis: Original-Daten
Darstellen als:
Statistik (Auto) Statistik J:M      Darstellung:
Zur Graphik,    zurück zur Übersicht aller Sensoren.
 
Tabellarische Datenbersicht: ?
 
Sensor: Nr:Datum:Temp:Abs-Feuchte:Windchill:Wind:
Aussen-T/F 1 02-09-2013 00:00:00 14.1 C 9.22 g/m*3 14.1 C 0 km/h
2 02-09-2013 00:05:00 14.1 C 9.47 g/m*3 14.1 C 1.6 km/h
3 02-09-2013 00:10:00 14 C 9.29 g/m*3 14 C 0 km/h
4 02-09-2013 00:15:00 13.9 C 9.23 g/m*3 13.9 C 0 km/h
5 02-09-2013 00:20:00 13.8 C 9.53 g/m*3 13.8 C 0 km/h
6 02-09-2013 00:25:00 13.6 C 9.53 g/m*3 13.6 C 0 km/h
7 02-09-2013 00:30:00 13.4 C 9.53 g/m*3 13.4 C 0 km/h
8 02-09-2013 00:35:00 13.4 C 9.53 g/m*3 13.4 C 0 km/h
9 02-09-2013 00:40:00 13.3 C 9.36 g/m*3 13.3 C 1.6 km/h
10 02-09-2013 00:45:00 13.4 C 9.42 g/m*3 13.4 C 0 km/h
11 02-09-2013 00:50:00 13.4 C 9.53 g/m*3 13.4 C 0 km/h
12 02-09-2013 00:55:00 13.4 C 9.53 g/m*3 13.4 C 0 km/h
13 02-09-2013 01:00:00 13.3 C 9.47 g/m*3 13.3 C 0 km/h
14 02-09-2013 01:05:00 13.3 C 9.24 g/m*3 13.3 C 0 km/h
15 02-09-2013 01:10:00 13.3 C 9.24 g/m*3 13.3 C 0 km/h
16 02-09-2013 01:15:00 13.3 C 9.13 g/m*3 13.3 C 0 km/h
17 02-09-2013 01:20:00 13.3 C 9.13 g/m*3 13.3 C 0 km/h
18 02-09-2013 01:25:00 13.3 C 9.13 g/m*3 13.3 C 0 km/h
19 02-09-2013 01:30:00 13.3 C 9.13 g/m*3 13.3 C 0 km/h
20 02-09-2013 01:35:00 13.4 C 9.07 g/m*3 13.4 C 3.2 km/h
21 02-09-2013 01:40:00 13.4 C 9.07 g/m*3 13.4 C 0 km/h
22 02-09-2013 01:45:00 13.5 C 9.36 g/m*3 13.5 C 0 km/h
23 02-09-2013 01:50:00 13.4 C 9.18 g/m*3 13.4 C 0 km/h
24 02-09-2013 01:55:00 13.4 C 9.07 g/m*3 13.4 C 0 km/h
25 02-09-2013 02:00:00 13.4 C 9.07 g/m*3 13.4 C 3.2 km/h
Sensor: Nr:Datum:Temp:Abs-Feuchte:Windchill:Wind:
Aussen-T/F 26 02-09-2013 02:05:00 13.4 C 9.3 g/m*3 13.4 C 0 km/h
27 02-09-2013 02:10:00 13.3 C 9.13 g/m*3 13.3 C 0 km/h
28 02-09-2013 02:15:00 13.3 C 9.13 g/m*3 13.3 C 4.8 km/h
29 02-09-2013 02:20:00 13.3 C 9.36 g/m*3 13.3 C 0 km/h
30 02-09-2013 02:25:00 13.2 C 9.3 g/m*3 13.2 C 0 km/h
31 02-09-2013 02:30:00 13.2 C 8.96 g/m*3 13.2 C 1.6 km/h
32 02-09-2013 02:35:00 13.3 C 9.24 g/m*3 13.3 C 0 km/h
33 02-09-2013 02:40:00 13.2 C 9.19 g/m*3 13.2 C 1.6 km/h
34 02-09-2013 02:45:00 13.2 C 9.07 g/m*3 13.2 C 0 km/h
35 02-09-2013 02:50:00 13.2 C 9.07 g/m*3 13.2 C 1.6 km/h
36 02-09-2013 02:55:00 13.2 C 9.19 g/m*3 13.2 C 1.6 km/h
37 02-09-2013 03:00:00 13.1 C 9.24 g/m*3 13.1 C 1.6 km/h
38 02-09-2013 03:05:00 13.1 C 9.36 g/m*3 13.1 C 0 km/h
39 02-09-2013 03:10:00 13 C 9.3 g/m*3 13 C 0 km/h
40 02-09-2013 03:15:00 12.9 C 9.24 g/m*3 12.9 C 0 km/h
41 02-09-2013 03:20:00 12.8 C 9.18 g/m*3 12.8 C 0 km/h
42 02-09-2013 03:25:00 12.8 C 9.07 g/m*3 12.8 C 0 km/h
43 02-09-2013 03:30:00 12.8 C 9.07 g/m*3 12.8 C 0 km/h
44 02-09-2013 03:35:00 12.9 C 9.02 g/m*3 12.9 C 4.8 km/h
45 02-09-2013 03:40:00 13 C 9.19 g/m*3 13 C 0 km/h
46 02-09-2013 03:45:00 12.9 C 9.24 g/m*3 12.9 C 4.8 km/h
47 02-09-2013 03:50:00 12.8 C 9.18 g/m*3 12.8 C 3.2 km/h
48 02-09-2013 03:55:00 12.7 C 9.24 g/m*3 12.7 C 0 km/h
49 02-09-2013 04:00:00 12.6 C 9.18 g/m*3 12.6 C 3.2 km/h
50 02-09-2013 04:05:00 12.6 C 9.18 g/m*3 12.6 C 3.2 km/h
Sensor: Nr:Datum:Temp:Abs-Feuchte:Windchill:Wind:
Aussen-T/F 51 02-09-2013 04:10:00 12.6 C 9.29 g/m*3 12.6 C 0 km/h
52 02-09-2013 04:15:00 12.5 C 9.13 g/m*3 12.5 C 1.6 km/h
53 02-09-2013 04:20:00 12.6 C 9.18 g/m*3 12.6 C 0 km/h
54 02-09-2013 04:25:00 12.6 C 8.96 g/m*3 12.6 C 0 km/h
55 02-09-2013 04:30:00 12.7 C 9.13 g/m*3 12.7 C 0 km/h
56 02-09-2013 04:35:00 12.7 C 9.02 g/m*3 12.7 C 0 km/h
57 02-09-2013 04:40:00 12.7 C 9.02 g/m*3 12.7 C 0 km/h
58 02-09-2013 04:45:00 12.7 C 9.02 g/m*3 12.7 C 0 km/h
59 02-09-2013 04:50:00 12.8 C 9.07 g/m*3 12.8 C 0 km/h
60 02-09-2013 04:55:00 12.8 C 9.07 g/m*3 12.8 C 1.6 km/h
61 02-09-2013 05:00:00 12.8 C 9.18 g/m*3 12.8 C 0 km/h
62 02-09-2013 05:05:00 12.7 C 9.13 g/m*3 12.7 C 0 km/h
63 02-09-2013 05:10:00 12.7 C 9.02 g/m*3 12.7 C 1.6 km/h
64 02-09-2013 05:15:00 12.7 C 9.02 g/m*3 12.7 C 0 km/h
65 02-09-2013 05:20:00 12.8 C 9.07 g/m*3 12.8 C 0 km/h
66 02-09-2013 05:25:00 12.8 C 9.07 g/m*3 12.8 C 0 km/h
67 02-09-2013 05:30:00 12.8 C 9.3 g/m*3 12.8 C 0 km/h
68 02-09-2013 05:35:00 12.8 C 9.18 g/m*3 12.8 C 4.8 km/h
69 02-09-2013 05:40:00 12.8 C 9.07 g/m*3 12.8 C 1.6 km/h
70 02-09-2013 05:45:00 12.8 C 9.07 g/m*3 12.8 C 3.2 km/h
71 02-09-2013 05:50:00 12.9 C 9.02 g/m*3 12.9 C 3.2 km/h
72 02-09-2013 05:55:00 13 C 8.96 g/m*3 13 C 6.4 km/h
73 02-09-2013 06:00:00 13.1 C 9.01 g/m*3 13.1 C 8.1 km/h
74 02-09-2013 06:05:00 13.1 C 9.01 g/m*3 13.1 C 4.8 km/h
75 02-09-2013 06:10:00 13.1 C 8.9 g/m*3 13.1 C 6.4 km/h
Sensor: Nr:Datum:Temp:Abs-Feuchte:Windchill:Wind:
Aussen-T/F 76 02-09-2013 06:15:00 13.2 C 8.96 g/m*3 13.2 C 9.7 km/h
77 02-09-2013 06:20:00 13.3 C 8.9 g/m*3 13.3 C 9.7 km/h
78 02-09-2013 06:25:00 13.3 C 9.01 g/m*3 13.3 C 8.1 km/h
79 02-09-2013 06:30:00 13.3 C 8.9 g/m*3 13.3 C 11.3 km/h
80 02-09-2013 06:35:00 13.3 C 8.9 g/m*3 13.3 C 11.3 km/h
81 02-09-2013 06:40:00 13.3 C 8.9 g/m*3 13.3 C 8.1 km/h
82 02-09-2013 06:45:00 13.3 C 8.9 g/m*3 13.3 C 6.4 km/h
83 02-09-2013 06:50:00 13.4 C 8.83 g/m*3 13.4 C 9.7 km/h
84 02-09-2013 06:55:00 13.4 C 8.95 g/m*3 13.4 C 8.1 km/h
85 02-09-2013 07:00:00 13.4 C 8.83 g/m*3 13.4 C 9.7 km/h
86 02-09-2013 07:05:00 13.4 C 8.83 g/m*3 13.4 C 8.1 km/h
87 02-09-2013 07:10:00 13.5 C 8.89 g/m*3 13.5 C 8.1 km/h
88 02-09-2013 07:15:00 13.5 C 8.89 g/m*3 13.5 C 12.9 km/h
89 02-09-2013 07:20:00 13.5 C 8.77 g/m*3 13.5 C 6.4 km/h
90 02-09-2013 07:25:00 13.6 C 8.94 g/m*3 13.6 C 9.7 km/h
91 02-09-2013 07:30:00 13.6 C 8.94 g/m*3 13.6 C 8.1 km/h
92 02-09-2013 07:35:00 13.6 C 8.94 g/m*3 13.6 C 8.1 km/h
93 02-09-2013 07:40:00 13.6 C 8.94 g/m*3 13.6 C 11.3 km/h
94 02-09-2013 07:45:00 13.6 C 8.94 g/m*3 13.6 C 12.9 km/h
95 02-09-2013 07:50:00 13.6 C 9.06 g/m*3 13.6 C 8.1 km/h
96 02-09-2013 07:55:00 13.5 C 9.01 g/m*3 13.5 C 4.8 km/h
97 02-09-2013 08:00:00 13.4 C 9.07 g/m*3 13.4 C 4.8 km/h
98 02-09-2013 08:05:00 13.4 C 9.07 g/m*3 13.4 C 6.4 km/h
99 02-09-2013 08:10:00 13.4 C 9.07 g/m*3 13.4 C 8.1 km/h
100 02-09-2013 08:15:00 13.4 C 9.07 g/m*3 13.4 C 12.9 km/h
Sensor: Nr:Datum:Temp:Abs-Feuchte:Windchill:Wind:
Aussen-T/F 101 02-09-2013 08:20:00 13.5 C 9.01 g/m*3 13.5 C 9.7 km/h
102 02-09-2013 08:25:00 13.5 C 9.01 g/m*3 13.5 C 11.3 km/h
103 02-09-2013 08:30:00 13.5 C 8.89 g/m*3 13.5 C 12.9 km/h
104 02-09-2013 08:35:00 13.5 C 8.89 g/m*3 13.5 C 8.1 km/h
105 02-09-2013 08:40:00 13.6 C 8.94 g/m*3 13.6 C 9.7 km/h
106 02-09-2013 08:45:00 13.7 C 9.12 g/m*3 13.7 C 9.7 km/h
107 02-09-2013 08:50:00 13.7 C 9.12 g/m*3 13.7 C 8.1 km/h
108 02-09-2013 08:55:00 13.8 C 9.17 g/m*3 13.8 C 6.4 km/h
109 02-09-2013 09:00:00 13.9 C 9.23 g/m*3 13.9 C 8.1 km/h
110 02-09-2013 09:05:00 13.9 C 9.11 g/m*3 13.9 C 6.4 km/h
111 02-09-2013 09:10:00 13.9 C 9.23 g/m*3 13.9 C 4.8 km/h
112 02-09-2013 09:15:00 13.9 C 9.11 g/m*3 13.9 C 4.8 km/h
113 02-09-2013 09:20:00 14 C 9.17 g/m*3 14 C 14.5 km/h
114 02-09-2013 09:25:00 14.1 C 9.22 g/m*3 14.1 C 9.7 km/h
115 02-09-2013 09:30:00 14.2 C 9.28 g/m*3 14.2 C 12.9 km/h
116 02-09-2013 09:35:00 14.3 C 9.34 g/m*3 14.3 C 12.9 km/h
117 02-09-2013 09:40:00 14.4 C 9.39 g/m*3 14.4 C 9.7 km/h
118 02-09-2013 09:45:00 14.6 C 9.51 g/m*3 14.6 C 9.7 km/h
119 02-09-2013 09:50:00 14.8 C 9.63 g/m*3 14.8 C 11.3 km/h
120 02-09-2013 09:55:00 14.9 C 9.56 g/m*3 14.9 C 9.7 km/h
121 02-09-2013 10:00:00 15.1 C 9.8 g/m*3 15.1 C 9.7 km/h
122 02-09-2013 10:05:00 15.2 C 9.86 g/m*3 15.2 C 3.2 km/h
123 02-09-2013 10:10:00 15.3 C 9.92 g/m*3 15.3 C 3.2 km/h
124 02-09-2013 10:15:00 15.4 C 9.99 g/m*3 15.4 C 11.3 km/h
125 02-09-2013 10:20:00 15.4 C 9.85 g/m*3 15.4 C 3.2 km/h
Sensor: Nr:Datum:Temp:Abs-Feuchte:Windchill:Wind:
Aussen-T/F 126 02-09-2013 10:25:00 15.4 C 9.99 g/m*3 15.4 C 3.2 km/h
127 02-09-2013 10:30:00 15.4 C 9.99 g/m*3 15.4 C 11.3 km/h
128 02-09-2013 10:35:00 15.4 C 9.85 g/m*3 15.4 C 8.1 km/h
129 02-09-2013 10:40:00 15.6 C 9.84 g/m*3 15.6 C 9.7 km/h
130 02-09-2013 10:45:00 15.7 C 9.9 g/m*3 15.7 C 12.9 km/h
131 02-09-2013 10:50:00 15.7 C 9.9 g/m*3 15.7 C 9.7 km/h
132 02-09-2013 10:55:00 15.8 C 9.96 g/m*3 15.8 C 9.7 km/h
133 02-09-2013 11:00:00 15.9 C 10.02 g/m*3 15.9 C 6.4 km/h
134 02-09-2013 11:05:00 16 C 10.08 g/m*3 16 C 11.3 km/h
135 02-09-2013 11:10:00 16.1 C 10.14 g/m*3 16.1 C 3.2 km/h
136 02-09-2013 11:15:00 16.2 C 10.2 g/m*3 16.2 C 3.2 km/h
137 02-09-2013 11:20:00 16.4 C 10.19 g/m*3 16.4 C 8.1 km/h
138 02-09-2013 11:25:00 16.7 C 10.23 g/m*3 16.7 C 14.5 km/h
139 02-09-2013 11:30:00 16.8 C 10.29 g/m*3 16.8 C 9.7 km/h
140 02-09-2013 11:35:00 16.9 C 10.21 g/m*3 16.9 C 6.4 km/h
141 02-09-2013 11:40:00 16.9 C 10.21 g/m*3 16.9 C 8.1 km/h
142 02-09-2013 11:45:00 17.2 C 10.25 g/m*3 17.2 C 11.3 km/h
143 02-09-2013 11:50:00 17.4 C 10.23 g/m*3 17.4 C 11.3 km/h
144 02-09-2013 11:55:00 17.5 C 10.29 g/m*3 17.5 C 4.8 km/h
145 02-09-2013 12:00:00 17.7 C 10.56 g/m*3 17.7 C 6.4 km/h
146 02-09-2013 12:05:00 17.8 C 10.32 g/m*3 17.8 C 9.7 km/h
147 02-09-2013 12:10:00 17.9 C 10.38 g/m*3 17.9 C 8.1 km/h
148 02-09-2013 12:15:00 18.1 C 10.66 g/m*3 18.1 C 9.7 km/h
149 02-09-2013 12:20:00 18.2 C 10.72 g/m*3 18.2 C 6.4 km/h
150 02-09-2013 12:25:00 18.3 C 10.01 g/m*3 18.3 C 12.9 km/h
Sensor: Nr:Datum:Temp:Abs-Feuchte:Windchill:Wind:
Aussen-T/F 151 02-09-2013 12:30:00 18.8 C 9.99 g/m*3 18.8 C 11.3 km/h
152 02-09-2013 12:35:00 19.2 C 10.22 g/m*3 19.2 C 9.7 km/h
153 02-09-2013 12:40:00 19.7 C 10.36 g/m*3 19.7 C 8.1 km/h
154 02-09-2013 12:45:00 19.8 C 10.25 g/m*3 19.8 C 4.8 km/h
155 02-09-2013 12:50:00 20.3 C 10.38 g/m*3 20.3 C 12.9 km/h
156 02-09-2013 12:55:00 20.4 C 10.61 g/m*3 20.4 C 6.4 km/h
157 02-09-2013 13:00:00 20.7 C 10.8 g/m*3 20.7 C 6.4 km/h
158 02-09-2013 13:05:00 20.8 C 10.5 g/m*3 20.8 C 6.4 km/h
159 02-09-2013 13:10:00 21.2 C 10.56 g/m*3 21.2 C 9.7 km/h
160 02-09-2013 13:15:00 21.7 C 10.49 g/m*3 21.7 C 12.9 km/h
161 02-09-2013 13:20:00 21.6 C 9.67 g/m*3 21.6 C 11.3 km/h
162 02-09-2013 13:25:00 21 C 9.71 g/m*3 21 C 4.8 km/h
163 02-09-2013 13:30:00 21.3 C 10.44 g/m*3 21.3 C 11.3 km/h
164 02-09-2013 13:35:00 22.1 C 9.96 g/m*3 22.1 C 11.3 km/h
165 02-09-2013 13:40:00 22.2 C 10.8 g/m*3 22.2 C 11.3 km/h
166 02-09-2013 13:45:00 22 C 10.29 g/m*3 22 C 17.7 km/h
167 02-09-2013 13:50:00 21.8 C 10.55 g/m*3 21.8 C 11.3 km/h
168 02-09-2013 13:55:00 21.8 C 10.94 g/m*3 21.8 C 9.7 km/h
169 02-09-2013 14:00:00 22.2 C 11.58 g/m*3 22.2 C 12.9 km/h
170 02-09-2013 14:05:00 21.9 C 10.81 g/m*3 21.9 C 11.3 km/h
171 02-09-2013 14:10:00 21.9 C 10.61 g/m*3 21.9 C 9.7 km/h
172 02-09-2013 14:15:00 22.3 C 10.47 g/m*3 22.3 C 11.3 km/h
173 02-09-2013 14:20:00 22.2 C 10.6 g/m*3 22.2 C 11.3 km/h
174 02-09-2013 14:25:00 22 C 10.29 g/m*3 22 C 9.7 km/h
175 02-09-2013 14:30:00 22.2 C 11.19 g/m*3 22.2 C 11.3 km/h
Sensor: Nr:Datum:Temp:Abs-Feuchte:Windchill:Wind:
Aussen-T/F 176 02-09-2013 14:35:00 22.6 C 11.25 g/m*3 22.6 C 8.1 km/h
177 02-09-2013 14:40:00 22.6 C 10.85 g/m*3 22.6 C 12.9 km/h
178 02-09-2013 14:45:00 22.3 C 10.47 g/m*3 22.3 C 6.4 km/h
179 02-09-2013 14:50:00 22.6 C 10.25 g/m*3 22.6 C 8.1 km/h
180 02-09-2013 14:55:00 22.6 C 10.25 g/m*3 22.6 C 8.1 km/h
181 02-09-2013 15:00:00 22.7 C 10.51 g/m*3 22.7 C 8.1 km/h
182 02-09-2013 15:05:00 22.7 C 10.3 g/m*3 22.7 C 9.7 km/h
183 02-09-2013 15:10:00 22.8 C 9.96 g/m*3 22.8 C 8.1 km/h
184 02-09-2013 15:15:00 22.9 C 10.42 g/m*3 22.9 C 6.4 km/h
185 02-09-2013 15:20:00 23.3 C 11.08 g/m*3 23.3 C 9.7 km/h
186 02-09-2013 15:25:00 23.1 C 10.54 g/m*3 23.1 C 11.3 km/h
187 02-09-2013 15:30:00 23.5 C 11.21 g/m*3 23.5 C 6.4 km/h
188 02-09-2013 15:35:00 23.6 C 10.42 g/m*3 23.6 C 8.1 km/h
189 02-09-2013 15:40:00 23.1 C 10.13 g/m*3 23.1 C 6.4 km/h
190 02-09-2013 15:45:00 23.3 C 11.5 g/m*3 23.3 C 12.9 km/h
191 02-09-2013 15:50:00 23.6 C 11.06 g/m*3 23.6 C 6.4 km/h
192 02-09-2013 15:55:00 24 C 11.31 g/m*3 24 C 4.8 km/h
193 02-09-2013 16:00:00 23.8 C 10.97 g/m*3 23.8 C 8.1 km/h
194 02-09-2013 16:05:00 23.8 C 10.76 g/m*3 23.8 C 8.1 km/h
195 02-09-2013 16:10:00 24 C 10.88 g/m*3 24 C 6.4 km/h
196 02-09-2013 16:15:00 23.9 C 11.47 g/m*3 23.9 C 8.1 km/h
197 02-09-2013 16:20:00 23.8 C 10.54 g/m*3 23.8 C 11.3 km/h
198 02-09-2013 16:25:00 23.9 C 10.38 g/m*3 23.9 C 11.3 km/h
199 02-09-2013 16:30:00 23.8 C 10.76 g/m*3 23.8 C 11.3 km/h
200 02-09-2013 16:35:00 23.9 C 10.6 g/m*3 23.9 C 8.1 km/h
Sensor: Nr:Datum:Temp:Abs-Feuchte:Windchill:Wind:
Aussen-T/F 201 02-09-2013 16:40:00 24.1 C 10.72 g/m*3 24.1 C 6.4 km/h
202 02-09-2013 16:45:00 23.9 C 10.38 g/m*3 23.9 C 12.9 km/h
203 02-09-2013 16:50:00 23.9 C 11.9 g/m*3 23.9 C 4.8 km/h
204 02-09-2013 16:55:00 24.1 C 11.16 g/m*3 24.1 C 11.3 km/h
205 02-09-2013 17:00:00 24.1 C 11.6 g/m*3 24.1 C 14.5 km/h
206 02-09-2013 17:05:00 24.3 C 11.51 g/m*3 24.3 C 8.1 km/h
207 02-09-2013 17:10:00 24.3 C 11.06 g/m*3 24.3 C 8.1 km/h
208 02-09-2013 17:15:00 24 C 11.1 g/m*3 24 C 9.7 km/h
209 02-09-2013 17:20:00 23.8 C 11.62 g/m*3 23.8 C 11.3 km/h
210 02-09-2013 17:25:00 23.8 C 11.4 g/m*3 23.8 C 12.9 km/h
211 02-09-2013 17:30:00 23.9 C 11.03 g/m*3 23.9 C 11.3 km/h
212 02-09-2013 17:35:00 23.9 C 11.47 g/m*3 23.9 C 9.7 km/h
213 02-09-2013 17:40:00 24 C 11.31 g/m*3 24 C 11.3 km/h
214 02-09-2013 17:45:00 23.9 C 11.47 g/m*3 23.9 C 11.3 km/h
215 02-09-2013 17:50:00 23.8 C 11.4 g/m*3 23.8 C 11.3 km/h
216 02-09-2013 17:55:00 23.8 C 11.4 g/m*3 23.8 C 9.7 km/h
217 02-09-2013 18:00:00 23.7 C 11.12 g/m*3 23.7 C 9.7 km/h
218 02-09-2013 18:05:00 23.6 C 11.27 g/m*3 23.6 C 9.7 km/h
219 02-09-2013 18:10:00 23.6 C 11.48 g/m*3 23.6 C 9.7 km/h
220 02-09-2013 18:15:00 23.9 C 11.47 g/m*3 23.9 C 8.1 km/h
221 02-09-2013 18:20:00 24.1 C 11.16 g/m*3 24.1 C 6.4 km/h
222 02-09-2013 18:25:00 23.9 C 11.03 g/m*3 23.9 C 16.1 km/h
223 02-09-2013 18:30:00 23.6 C 11.27 g/m*3 23.6 C 11.3 km/h
224 02-09-2013 18:35:00 23.4 C 11.35 g/m*3 23.4 C 9.7 km/h
225 02-09-2013 18:40:00 23.2 C 11.43 g/m*3 23.2 C 9.7 km/h
Sensor: Nr:Datum:Temp:Abs-Feuchte:Windchill:Wind:
Aussen-T/F 226 02-09-2013 18:45:00 22.8 C 10.97 g/m*3 22.8 C 14.5 km/h
227 02-09-2013 18:50:00 22.6 C 11.05 g/m*3 22.6 C 9.7 km/h
228 02-09-2013 18:55:00 22.4 C 11.32 g/m*3 22.4 C 9.7 km/h
229 02-09-2013 19:00:00 22.1 C 11.13 g/m*3 22.1 C 9.7 km/h
230 02-09-2013 19:05:00 21.8 C 11.13 g/m*3 21.8 C 11.3 km/h
231 02-09-2013 19:10:00 21.7 C 11.45 g/m*3 21.7 C 8.1 km/h
232 02-09-2013 19:15:00 21.8 C 11.51 g/m*3 21.8 C 8.1 km/h
233 02-09-2013 19:20:00 21.9 C 11.39 g/m*3 21.9 C 6.4 km/h
234 02-09-2013 19:25:00 22 C 11.65 g/m*3 22 C 4.8 km/h
235 02-09-2013 19:30:00 22.1 C 11.32 g/m*3 22.1 C 6.4 km/h
236 02-09-2013 19:35:00 22 C 11.45 g/m*3 22 C 6.4 km/h
237 02-09-2013 19:40:00 21.8 C 11.32 g/m*3 21.8 C 8.1 km/h
238 02-09-2013 19:45:00 21.6 C 11.57 g/m*3 21.6 C 9.7 km/h
239 02-09-2013 19:50:00 21.3 C 11.18 g/m*3 21.3 C 6.4 km/h
240 02-09-2013 19:55:00 21.2 C 11.49 g/m*3 21.2 C 6.4 km/h
241 02-09-2013 20:00:00 21.1 C 11.42 g/m*3 21.1 C 8.1 km/h
242 02-09-2013 20:05:00 20.9 C 11.47 g/m*3 20.9 C 8.1 km/h
243 02-09-2013 20:10:00 20.9 C 11.47 g/m*3 20.9 C 4.8 km/h
244 02-09-2013 20:15:00 20.8 C 11.41 g/m*3 20.8 C 8.1 km/h
245 02-09-2013 20:20:00 20.8 C 11.59 g/m*3 20.8 C 8.1 km/h
246 02-09-2013 20:25:00 20.7 C 11.52 g/m*3 20.7 C 8.1 km/h
247 02-09-2013 20:30:00 20.6 C 11.63 g/m*3 20.6 C 8.1 km/h
248 02-09-2013 20:35:00 20.6 C 11.63 g/m*3 20.6 C 4.8 km/h
249 02-09-2013 20:40:00 20.4 C 11.5 g/m*3 20.4 C 6.4 km/h
250 02-09-2013 20:45:00 20.4 C 11.5 g/m*3 20.4 C 6.4 km/h
Sensor: Nr:Datum:Temp:Abs-Feuchte:Windchill:Wind:
Aussen-T/F 251 02-09-2013 20:50:00 20.3 C 11.43 g/m*3 20.3 C 4.8 km/h
252 02-09-2013 20:55:00 20.2 C 11.71 g/m*3 20.2 C 3.2 km/h
253 02-09-2013 21:00:00 19.9 C 12.03 g/m*3 19.9 C 0 km/h
254 02-09-2013 21:05:00 19.3 C 12.11 g/m*3 19.3 C 1.6 km/h
255 02-09-2013 21:10:00 18.9 C 11.66 g/m*3 18.9 C 1.6 km/h
256 02-09-2013 21:15:00 18.8 C 12.24 g/m*3 18.8 C 0 km/h
257 02-09-2013 21:20:00 18.6 C 12.1 g/m*3 18.6 C 1.6 km/h
258 02-09-2013 21:25:00 18.5 C 12.34 g/m*3 18.5 C 0 km/h
259 02-09-2013 21:30:00 18.4 C 12.27 g/m*3 18.4 C 1.6 km/h
260 02-09-2013 21:35:00 18.3 C 12.35 g/m*3 18.3 C 0 km/h
261 02-09-2013 21:40:00 18.2 C 12.28 g/m*3 18.2 C 0 km/h
262 02-09-2013 21:45:00 18.2 C 12.28 g/m*3 18.2 C 0 km/h
263 02-09-2013 21:50:00 18.2 C 12.43 g/m*3 18.2 C 0 km/h
264 02-09-2013 21:55:00 18.2 C 11.97 g/m*3 18.2 C 0 km/h
265 02-09-2013 22:00:00 18.3 C 12.35 g/m*3 18.3 C 0 km/h
266 02-09-2013 22:05:00 18.3 C 12.51 g/m*3 18.3 C 0 km/h
267 02-09-2013 22:10:00 18.2 C 12.43 g/m*3 18.2 C 0 km/h
268 02-09-2013 22:15:00 18.2 C 12.43 g/m*3 18.2 C 0 km/h
269 02-09-2013 22:20:00 18.1 C 12.21 g/m*3 18.1 C 0 km/h
270 02-09-2013 22:25:00 18.1 C 12.21 g/m*3 18.1 C 0 km/h
271 02-09-2013 22:30:00 18.1 C 12.36 g/m*3 18.1 C 0 km/h
272 02-09-2013 22:35:00 18.1 C 12.36 g/m*3 18.1 C 0 km/h
273 02-09-2013 22:40:00 18.2 C 12.28 g/m*3 18.2 C 0 km/h
274 02-09-2013 22:45:00 18.3 C 12.51 g/m*3 18.3 C 0 km/h
275 02-09-2013 22:50:00 18.2 C 12.43 g/m*3 18.2 C 0 km/h
Sensor: Nr:Datum:Temp:Abs-Feuchte:Windchill:Wind:
Aussen-T/F 276 02-09-2013 22:55:00 18.2 C 12.28 g/m*3 18.2 C 1.6 km/h
277 02-09-2013 23:00:00 18.3 C 12.51 g/m*3 18.3 C 1.6 km/h
278 02-09-2013 23:05:00 18.2 C 12.43 g/m*3 18.2 C 0 km/h
279 02-09-2013 23:10:00 18.1 C 12.36 g/m*3 18.1 C 0 km/h
280 02-09-2013 23:15:00 18.1 C 12.36 g/m*3 18.1 C 0 km/h
281 02-09-2013 23:20:00 18.1 C 12.21 g/m*3 18.1 C 0 km/h
282 02-09-2013 23:25:00 18.1 C 12.52 g/m*3 18.1 C 0 km/h
283 02-09-2013 23:30:00 18 C 12.44 g/m*3 18 C 0 km/h
284 02-09-2013 23:35:00 17.9 C 12.52 g/m*3 17.9 C 0 km/h
285 02-09-2013 23:40:00 17.9 C 12.37 g/m*3 17.9 C 0 km/h
286 02-09-2013 23:45:00 17.9 C 11.91 g/m*3 17.9 C 0 km/h
287 02-09-2013 23:50:00 18.1 C 12.52 g/m*3 18.1 C 0 km/h
288 02-09-2013 23:55:00 18 C 12.44 g/m*3 18 C 0 km/h
289 03-09-2013 00:00:00 17.9 C 12.37 g/m*3 17.9 C 0 km/h
290 03-09-2013 00:05:00 17.9 C 12.21 g/m*3 17.9 C 0 km/h
291 03-09-2013 00:10:00 17.9 C 12.37 g/m*3 17.9 C 0 km/h
292 03-09-2013 00:15:00 17.8 C 12.29 g/m*3 17.8 C 0 km/h
293 03-09-2013 00:20:00 17.8 C 12.29 g/m*3 17.8 C 0 km/h
294 03-09-2013 00:25:00 17.8 C 12.29 g/m*3 17.8 C 0 km/h
295 03-09-2013 00:30:00 17.7 C 12.22 g/m*3 17.7 C 0 km/h
296 03-09-2013 00:35:00 17.7 C 12.52 g/m*3 17.7 C 0 km/h
297 03-09-2013 00:40:00 17.5 C 12.37 g/m*3 17.5 C 0 km/h
298 03-09-2013 00:45:00 17.4 C 12.3 g/m*3 17.4 C 0 km/h
299 03-09-2013 00:50:00 17.3 C 12.23 g/m*3 17.3 C 0 km/h
300 03-09-2013 00:55:00 17.2 C 12.15 g/m*3 17.2 C 3.2 km/h
Sensor: Nr:Datum:Temp:Abs-Feuchte:Windchill:Wind:
Aussen-T/F 301 03-09-2013 01:00:00 17.1 C 12.23 g/m*3 17.1 C 0 km/h
302 03-09-2013 01:05:00 17 C 12.15 g/m*3 17 C 0 km/h
303 03-09-2013 01:10:00 16.9 C 12.08 g/m*3 16.9 C 0 km/h
304 03-09-2013 01:15:00 16.8 C 12.15 g/m*3 16.8 C 0 km/h
305 03-09-2013 01:20:00 16.8 C 12.15 g/m*3 16.8 C 1.6 km/h
306 03-09-2013 01:25:00 16.7 C 12.22 g/m*3 16.7 C 0 km/h
307 03-09-2013 01:30:00 16.7 C 12.08 g/m*3 16.7 C 0 km/h
308 03-09-2013 01:35:00 16.7 C 12.08 g/m*3 16.7 C 0 km/h
309 03-09-2013 01:40:00 16.7 C 11.94 g/m*3 16.7 C 6.4 km/h
310 03-09-2013 01:45:00 17.2 C 12.15 g/m*3 17.2 C 6.4 km/h
311 03-09-2013 01:50:00 17.3 C 12.08 g/m*3 17.3 C 3.2 km/h
312 03-09-2013 01:55:00 17.2 C 12.15 g/m*3 17.2 C 0 km/h
313 03-09-2013 02:00:00 17 C 12.15 g/m*3 17 C 0 km/h
314 03-09-2013 02:05:00 16.7 C 12.08 g/m*3 16.7 C 0 km/h
315 03-09-2013 02:10:00 16.7 C 11.94 g/m*3 16.7 C 3.2 km/h
316 03-09-2013 02:15:00 16.7 C 11.94 g/m*3 16.7 C 3.2 km/h
317 03-09-2013 02:20:00 16.6 C 12.01 g/m*3 16.6 C 1.6 km/h
318 03-09-2013 02:25:00 16.4 C 11.86 g/m*3 16.4 C 0 km/h
319 03-09-2013 02:30:00 16.2 C 11.86 g/m*3 16.2 C 0 km/h
320 03-09-2013 02:35:00 16.2 C 12 g/m*3 16.2 C 0 km/h
321 03-09-2013 02:40:00 16.1 C 11.93 g/m*3 16.1 C 0 km/h
322 03-09-2013 02:45:00 16 C 11.85 g/m*3 16 C 0 km/h
323 03-09-2013 02:50:00 15.9 C 11.78 g/m*3 15.9 C 1.6 km/h
324 03-09-2013 02:55:00 15.8 C 11.85 g/m*3 15.8 C 0 km/h
325 03-09-2013 03:00:00 15.9 C 11.78 g/m*3 15.9 C 3.2 km/h
Sensor: Nr:Datum:Temp:Abs-Feuchte:Windchill:Wind:
Aussen-T/F 326 03-09-2013 03:05:00 15.9 C 11.78 g/m*3 15.9 C 0 km/h
327 03-09-2013 03:10:00 15.9 C 11.65 g/m*3 15.9 C 1.6 km/h
328 03-09-2013 03:15:00 15.9 C 11.65 g/m*3 15.9 C 1.6 km/h
329 03-09-2013 03:20:00 15.8 C 11.71 g/m*3 15.8 C 0 km/h
330 03-09-2013 03:25:00 15.7 C 11.64 g/m*3 15.7 C 0 km/h
331 03-09-2013 03:30:00 15.5 C 11.63 g/m*3 15.5 C 0 km/h
332 03-09-2013 03:35:00 15.4 C 11.56 g/m*3 15.4 C 0 km/h
333 03-09-2013 03:40:00 15.3 C 11.62 g/m*3 15.3 C 1.6 km/h
334 03-09-2013 03:45:00 15.3 C 11.62 g/m*3 15.3 C 0 km/h
335 03-09-2013 03:50:00 15.3 C 11.62 g/m*3 15.3 C 0 km/h
336 03-09-2013 03:55:00 15.2 C 11.55 g/m*3 15.2 C 0 km/h
337 03-09-2013 04:00:00 15.1 C 11.48 g/m*3 15.1 C 0 km/h
338 03-09-2013 04:05:00 15.1 C 11.61 g/m*3 15.1 C 0 km/h
339 03-09-2013 04:10:00 14.9 C 11.47 g/m*3 14.9 C 0 km/h
340 03-09-2013 04:15:00 14.9 C 11.47 g/m*3 14.9 C 0 km/h
341 03-09-2013 04:20:00 14.9 C 11.47 g/m*3 14.9 C 0 km/h
342 03-09-2013 04:25:00 14.8 C 11.4 g/m*3 14.8 C 0 km/h
343 03-09-2013 04:30:00 14.8 C 11.53 g/m*3 14.8 C 0 km/h
344 03-09-2013 04:35:00 14.7 C 11.46 g/m*3 14.7 C 0 km/h
345 03-09-2013 04:40:00 14.7 C 11.46 g/m*3 14.7 C 0 km/h
346 03-09-2013 04:45:00 14.6 C 11.39 g/m*3 14.6 C 0 km/h
347 03-09-2013 04:50:00 14.4 C 11.25 g/m*3 14.4 C 0 km/h
348 03-09-2013 04:55:00 14.4 C 11.25 g/m*3 14.4 C 0 km/h
349 03-09-2013 05:00:00 14.2 C 11.11 g/m*3 14.2 C 0 km/h
350 03-09-2013 05:05:00 14.1 C 11.17 g/m*3 14.1 C 0 km/h
Sensor: Nr:Datum:Temp:Abs-Feuchte:Windchill:Wind:
Aussen-T/F 351 03-09-2013 05:10:00 14.1 C 11.17 g/m*3 14.1 C 0 km/h
352 03-09-2013 05:15:00 14 C 11.1 g/m*3 14 C 0 km/h
353 03-09-2013 05:20:00 14 C 11.1 g/m*3 14 C 0 km/h
354 03-09-2013 05:25:00 14.1 C 11.17 g/m*3 14.1 C 0 km/h
355 03-09-2013 05:30:00 14 C 11.1 g/m*3 14 C 0 km/h
356 03-09-2013 05:35:00 14.1 C 11.17 g/m*3 14.1 C 0 km/h
357 03-09-2013 05:40:00 14 C 11.1 g/m*3 14 C 0 km/h
358 03-09-2013 05:45:00 13.9 C 11.03 g/m*3 13.9 C 0 km/h
359 03-09-2013 05:50:00 13.9 C 11.03 g/m*3 13.9 C 0 km/h
360 03-09-2013 05:55:00 13.8 C 10.96 g/m*3 13.8 C 0 km/h
361 03-09-2013 06:00:00 13.7 C 10.89 g/m*3 13.7 C 0 km/h
362 03-09-2013 06:05:00 13.7 C 11.01 g/m*3 13.7 C 0 km/h
363 03-09-2013 06:10:00 13.7 C 11.01 g/m*3 13.7 C 0 km/h
364 03-09-2013 06:15:00 13.7 C 11.01 g/m*3 13.7 C 0 km/h
365 03-09-2013 06:20:00 13.7 C 11.01 g/m*3 13.7 C 0 km/h
366 03-09-2013 06:25:00 13.7 C 11.01 g/m*3 13.7 C 0 km/h
367 03-09-2013 06:30:00 13.6 C 10.83 g/m*3 13.6 C 0 km/h
368 03-09-2013 06:35:00 13.6 C 10.83 g/m*3 13.6 C 0 km/h
369 03-09-2013 06:40:00 13.5 C 10.76 g/m*3 13.5 C 0 km/h
370 03-09-2013 06:45:00 13.4 C 10.69 g/m*3 13.4 C 0 km/h
371 03-09-2013 06:50:00 13.4 C 10.81 g/m*3 13.4 C 0 km/h
372 03-09-2013 06:55:00 13.3 C 10.74 g/m*3 13.3 C 0 km/h
373 03-09-2013 07:00:00 13.2 C 10.68 g/m*3 13.2 C 0 km/h
374 03-09-2013 07:05:00 13.2 C 10.68 g/m*3 13.2 C 3.2 km/h
375 03-09-2013 07:10:00 13.2 C 10.68 g/m*3 13.2 C 0 km/h
Sensor: Nr:Datum:Temp:Abs-Feuchte:Windchill:Wind:
Aussen-T/F 376 03-09-2013 07:15:00 13.2 C 10.68 g/m*3 13.2 C 0 km/h
377 03-09-2013 07:20:00 13.2 C 10.79 g/m*3 13.2 C 0 km/h
378 03-09-2013 07:25:00 13.2 C 10.79 g/m*3 13.2 C 4.8 km/h
379 03-09-2013 07:30:00 13.2 C 10.79 g/m*3 13.2 C 0 km/h
380 03-09-2013 07:35:00 13.2 C 10.79 g/m*3 13.2 C 3.2 km/h
381 03-09-2013 07:40:00 13.2 C 10.79 g/m*3 13.2 C 0 km/h
382 03-09-2013 07:45:00 13.2 C 10.79 g/m*3 13.2 C 8.1 km/h
383 03-09-2013 07:50:00 13.2 C 10.79 g/m*3 13.2 C 0 km/h
384 03-09-2013 07:55:00 13.2 C 10.79 g/m*3 13.2 C 0 km/h
385 03-09-2013 08:00:00 13.2 C 10.79 g/m*3 13.2 C 3.2 km/h
386 03-09-2013 08:05:00 13.2 C 10.79 g/m*3 13.2 C 3.2 km/h
387 03-09-2013 08:10:00 13.2 C 10.68 g/m*3 13.2 C 0 km/h
388 03-09-2013 08:15:00 13.3 C 10.74 g/m*3 13.3 C 1.6 km/h
389 03-09-2013 08:20:00 13.3 C 10.74 g/m*3 13.3 C 0 km/h
390 03-09-2013 08:25:00 13.3 C 10.86 g/m*3 13.3 C 0 km/h
391 03-09-2013 08:30:00 13.4 C 10.93 g/m*3 13.4 C 0 km/h
392 03-09-2013 08:35:00 13.4 C 10.93 g/m*3 13.4 C 0 km/h
393 03-09-2013 08:40:00 13.5 C 10.99 g/m*3 13.5 C 6.4 km/h
394 03-09-2013 08:45:00 13.6 C 10.95 g/m*3 13.6 C 3.2 km/h
395 03-09-2013 08:50:00 13.7 C 11.01 g/m*3 13.7 C 0 km/h
396 03-09-2013 08:55:00 13.9 C 11.15 g/m*3 13.9 C 0 km/h
397 03-09-2013 09:00:00 14 C 11.22 g/m*3 14 C 3.2 km/h
398 03-09-2013 09:05:00 14.2 C 11.23 g/m*3 14.2 C 8.1 km/h
399 03-09-2013 09:10:00 14.4 C 11.37 g/m*3 14.4 C 0 km/h
400 03-09-2013 09:15:00 14.4 C 11.37 g/m*3 14.4 C 0 km/h
Sensor: Nr:Datum:Temp:Abs-Feuchte:Windchill:Wind:
Aussen-T/F 401 03-09-2013 09:20:00 14.6 C 11.51 g/m*3 14.6 C 0 km/h
402 03-09-2013 09:25:00 14.7 C 11.58 g/m*3 14.7 C 3.2 km/h
403 03-09-2013 09:30:00 14.9 C 11.6 g/m*3 14.9 C 3.2 km/h
404 03-09-2013 09:35:00 15.3 C 11.75 g/m*3 15.3 C 6.4 km/h
405 03-09-2013 09:40:00 15.6 C 11.84 g/m*3 15.6 C 3.2 km/h
406 03-09-2013 09:45:00 15.9 C 11.92 g/m*3 15.9 C 8.1 km/h
407 03-09-2013 09:50:00 16.2 C 11.86 g/m*3 16.2 C 4.8 km/h
408 03-09-2013 09:55:00 16.4 C 11.86 g/m*3 16.4 C 3.2 km/h
409 03-09-2013 10:00:00 16.7 C 12.22 g/m*3 16.7 C 0 km/h
410 03-09-2013 10:05:00 16.9 C 12.08 g/m*3 16.9 C 1.6 km/h
411 03-09-2013 10:10:00 17.1 C 12.08 g/m*3 17.1 C 0 km/h
412 03-09-2013 10:15:00 17.3 C 12.52 g/m*3 17.3 C 0 km/h
413 03-09-2013 10:20:00 17.4 C 12 g/m*3 17.4 C 0 km/h
414 03-09-2013 10:25:00 17.7 C 12.67 g/m*3 17.7 C 0 km/h
415 03-09-2013 10:30:00 17.8 C 12.14 g/m*3 17.8 C 0 km/h
416 03-09-2013 10:35:00 18 C 12.29 g/m*3 18 C 0 km/h
417 03-09-2013 10:40:00 18.1 C 12.36 g/m*3 18.1 C 3.2 km/h
418 03-09-2013 10:45:00 18.3 C 12.51 g/m*3 18.3 C 0 km/h
419 03-09-2013 10:50:00 18.4 C 12.43 g/m*3 18.4 C 0 km/h
420 03-09-2013 10:55:00 18.6 C 12.41 g/m*3 18.6 C 0 km/h
421 03-09-2013 11:00:00 18.7 C 12.49 g/m*3 18.7 C 0 km/h
422 03-09-2013 11:05:00 18.8 C 12.24 g/m*3 18.8 C 3.2 km/h
423 03-09-2013 11:10:00 19 C 12.55 g/m*3 19 C 0 km/h
424 03-09-2013 11:15:00 19.2 C 12.53 g/m*3 19.2 C 0 km/h
425 03-09-2013 11:20:00 19.3 C 12.44 g/m*3 19.3 C 3.2 km/h
Sensor: Nr:Datum:Temp:Abs-Feuchte:Windchill:Wind:
Aussen-T/F 426 03-09-2013 11:25:00 19.3 C 12.61 g/m*3 19.3 C 3.2 km/h
427 03-09-2013 11:30:00 19.4 C 12.51 g/m*3 19.4 C 3.2 km/h
428 03-09-2013 11:35:00 19.5 C 12.59 g/m*3 19.5 C 6.4 km/h
429 03-09-2013 11:40:00 19.5 C 12.25 g/m*3 19.5 C 3.2 km/h
430 03-09-2013 11:45:00 19.6 C 12.49 g/m*3 19.6 C 4.8 km/h
431 03-09-2013 11:50:00 19.8 C 12.81 g/m*3 19.8 C 4.8 km/h
432 03-09-2013 11:55:00 19.9 C 12.54 g/m*3 19.9 C 0 km/h
433 03-09-2013 12:00:00 20 C 12.62 g/m*3 20 C 3.2 km/h
434 03-09-2013 12:05:00 20.1 C 12.69 g/m*3 20.1 C 1.6 km/h
435 03-09-2013 12:10:00 20.1 C 12.86 g/m*3 20.1 C 4.8 km/h
436 03-09-2013 12:15:00 20.1 C 12.69 g/m*3 20.1 C 4.8 km/h
437 03-09-2013 12:20:00 20.1 C 12.86 g/m*3 20.1 C 1.6 km/h
438 03-09-2013 12:25:00 20.2 C 12.76 g/m*3 20.2 C 4.8 km/h
439 03-09-2013 12:30:00 20.3 C 13.37 g/m*3 20.3 C 0 km/h
440 03-09-2013 12:35:00 20.4 C 12.91 g/m*3 20.4 C 3.2 km/h
441 03-09-2013 12:40:00 20.5 C 13.17 g/m*3 20.5 C 0 km/h
442 03-09-2013 12:45:00 20.7 C 13.14 g/m*3 20.7 C 4.8 km/h
443 03-09-2013 12:50:00 20.8 C 12.86 g/m*3 20.8 C 6.4 km/h
444 03-09-2013 12:55:00 20.9 C 13.3 g/m*3 20.9 C 6.4 km/h
445 03-09-2013 13:00:00 21.3 C 13.79 g/m*3 21.3 C 4.8 km/h
446 03-09-2013 13:05:00 21.4 C 13.12 g/m*3 21.4 C 6.4 km/h
447 03-09-2013 13:10:00 21 C 12.82 g/m*3 21 C 4.8 km/h
448 03-09-2013 13:15:00 21.3 C 13.61 g/m*3 21.3 C 4.8 km/h
449 03-09-2013 13:20:00 21.5 C 12.82 g/m*3 21.5 C 4.8 km/h
450 03-09-2013 13:25:00 21.7 C 12.59 g/m*3 21.7 C 6.4 km/h
Sensor: Nr:Datum:Temp:Abs-Feuchte:Windchill:Wind:
Aussen-T/F 451 03-09-2013 13:30:00 21.8 C 12.66 g/m*3 21.8 C 3.2 km/h
452 03-09-2013 13:35:00 21.9 C 13.12 g/m*3 21.9 C 6.4 km/h
453 03-09-2013 13:40:00 22.2 C 13.35 g/m*3 22.2 C 6.4 km/h
454 03-09-2013 13:45:00 22.1 C 12.88 g/m*3 22.1 C 4.8 km/h
455 03-09-2013 13:50:00 22.3 C 12.64 g/m*3 22.3 C 4.8 km/h
456 03-09-2013 13:55:00 22.6 C 13.26 g/m*3 22.6 C 8.1 km/h
457 03-09-2013 14:00:00 22.3 C 13.23 g/m*3 22.3 C 6.4 km/h
458 03-09-2013 14:05:00 22.2 C 13.35 g/m*3 22.2 C 4.8 km/h
459 03-09-2013 14:10:00 22.6 C 13.06 g/m*3 22.6 C 1.6 km/h
460 03-09-2013 14:15:00 22.9 C 13.08 g/m*3 22.9 C 4.8 km/h
461 03-09-2013 14:20:00 22.8 C 12.8 g/m*3 22.8 C 4.8 km/h
462 03-09-2013 14:25:00 23.1 C 13.44 g/m*3 23.1 C 6.4 km/h
463 03-09-2013 14:30:00 22.9 C 13.28 g/m*3 22.9 C 6.4 km/h
464 03-09-2013 14:35:00 22.7 C 13.13 g/m*3 22.7 C 4.8 km/h
465 03-09-2013 14:40:00 23.1 C 12.82 g/m*3 23.1 C 8.1 km/h
466 03-09-2013 14:45:00 23.2 C 13.1 g/m*3 23.2 C 9.7 km/h
467 03-09-2013 14:50:00 23.3 C 12.75 g/m*3 23.3 C 8.1 km/h
468 03-09-2013 14:55:00 23.2 C 13.31 g/m*3 23.2 C 6.4 km/h
469 03-09-2013 15:00:00 23.3 C 12.96 g/m*3 23.3 C 6.4 km/h
470 03-09-2013 15:05:00 23.3 C 13.17 g/m*3 23.3 C 6.4 km/h
471 03-09-2013 15:10:00 23.5 C 13.11 g/m*3 23.5 C 6.4 km/h
472 03-09-2013 15:15:00 23.1 C 13.02 g/m*3 23.1 C 9.7 km/h
473 03-09-2013 15:20:00 23.2 C 13.1 g/m*3 23.2 C 6.4 km/h
474 03-09-2013 15:25:00 23.3 C 13.38 g/m*3 23.3 C 6.4 km/h
475 03-09-2013 15:30:00 23.6 C 13.19 g/m*3 23.6 C 11.3 km/h
Sensor: Nr:Datum:Temp:Abs-Feuchte:Windchill:Wind:
Aussen-T/F 476 03-09-2013 15:35:00 23.7 C 13.48 g/m*3 23.7 C 11.3 km/h
477 03-09-2013 15:40:00 23.7 C 13.9 g/m*3 23.7 C 9.7 km/h
478 03-09-2013 15:45:00 23.8 C 13.98 g/m*3 23.8 C 6.4 km/h
479 03-09-2013 15:50:00 23.6 C 14.04 g/m*3 23.6 C 8.1 km/h
480 03-09-2013 15:55:00 23.7 C 13.69 g/m*3 23.7 C 9.7 km/h
481 03-09-2013 16:00:00 23.6 C 13.82 g/m*3 23.6 C 8.1 km/h
482 03-09-2013 16:05:00 23.8 C 13.77 g/m*3 23.8 C 8.1 km/h
483 03-09-2013 16:10:00 23.9 C 13.63 g/m*3 23.9 C 9.7 km/h
484 03-09-2013 16:15:00 23.8 C 13.98 g/m*3 23.8 C 9.7 km/h
485 03-09-2013 16:20:00 23.5 C 13.32 g/m*3 23.5 C 11.3 km/h
486 03-09-2013 16:25:00 23.4 C 13.25 g/m*3 23.4 C 11.3 km/h
487 03-09-2013 16:30:00 23.4 C 13.25 g/m*3 23.4 C 9.7 km/h
488 03-09-2013 16:35:00 23.7 C 13.9 g/m*3 23.7 C 11.3 km/h
489 03-09-2013 16:40:00 23.6 C 13.82 g/m*3 23.6 C 9.7 km/h
490 03-09-2013 16:45:00 23.8 C 13.12 g/m*3 23.8 C 4.8 km/h
491 03-09-2013 16:50:00 23.8 C 13.77 g/m*3 23.8 C 12.9 km/h
492 03-09-2013 16:55:00 23.7 C 14.12 g/m*3 23.7 C 6.4 km/h
493 03-09-2013 17:00:00 23.8 C 13.77 g/m*3 23.8 C 11.3 km/h
494 03-09-2013 17:05:00 23.9 C 13.41 g/m*3 23.9 C 9.7 km/h
495 03-09-2013 17:10:00 24.1 C 13.57 g/m*3 24.1 C 8.1 km/h
496 03-09-2013 17:15:00 24.2 C 13.64 g/m*3 24.2 C 6.4 km/h
497 03-09-2013 17:20:00 24.2 C 13.42 g/m*3 24.2 C 6.4 km/h
498 03-09-2013 17:25:00 23.9 C 13.63 g/m*3 23.9 C 11.3 km/h
499 03-09-2013 17:30:00 23.7 C 13.26 g/m*3 23.7 C 4.8 km/h
500 03-09-2013 17:35:00 23.8 C 13.34 g/m*3 23.8 C 8.1 km/h
Sensor: Nr:Datum:Temp:Abs-Feuchte:Windchill:Wind:
Aussen-T/F 501 03-09-2013 17:40:00 23.8 C 13.55 g/m*3 23.8 C 8.1 km/h
502 03-09-2013 17:45:00 23.8 C 13.12 g/m*3 23.8 C 9.7 km/h
503 03-09-2013 17:50:00 23.9 C 13.63 g/m*3 23.9 C 8.1 km/h
504 03-09-2013 17:55:00 24 C 13.92 g/m*3 24 C 11.3 km/h
505 03-09-2013 18:00:00 24.1 C 13.57 g/m*3 24.1 C 9.7 km/h
506 03-09-2013 18:05:00 23.8 C 13.34 g/m*3 23.8 C 14.5 km/h
507 03-09-2013 18:10:00 23.7 C 13.48 g/m*3 23.7 C 6.4 km/h
508 03-09-2013 18:15:00 23.7 C 13.48 g/m*3 23.7 C 8.1 km/h
509 03-09-2013 18:20:00 23.7 C 13.48 g/m*3 23.7 C 8.1 km/h
510 03-09-2013 18:25:00 23.8 C 13.55 g/m*3 23.8 C 8.1 km/h
511 03-09-2013 18:30:00 23.7 C 13.26 g/m*3 23.7 C 11.3 km/h
512 03-09-2013 18:35:00 23.7 C 13.48 g/m*3 23.7 C 9.7 km/h
513 03-09-2013 18:40:00 23.6 C 13.4 g/m*3 23.6 C 8.1 km/h
514 03-09-2013 18:45:00 23.4 C 13.46 g/m*3 23.4 C 3.2 km/h
515 03-09-2013 18:50:00 23.3 C 13.38 g/m*3 23.3 C 4.8 km/h
516 03-09-2013 18:55:00 23.4 C 13.25 g/m*3 23.4 C 8.1 km/h
517 03-09-2013 19:00:00 23.2 C 13.1 g/m*3 23.2 C 6.4 km/h
518 03-09-2013 19:05:00 23.1 C 13.85 g/m*3 23.1 C 1.6 km/h
519 03-09-2013 19:10:00 22.7 C 13.74 g/m*3 22.7 C 0 km/h
520 03-09-2013 19:15:00 22.1 C 14.05 g/m*3 22.1 C 0 km/h
521 03-09-2013 19:20:00 21.4 C 13.87 g/m*3 21.4 C 0 km/h
522 03-09-2013 19:25:00 20.8 C 13.76 g/m*3 20.8 C 0 km/h
523 03-09-2013 19:30:00 20.4 C 13.8 g/m*3 20.4 C 0 km/h
524 03-09-2013 19:35:00 20.1 C 13.73 g/m*3 20.1 C 0 km/h
525 03-09-2013 19:40:00 19.7 C 13.58 g/m*3 19.7 C 0 km/h
Sensor: Nr:Datum:Temp:Abs-Feuchte:Windchill:Wind:
Aussen-T/F 526 03-09-2013 19:45:00 19.4 C 13.51 g/m*3 19.4 C 0 km/h
527 03-09-2013 19:50:00 19.2 C 13.36 g/m*3 19.2 C 0 km/h
528 03-09-2013 19:55:00 18.9 C 13.28 g/m*3 18.9 C 0 km/h
529 03-09-2013 20:00:00 18.7 C 13.13 g/m*3 18.7 C 0 km/h
530 03-09-2013 20:05:00 18.6 C 13.21 g/m*3 18.6 C 0 km/h
531 03-09-2013 20:10:00 18.4 C 13.05 g/m*3 18.4 C 0 km/h
532 03-09-2013 20:15:00 18.2 C 13.06 g/m*3 18.2 C 0 km/h
533 03-09-2013 20:20:00 18 C 12.9 g/m*3 18 C 0 km/h
534 03-09-2013 20:25:00 17.9 C 12.98 g/m*3 17.9 C 0 km/h
535 03-09-2013 20:30:00 17.7 C 12.82 g/m*3 17.7 C 0 km/h
536 03-09-2013 20:35:00 17.6 C 12.75 g/m*3 17.6 C 0 km/h
537 03-09-2013 20:40:00 17.4 C 12.75 g/m*3 17.4 C 0 km/h
538 03-09-2013 20:45:00 17.4 C 12.75 g/m*3 17.4 C 0 km/h
539 03-09-2013 20:50:00 17.3 C 12.67 g/m*3 17.3 C 0 km/h
540 03-09-2013 20:55:00 17.2 C 12.59 g/m*3 17.2 C 0 km/h
541 03-09-2013 21:00:00 17.2 C 12.59 g/m*3 17.2 C 0 km/h
542 03-09-2013 21:05:00 17.1 C 12.66 g/m*3 17.1 C 0 km/h
543 03-09-2013 21:10:00 17 C 12.59 g/m*3 17 C 0 km/h
544 03-09-2013 21:15:00 16.9 C 12.66 g/m*3 16.9 C 0 km/h
545 03-09-2013 21:20:00 16.8 C 12.44 g/m*3 16.8 C 0 km/h
546 03-09-2013 21:25:00 16.8 C 12.44 g/m*3 16.8 C 0 km/h
547 03-09-2013 21:30:00 16.7 C 12.36 g/m*3 16.7 C 0 km/h
548 03-09-2013 21:35:00 16.7 C 12.36 g/m*3 16.7 C 0 km/h
549 03-09-2013 21:40:00 16.6 C 12.29 g/m*3 16.6 C 0 km/h
550 03-09-2013 21:45:00 16.5 C 12.36 g/m*3 16.5 C 0 km/h
Sensor: Nr:Datum:Temp:Abs-Feuchte:Windchill:Wind:
Aussen-T/F 551 03-09-2013 21:50:00 16.4 C 12.28 g/m*3 16.4 C 0 km/h
552 03-09-2013 21:55:00 16.4 C 12.28 g/m*3 16.4 C 0 km/h
553 03-09-2013 22:00:00 16.4 C 12.42 g/m*3 16.4 C 0 km/h
554 03-09-2013 22:05:00 16.3 C 12.21 g/m*3 16.3 C 0 km/h
555 03-09-2013 22:10:00 16.3 C 12.35 g/m*3 16.3 C 0 km/h
556 03-09-2013 22:15:00 16.3 C 12.35 g/m*3 16.3 C 0 km/h
557 03-09-2013 22:20:00 16.2 C 12.14 g/m*3 16.2 C 0 km/h
558 03-09-2013 22:25:00 16.2 C 12.27 g/m*3 16.2 C 0 km/h
559 03-09-2013 22:30:00 16 C 12.13 g/m*3 16 C 0 km/h
560 03-09-2013 22:35:00 15.9 C 12.19 g/m*3 15.9 C 0 km/h
561 03-09-2013 22:40:00 15.8 C 12.11 g/m*3 15.8 C 0 km/h
562 03-09-2013 22:45:00 15.7 C 12.04 g/m*3 15.7 C 0 km/h
563 03-09-2013 22:50:00 15.6 C 11.97 g/m*3 15.6 C 0 km/h
564 03-09-2013 22:55:00 15.5 C 12.03 g/m*3 15.5 C 0 km/h
565 03-09-2013 23:00:00 15.4 C 11.96 g/m*3 15.4 C 0 km/h
566 03-09-2013 23:05:00 15.3 C 11.88 g/m*3 15.3 C 0 km/h
567 03-09-2013 23:10:00 15.3 C 11.88 g/m*3 15.3 C 0 km/h
568 03-09-2013 23:15:00 15.3 C 12.01 g/m*3 15.3 C 0 km/h
569 03-09-2013 23:20:00 15.2 C 11.94 g/m*3 15.2 C 0 km/h
570 03-09-2013 23:25:00 15.2 C 11.94 g/m*3 15.2 C 0 km/h
571 03-09-2013 23:30:00 15.2 C 11.94 g/m*3 15.2 C 0 km/h
572 03-09-2013 23:35:00 15.1 C 11.87 g/m*3 15.1 C 0 km/h
573 03-09-2013 23:40:00 15 C 11.8 g/m*3 15 C 0 km/h
574 03-09-2013 23:45:00 14.9 C 11.73 g/m*3 14.9 C 0 km/h
575 03-09-2013 23:50:00 14.9 C 11.73 g/m*3 14.9 C 0 km/h
Sensor: Nr:Datum:Temp:Abs-Feuchte:Windchill:Wind:
Aussen-T/F 576 03-09-2013 23:55:00 14.8 C 11.65 g/m*3 14.8 C 0 km/h
577 04-09-2013 00:00:00 14.7 C 11.71 g/m*3 14.7 C 0 km/h
578 04-09-2013 00:05:00 14.7 C 11.58 g/m*3 14.7 C 0 km/h
579 04-09-2013 00:10:00 14.7 C 11.58 g/m*3 14.7 C 0 km/h
580 04-09-2013 00:15:00 14.6 C 11.64 g/m*3 14.6 C 0 km/h
581 04-09-2013 00:20:00 14.6 C 11.64 g/m*3 14.6 C 0 km/h
582 04-09-2013 00:25:00 14.5 C 11.57 g/m*3 14.5 C 0 km/h
583 04-09-2013 00:30:00 14.4 C 11.5 g/m*3 14.4 C 0 km/h
584 04-09-2013 00:35:00 14.4 C 11.5 g/m*3 14.4 C 0 km/h
585 04-09-2013 00:40:00 14.4 C 11.5 g/m*3 14.4 C 0 km/h
586 04-09-2013 00:45:00 14.4 C 11.5 g/m*3 14.4 C 0 km/h
587 04-09-2013 00:50:00 14.3 C 11.43 g/m*3 14.3 C 0 km/h
588 04-09-2013 00:55:00 14.2 C 11.48 g/m*3 14.2 C 0 km/h
589 04-09-2013 01:00:00 14.2 C 11.48 g/m*3 14.2 C 0 km/h
590 04-09-2013 01:05:00 14.1 C 11.41 g/m*3 14.1 C 0 km/h
591 04-09-2013 01:10:00 14.2 C 11.48 g/m*3 14.2 C 0 km/h
592 04-09-2013 01:15:00 14.1 C 11.41 g/m*3 14.1 C 0 km/h
593 04-09-2013 01:20:00 14.1 C 11.41 g/m*3 14.1 C 0 km/h
594 04-09-2013 01:25:00 14.1 C 11.41 g/m*3 14.1 C 0 km/h
595 04-09-2013 01:30:00 14 C 11.34 g/m*3 14 C 0 km/h
596 04-09-2013 01:35:00 13.9 C 11.27 g/m*3 13.9 C 0 km/h
597 04-09-2013 01:40:00 13.9 C 11.39 g/m*3 13.9 C 0 km/h
598 04-09-2013 01:45:00 13.9 C 11.39 g/m*3 13.9 C 0 km/h
599 04-09-2013 01:50:00 13.8 C 11.32 g/m*3 13.8 C 0 km/h
600 04-09-2013 01:55:00 13.8 C 11.32 g/m*3 13.8 C 0 km/h
Sensor: Nr:Datum:Temp:Abs-Feuchte:Windchill:Wind:
Aussen-T/F 601 04-09-2013 02:00:00 13.7 C 11.25 g/m*3 13.7 C 0 km/h
602 04-09-2013 02:05:00 13.7 C 11.25 g/m*3 13.7 C 0 km/h
603 04-09-2013 02:10:00 13.6 C 11.18 g/m*3 13.6 C 0 km/h
604 04-09-2013 02:15:00 13.6 C 11.18 g/m*3 13.6 C 0 km/h
605 04-09-2013 02:20:00 13.6 C 11.18 g/m*3 13.6 C 0 km/h
606 04-09-2013 02:25:00 13.6 C 11.18 g/m*3 13.6 C 0 km/h
607 04-09-2013 02:30:00 13.5 C 11.11 g/m*3 13.5 C 0 km/h
608 04-09-2013 02:35:00 13.4 C 11.04 g/m*3 13.4 C 0 km/h
609 04-09-2013 02:40:00 13.3 C 10.98 g/m*3 13.3 C 0 km/h
610 04-09-2013 02:45:00 13.2 C 10.91 g/m*3 13.2 C 0 km/h
611 04-09-2013 02:50:00 13.3 C 10.98 g/m*3 13.3 C 0 km/h
612 04-09-2013 02:55:00 13.2 C 10.91 g/m*3 13.2 C 0 km/h
613 04-09-2013 03:00:00 13.2 C 10.91 g/m*3 13.2 C 0 km/h
614 04-09-2013 03:05:00 13.2 C 10.91 g/m*3 13.2 C 0 km/h
615 04-09-2013 03:10:00 13.2 C 10.91 g/m*3 13.2 C 0 km/h
616 04-09-2013 03:15:00 13.2 C 11.02 g/m*3 13.2 C 0 km/h
617 04-09-2013 03:20:00 13.1 C 10.95 g/m*3 13.1 C 0 km/h
618 04-09-2013 03:25:00 13.1 C 10.95 g/m*3 13.1 C 0 km/h
619 04-09-2013 03:30:00 13.1 C 10.95 g/m*3 13.1 C 0 km/h
620 04-09-2013 03:35:00 13 C 10.89 g/m*3 13 C 0 km/h
621 04-09-2013 03:40:00 13 C 10.89 g/m*3 13 C 0 km/h
622 04-09-2013 03:45:00 12.9 C 10.82 g/m*3 12.9 C 0 km/h
623 04-09-2013 03:50:00 12.9 C 10.82 g/m*3 12.9 C 0 km/h
624 04-09-2013 03:55:00 12.8 C 10.75 g/m*3 12.8 C 0 km/h
625 04-09-2013 04:00:00 12.9 C 10.82 g/m*3 12.9 C 0 km/h
Sensor: Nr:Datum:Temp:Abs-Feuchte:Windchill:Wind:
Aussen-T/F 626 04-09-2013 04:05:00 12.9 C 10.82 g/m*3 12.9 C 0 km/h
627 04-09-2013 04:10:00 12.9 C 10.82 g/m*3 12.9 C 0 km/h
628 04-09-2013 04:15:00 12.8 C 10.75 g/m*3 12.8 C 0 km/h
629 04-09-2013 04:20:00 12.8 C 10.75 g/m*3 12.8 C 0 km/h
630 04-09-2013 04:25:00 12.8 C 10.75 g/m*3 12.8 C 0 km/h
631 04-09-2013 04:30:00 12.8 C 10.75 g/m*3 12.8 C 0 km/h
632 04-09-2013 04:35:00 12.7 C 10.69 g/m*3 12.7 C 0 km/h
633 04-09-2013 04:40:00 12.7 C 10.69 g/m*3 12.7 C 0 km/h
634 04-09-2013 04:45:00 12.7 C 10.69 g/m*3 12.7 C 0 km/h
635 04-09-2013 04:50:00 12.7 C 10.69 g/m*3 12.7 C 0 km/h
636 04-09-2013 04:55:00 12.7 C 10.69 g/m*3 12.7 C 0 km/h
637 04-09-2013 05:00:00 12.6 C 10.62 g/m*3 12.6 C 0 km/h
638 04-09-2013 05:05:00 12.6 C 10.62 g/m*3 12.6 C 0 km/h
639 04-09-2013 05:10:00 12.5 C 10.55 g/m*3 12.5 C 0 km/h
640 04-09-2013 05:15:00 12.5 C 10.55 g/m*3 12.5 C 0 km/h
641 04-09-2013 05:20:00 12.5 C 10.55 g/m*3 12.5 C 0 km/h
642 04-09-2013 05:25:00 12.5 C 10.55 g/m*3 12.5 C 0 km/h
643 04-09-2013 05:30:00 12.4 C 10.49 g/m*3 12.4 C 0 km/h
644 04-09-2013 05:35:00 12.4 C 10.49 g/m*3 12.4 C 0 km/h
645 04-09-2013 05:40:00 12.4 C 10.49 g/m*3 12.4 C 0 km/h
646 04-09-2013 05:45:00 12.4 C 10.49 g/m*3 12.4 C 0 km/h
647 04-09-2013 05:50:00 12.4 C 10.49 g/m*3 12.4 C 0 km/h
648 04-09-2013 05:55:00 12.3 C 10.42 g/m*3 12.3 C 0 km/h
649 04-09-2013 06:00:00 12.3 C 10.42 g/m*3 12.3 C 0 km/h
650 04-09-2013 06:05:00 12.3 C 10.42 g/m*3 12.3 C 0 km/h
Sensor: Nr:Datum:Temp:Abs-Feuchte:Windchill:Wind:
Aussen-T/F 651 04-09-2013 06:10:00 12.2 C 10.36 g/m*3 12.2 C 0 km/h
652 04-09-2013 06:15:00 12.2 C 10.47 g/m*3 12.2 C 0 km/h
653 04-09-2013 06:20:00 12.2 C 10.36 g/m*3 12.2 C 0 km/h
654 04-09-2013 06:25:00 12.1 C 10.29 g/m*3 12.1 C 0 km/h
655 04-09-2013 06:30:00 12.1 C 10.4 g/m*3 12.1 C 0 km/h
656 04-09-2013 06:35:00 12.1 C 10.29 g/m*3 12.1 C 0 km/h
657 04-09-2013 06:40:00 12 C 10.23 g/m*3 12 C 0 km/h
658 04-09-2013 06:45:00 12 C 10.23 g/m*3 12 C 0 km/h
659 04-09-2013 06:50:00 11.9 C 10.17 g/m*3 11.9 C 0 km/h
660 04-09-2013 06:55:00 11.9 C 10.17 g/m*3 11.9 C 0 km/h
661 04-09-2013 07:00:00 12 C 10.34 g/m*3 12 C 0 km/h
662 04-09-2013 07:05:00 12 C 10.34 g/m*3 12 C 0 km/h
663 04-09-2013 07:10:00 12 C 10.34 g/m*3 12 C 0 km/h
664 04-09-2013 07:15:00 12.1 C 10.4 g/m*3 12.1 C 0 km/h
665 04-09-2013 07:20:00 12.2 C 10.47 g/m*3 12.2 C 0 km/h
666 04-09-2013 07:25:00 12.3 C 10.53 g/m*3 12.3 C 0 km/h
667 04-09-2013 07:30:00 12.4 C 10.6 g/m*3 12.4 C 0 km/h
668 04-09-2013 07:35:00 12.4 C 10.6 g/m*3 12.4 C 0 km/h
669 04-09-2013 07:40:00 12.5 C 10.66 g/m*3 12.5 C 0 km/h
670 04-09-2013 07:45:00 12.6 C 10.73 g/m*3 12.6 C 0 km/h
671 04-09-2013 07:50:00 12.6 C 10.73 g/m*3 12.6 C 0 km/h
672 04-09-2013 07:55:00 12.6 C 10.73 g/m*3 12.6 C 0 km/h
673 04-09-2013 08:00:00 12.6 C 10.73 g/m*3 12.6 C 1.6 km/h
674 04-09-2013 08:05:00 12.6 C 10.73 g/m*3 12.6 C 3.2 km/h
675 04-09-2013 08:10:00 12.6 C 10.73 g/m*3 12.6 C 3.2 km/h
Sensor: Nr:Datum:Temp:Abs-Feuchte:Windchill:Wind:
Aussen-T/F 676 04-09-2013 08:15:00 12.6 C 10.73 g/m*3 12.6 C 0 km/h
677 04-09-2013 08:20:00 12.6 C 10.73 g/m*3 12.6 C 0 km/h
678 04-09-2013 08:25:00 12.6 C 10.73 g/m*3 12.6 C 0 km/h
679 04-09-2013 08:30:00 12.6 C 10.73 g/m*3 12.6 C 1.6 km/h
680 04-09-2013 08:35:00 12.7 C 10.8 g/m*3 12.7 C 0 km/h
681 04-09-2013 08:40:00 12.7 C 10.8 g/m*3 12.7 C 0 km/h
682 04-09-2013 08:45:00 12.8 C 10.87 g/m*3 12.8 C 0 km/h
683 04-09-2013 08:50:00 12.9 C 10.93 g/m*3 12.9 C 0 km/h
684 04-09-2013 08:55:00 12.9 C 10.93 g/m*3 12.9 C 0 km/h
685 04-09-2013 09:00:00 13 C 11 g/m*3 13 C 3.2 km/h
686 04-09-2013 09:05:00 13.1 C 11.07 g/m*3 13.1 C 1.6 km/h
687 04-09-2013 09:10:00 13.1 C 11.07 g/m*3 13.1 C 3.2 km/h
688 04-09-2013 09:15:00 13.1 C 11.07 g/m*3 13.1 C 3.2 km/h
689 04-09-2013 09:20:00 13.2 C 11.14 g/m*3 13.2 C 0 km/h
690 04-09-2013 09:25:00 13.3 C 11.32 g/m*3 13.3 C 0 km/h
691 04-09-2013 09:30:00 13.3 C 11.21 g/m*3 13.3 C 0 km/h
692 04-09-2013 09:35:00 13.4 C 11.28 g/m*3 13.4 C 0 km/h
693 04-09-2013 09:40:00 13.4 C 11.28 g/m*3 13.4 C 0 km/h
694 04-09-2013 09:45:00 13.5 C 11.35 g/m*3 13.5 C 0 km/h
695 04-09-2013 09:50:00 13.6 C 11.42 g/m*3 13.6 C 0 km/h
696 04-09-2013 09:55:00 13.6 C 11.42 g/m*3 13.6 C 0 km/h
697 04-09-2013 10:00:00 13.7 C 11.49 g/m*3 13.7 C 0 km/h
698 04-09-2013 10:05:00 13.8 C 11.56 g/m*3 13.8 C 0 km/h
699 04-09-2013 10:10:00 13.9 C 11.63 g/m*3 13.9 C 0 km/h
700 04-09-2013 10:15:00 14 C 11.7 g/m*3 14 C 0 km/h
Sensor: Nr:Datum:Temp:Abs-Feuchte:Windchill:Wind:
Aussen-T/F 701 04-09-2013 10:20:00 14.1 C 11.77 g/m*3 14.1 C 0 km/h
702 04-09-2013 10:25:00 14.2 C 11.84 g/m*3 14.2 C 0 km/h
703 04-09-2013 10:30:00 14.3 C 11.92 g/m*3 14.3 C 0 km/h
704 04-09-2013 10:35:00 14.4 C 11.99 g/m*3 14.4 C 0 km/h
705 04-09-2013 10:40:00 14.6 C 12.14 g/m*3 14.6 C 0 km/h
706 04-09-2013 10:45:00 14.7 C 12.21 g/m*3 14.7 C 0 km/h
707 04-09-2013 10:50:00 14.9 C 12.36 g/m*3 14.9 C 0 km/h
708 04-09-2013 10:55:00 15.1 C 12.51 g/m*3 15.1 C 0 km/h
709 04-09-2013 11:00:00 15.3 C 12.67 g/m*3 15.3 C 0 km/h
710 04-09-2013 11:05:00 15.4 C 12.74 g/m*3 15.4 C 0 km/h
711 04-09-2013 11:10:00 15.6 C 12.9 g/m*3 15.6 C 0 km/h
712 04-09-2013 11:15:00 15.7 C 12.98 g/m*3 15.7 C 0 km/h
713 04-09-2013 11:20:00 15.9 C 13.14 g/m*3 15.9 C 0 km/h
714 04-09-2013 11:25:00 16.1 C 13.3 g/m*3 16.1 C 0 km/h
715 04-09-2013 11:30:00 16.3 C 13.46 g/m*3 16.3 C 0 km/h
716 04-09-2013 11:35:00 16.4 C 13.54 g/m*3 16.4 C 0 km/h
717 04-09-2013 11:40:00 16.6 C 13.56 g/m*3 16.6 C 0 km/h
718 04-09-2013 11:45:00 16.8 C 13.73 g/m*3 16.8 C 0 km/h
719 04-09-2013 11:50:00 17 C 13.89 g/m*3 17 C 0 km/h
720 04-09-2013 11:55:00 17.2 C 13.91 g/m*3 17.2 C 0 km/h
721 04-09-2013 12:00:00 17.4 C 14.08 g/m*3 17.4 C 0 km/h
722 04-09-2013 12:05:00 17.7 C 14.33 g/m*3 17.7 C 0 km/h
723 04-09-2013 12:10:00 17.8 C 14.27 g/m*3 17.8 C 0 km/h
724 04-09-2013 12:15:00 18 C 14.44 g/m*3 18 C 0 km/h
725 04-09-2013 12:20:00 18.2 C 14.61 g/m*3 18.2 C 0 km/h
Sensor: Nr:Datum:Temp:Abs-Feuchte:Windchill:Wind:
Aussen-T/F 726 04-09-2013 12:25:00 18.4 C 14.63 g/m*3 18.4 C 0 km/h
727 04-09-2013 12:30:00 18.6 C 14.8 g/m*3 18.6 C 0 km/h
728 04-09-2013 12:35:00 18.7 C 14.73 g/m*3 18.7 C 0 km/h
729 04-09-2013 12:40:00 18.9 C 14.9 g/m*3 18.9 C 0 km/h
730 04-09-2013 12:45:00 19.2 C 15.01 g/m*3 19.2 C 0 km/h
731 04-09-2013 12:50:00 19.8 C 15.2 g/m*3 19.8 C 0 km/h
732 04-09-2013 12:55:00 20.7 C 14.58 g/m*3 20.7 C 3.2 km/h
733 04-09-2013 13:00:00 20.7 C 15.3 g/m*3 20.7 C 0 km/h
734 04-09-2013 13:05:00 21 C 15.57 g/m*3 21 C 0 km/h
735 04-09-2013 13:10:00 23 C 14.8 g/m*3 23 C 1.6 km/h
736 04-09-2013 13:15:00 23.6 C 14.68 g/m*3 23.6 C 6.4 km/h
737 04-09-2013 13:20:00 23.6 C 14.89 g/m*3 23.6 C 8.1 km/h
738 04-09-2013 13:25:00 24.8 C 14.8 g/m*3 24.8 C 6.4 km/h
739 04-09-2013 13:30:00 25.1 C 14.12 g/m*3 25.1 C 8.1 km/h
740 04-09-2013 13:35:00 25.4 C 15.07 g/m*3 25.4 C 4.8 km/h
741 04-09-2013 13:40:00 24.8 C 14.8 g/m*3 24.8 C 4.8 km/h
742 04-09-2013 13:45:00 24.2 C 15.18 g/m*3 24.2 C 0 km/h
743 04-09-2013 13:50:00 24.6 C 13.95 g/m*3 24.6 C 6.4 km/h
744 04-09-2013 13:55:00 25 C 14.73 g/m*3 25 C 4.8 km/h
745 04-09-2013 14:00:00 23.2 C 14.97 g/m*3 23.2 C 1.6 km/h
746 04-09-2013 14:05:00 23.6 C 14.68 g/m*3 23.6 C 4.8 km/h
747 04-09-2013 14:10:00 24.8 C 15.25 g/m*3 24.8 C 3.2 km/h
748 04-09-2013 14:15:00 25.4 C 13.18 g/m*3 25.4 C 6.4 km/h
749 04-09-2013 14:20:00 25.1 C 14.82 g/m*3 25.1 C 6.4 km/h
750 04-09-2013 14:25:00 25.8 C 15.17 g/m*3 25.8 C 6.4 km/h
Sensor: Nr:Datum:Temp:Abs-Feuchte:Windchill:Wind:
Aussen-T/F 751 04-09-2013 14:30:00 25.2 C 13.97 g/m*3 25.2 C 6.4 km/h
752 04-09-2013 14:35:00 26.2 C 14.03 g/m*3 26.2 C 6.4 km/h
753 04-09-2013 14:40:00 26.7 C 14.43 g/m*3 26.7 C 9.7 km/h
754 04-09-2013 14:45:00 25.9 C 14.77 g/m*3 25.9 C 3.2 km/h
755 04-09-2013 14:50:00 25.5 C 14.44 g/m*3 25.5 C 3.2 km/h
756 04-09-2013 14:55:00 25.9 C 13.8 g/m*3 25.9 C 9.7 km/h
757 04-09-2013 15:00:00 26.8 C 14.25 g/m*3 26.8 C 9.7 km/h
758 04-09-2013 15:05:00 27.4 C 13.68 g/m*3 27.4 C 4.8 km/h
759 04-09-2013 15:10:00 27.4 C 13.94 g/m*3 27.4 C 4.8 km/h
760 04-09-2013 15:15:00 26.4 C 15.19 g/m*3 26.4 C 1.6 km/h
761 04-09-2013 15:20:00 26.3 C 14.36 g/m*3 26.3 C 3.2 km/h
762 04-09-2013 15:25:00 25.7 C 15.08 g/m*3 25.7 C 3.2 km/h
763 04-09-2013 15:30:00 24.6 C 15.3 g/m*3 24.6 C 3.2 km/h
764 04-09-2013 15:35:00 25.5 C 15.63 g/m*3 25.5 C 1.6 km/h
765 04-09-2013 15:40:00 26.7 C 13.42 g/m*3 26.7 C 8.1 km/h
766 04-09-2013 15:45:00 27.3 C 13.87 g/m*3 27.3 C 6.4 km/h
767 04-09-2013 15:50:00 27.9 C 14.6 g/m*3 27.9 C 6.4 km/h
768 04-09-2013 15:55:00 28.1 C 13.67 g/m*3 28.1 C 4.8 km/h
769 04-09-2013 16:00:00 27.4 C 13.94 g/m*3 27.4 C 3.2 km/h
770 04-09-2013 16:05:00 27.1 C 14.49 g/m*3 27.1 C 4.8 km/h
771 04-09-2013 16:10:00 27.9 C 13.79 g/m*3 27.9 C 8.1 km/h
772 04-09-2013 16:15:00 28 C 13.6 g/m*3 28 C 4.8 km/h
773 04-09-2013 16:20:00 28.5 C 15.09 g/m*3 28.5 C 6.4 km/h
774 04-09-2013 16:25:00 28.4 C 13.9 g/m*3 28.4 C 6.4 km/h
775 04-09-2013 16:30:00 27.6 C 15.43 g/m*3 27.6 C 4.8 km/h
Sensor: Nr:Datum:Temp:Abs-Feuchte:Windchill:Wind:
Aussen-T/F 776 04-09-2013 16:35:00 26.6 C 15.35 g/m*3 26.6 C 1.6 km/h
777 04-09-2013 16:40:00 26.4 C 13.94 g/m*3 26.4 C 8.1 km/h
778 04-09-2013 16:45:00 26.1 C 15.18 g/m*3 26.1 C 6.4 km/h
779 04-09-2013 16:50:00 26.4 C 14.19 g/m*3 26.4 C 9.7 km/h
780 04-09-2013 16:55:00 26.2 C 15.26 g/m*3 26.2 C 6.4 km/h
781 04-09-2013 17:00:00 25.3 C 15.45 g/m*3 25.3 C 3.2 km/h
782 04-09-2013 17:05:00 24.7 C 16.07 g/m*3 24.7 C 1.6 km/h
783 04-09-2013 17:10:00 25.6 C 15.24 g/m*3 25.6 C 1.6 km/h
784 04-09-2013 17:15:00 24.9 C 15.79 g/m*3 24.9 C 3.2 km/h
785 04-09-2013 17:20:00 24.4 C 15.58 g/m*3 24.4 C 3.2 km/h
786 04-09-2013 17:25:00 24.7 C 14.94 g/m*3 24.7 C 4.8 km/h
787 04-09-2013 17:30:00 24.7 C 15.62 g/m*3 24.7 C 1.6 km/h
788 04-09-2013 17:35:00 24.4 C 15.8 g/m*3 24.4 C 1.6 km/h
789 04-09-2013 17:40:00 24.2 C 15.62 g/m*3 24.2 C 3.2 km/h
790 04-09-2013 17:45:00 24.1 C 15.97 g/m*3 24.1 C 1.6 km/h
791 04-09-2013 17:50:00 24.2 C 16.06 g/m*3 24.2 C 1.6 km/h
792 04-09-2013 17:55:00 24.4 C 15.58 g/m*3 24.4 C 6.4 km/h
793 04-09-2013 18:00:00 24.6 C 15.75 g/m*3 24.6 C 1.6 km/h
794 04-09-2013 18:05:00 24.6 C 14.85 g/m*3 24.6 C 1.6 km/h
795 04-09-2013 18:10:00 24.7 C 15.84 g/m*3 24.7 C 1.6 km/h
796 04-09-2013 18:15:00 24.4 C 15.58 g/m*3 24.4 C 1.6 km/h
797 04-09-2013 18:20:00 24.2 C 15.4 g/m*3 24.2 C 1.6 km/h
798 04-09-2013 18:25:00 23.9 C 15.36 g/m*3 23.9 C 1.6 km/h
799 04-09-2013 18:30:00 23.8 C 15.7 g/m*3 23.8 C 3.2 km/h
800 04-09-2013 18:35:00 23.7 C 15.4 g/m*3 23.7 C 1.6 km/h
Sensor: Nr:Datum:Temp:Abs-Feuchte:Windchill:Wind:
Aussen-T/F 801 04-09-2013 18:40:00 23.6 C 15.53 g/m*3 23.6 C 1.6 km/h
802 04-09-2013 18:45:00 23.4 C 15.35 g/m*3 23.4 C 1.6 km/h
803 04-09-2013 18:50:00 23.2 C 15.38 g/m*3 23.2 C 1.6 km/h
804 04-09-2013 18:55:00 23.1 C 15.3 g/m*3 23.1 C 1.6 km/h
805 04-09-2013 19:00:00 22.9 C 15.12 g/m*3 22.9 C 1.6 km/h
806 04-09-2013 19:05:00 22.8 C 15.24 g/m*3 22.8 C 1.6 km/h
807 04-09-2013 19:10:00 22.6 C 15.07 g/m*3 22.6 C 0 km/h
808 04-09-2013 19:15:00 22.3 C 14.81 g/m*3 22.3 C 0 km/h
809 04-09-2013 19:20:00 22.2 C 14.92 g/m*3 22.2 C 0 km/h
810 04-09-2013 19:25:00 22 C 14.75 g/m*3 22 C 0 km/h
811 04-09-2013 19:30:00 21.8 C 14.77 g/m*3 21.8 C 1.6 km/h
812 04-09-2013 19:35:00 21.7 C 14.69 g/m*3 21.7 C 1.6 km/h
813 04-09-2013 19:40:00 21.4 C 14.62 g/m*3 21.4 C 0 km/h
814 04-09-2013 19:45:00 21.2 C 14.46 g/m*3 21.2 C 0 km/h
815 04-09-2013 19:50:00 20.9 C 14.39 g/m*3 20.9 C 0 km/h
816 04-09-2013 19:55:00 20.7 C 14.22 g/m*3 20.7 C 0 km/h
817 04-09-2013 20:00:00 20.4 C 14.15 g/m*3 20.4 C 0 km/h
818 04-09-2013 20:05:00 20.2 C 14.16 g/m*3 20.2 C 0 km/h
819 04-09-2013 20:10:00 20 C 14 g/m*3 20 C 0 km/h
820 04-09-2013 20:15:00 19.8 C 13.84 g/m*3 19.8 C 0 km/h
821 04-09-2013 20:20:00 19.7 C 13.75 g/m*3 19.7 C 0 km/h
822 04-09-2013 20:25:00 19.7 C 13.75 g/m*3 19.7 C 1.6 km/h
823 04-09-2013 20:30:00 19.6 C 13.67 g/m*3 19.6 C 1.6 km/h
824 04-09-2013 20:35:00 19.4 C 13.51 g/m*3 19.4 C 1.6 km/h
825 04-09-2013 20:40:00 19.4 C 13.51 g/m*3 19.4 C 0 km/h
Sensor: Nr:Datum:Temp:Abs-Feuchte:Windchill:Wind:
Aussen-T/F 826 04-09-2013 20:45:00 19.3 C 13.6 g/m*3 19.3 C 0 km/h
827 04-09-2013 20:50:00 19.3 C 13.44 g/m*3 19.3 C 0 km/h
828 04-09-2013 20:55:00 19.2 C 13.36 g/m*3 19.2 C 0 km/h
829 04-09-2013 21:00:00 19.1 C 13.44 g/m*3 19.1 C 0 km/h
830 04-09-2013 21:05:00 19 C 13.53 g/m*3 19 C 0 km/h
831 04-09-2013 21:10:00 18.9 C 13.45 g/m*3 18.9 C 0 km/h
832 04-09-2013 21:15:00 18.8 C 13.37 g/m*3 18.8 C 0 km/h
833 04-09-2013 21:20:00 18.8 C 13.37 g/m*3 18.8 C 0 km/h
834 04-09-2013 21:25:00 18.7 C 13.45 g/m*3 18.7 C 0 km/h
835 04-09-2013 21:30:00 18.7 C 13.45 g/m*3 18.7 C 0 km/h
836 04-09-2013 21:35:00 18.6 C 13.21 g/m*3 18.6 C 0 km/h
837 04-09-2013 21:40:00 18.5 C 13.29 g/m*3 18.5 C 0 km/h
838 04-09-2013 21:45:00 18.4 C 13.37 g/m*3 18.4 C 0 km/h
839 04-09-2013 21:50:00 18.4 C 13.53 g/m*3 18.4 C 0 km/h
840 04-09-2013 21:55:00 18.3 C 13.29 g/m*3 18.3 C 0 km/h
841 04-09-2013 22:00:00 18.2 C 13.21 g/m*3 18.2 C 0 km/h
842 04-09-2013 22:05:00 18.1 C 13.29 g/m*3 18.1 C 0 km/h
843 04-09-2013 22:10:00 17.9 C 12.98 g/m*3 17.9 C 0 km/h
844 04-09-2013 22:15:00 17.8 C 12.9 g/m*3 17.8 C 0 km/h
845 04-09-2013 22:20:00 17.7 C 12.98 g/m*3 17.7 C 0 km/h
846 04-09-2013 22:25:00 17.6 C 13.05 g/m*3 17.6 C 0 km/h
847 04-09-2013 22:30:00 17.6 C 13.2 g/m*3 17.6 C 0 km/h
848 04-09-2013 22:35:00 17.5 C 12.82 g/m*3 17.5 C 0 km/h
849 04-09-2013 22:40:00 17.4 C 13.04 g/m*3 17.4 C 0 km/h
850 04-09-2013 22:45:00 17.3 C 12.82 g/m*3 17.3 C 0 km/h
Sensor: Nr:Datum:Temp:Abs-Feuchte:Windchill:Wind:
Aussen-T/F 851 04-09-2013 22:50:00 17.3 C 12.96 g/m*3 17.3 C 0 km/h
852 04-09-2013 22:55:00 17.2 C 12.74 g/m*3 17.2 C 0 km/h
853 04-09-2013 23:00:00 17.1 C 12.66 g/m*3 17.1 C 0 km/h
854 04-09-2013 23:05:00 17.1 C 12.66 g/m*3 17.1 C 0 km/h
855 04-09-2013 23:10:00 16.9 C 12.51 g/m*3 16.9 C 0 km/h
856 04-09-2013 23:15:00 16.8 C 12.58 g/m*3 16.8 C 0 km/h
857 04-09-2013 23:20:00 16.8 C 12.58 g/m*3 16.8 C 0 km/h
858 04-09-2013 23:25:00 16.7 C 12.51 g/m*3 16.7 C 0 km/h
859 04-09-2013 23:30:00 16.6 C 12.57 g/m*3 16.6 C 0 km/h
860 04-09-2013 23:35:00 16.6 C 12.71 g/m*3 16.6 C 0 km/h
861 04-09-2013 23:40:00 16.6 C 12.57 g/m*3 16.6 C 0 km/h
862 04-09-2013 23:45:00 16.5 C 12.5 g/m*3 16.5 C 0 km/h
863 04-09-2013 23:50:00 16.4 C 12.42 g/m*3 16.4 C 0 km/h
864 04-09-2013 23:55:00 16.3 C 12.49 g/m*3 16.3 C 0 km/h
865 05-09-2013 00:00:00 16.2 C 12.41 g/m*3 16.2 C 0 km/h
866 05-09-2013 00:05:00 16.1 C 12.34 g/m*3 16.1 C 0 km/h
867 05-09-2013 00:10:00 15.9 C 12.19 g/m*3 15.9 C 0 km/h
868 05-09-2013 00:15:00 15.8 C 12.25 g/m*3 15.8 C 0 km/h
869 05-09-2013 00:20:00 15.8 C 12.38 g/m*3 15.8 C 0 km/h
870 05-09-2013 00:25:00 15.8 C 12.38 g/m*3 15.8 C 0 km/h
871 05-09-2013 00:30:00 15.8 C 12.38 g/m*3 15.8 C 0 km/h
872 05-09-2013 00:35:00 15.7 C 12.31 g/m*3 15.7 C 0 km/h
873 05-09-2013 00:40:00 15.7 C 12.31 g/m*3 15.7 C 0 km/h
874 05-09-2013 00:45:00 15.6 C 12.23 g/m*3 15.6 C 0 km/h
875 05-09-2013 00:50:00 15.6 C 12.23 g/m*3 15.6 C 0 km/h
Sensor: Nr:Datum:Temp:Abs-Feuchte:Windchill:Wind:
Aussen-T/F 876 05-09-2013 00:55:00 15.6 C 12.23 g/m*3 15.6 C 0 km/h
877 05-09-2013 01:00:00 15.5 C 12.16 g/m*3 15.5 C 0 km/h
878 05-09-2013 01:05:00 15.5 C 12.16 g/m*3 15.5 C 0 km/h
879 05-09-2013 01:10:00 15.4 C 12.09 g/m*3 15.4 C 0 km/h
880 05-09-2013 01:15:00 15.3 C 12.01 g/m*3 15.3 C 0 km/h
881 05-09-2013 01:20:00 15.2 C 11.94 g/m*3 15.2 C 0 km/h
882 05-09-2013 01:25:00 15.1 C 11.87 g/m*3 15.1 C 0 km/h
883 05-09-2013 01:30:00 15.1 C 12 g/m*3 15.1 C 0 km/h
884 05-09-2013 01:35:00 15.1 C 12 g/m*3 15.1 C 0 km/h
885 05-09-2013 01:40:00 15.1 C 12 g/m*3 15.1 C 0 km/h
886 05-09-2013 01:45:00 15 C 11.93 g/m*3 15 C 0 km/h
887 05-09-2013 01:50:00 14.9 C 11.85 g/m*3 14.9 C 0 km/h
888 05-09-2013 01:55:00 14.9 C 11.85 g/m*3 14.9 C 0 km/h
889 05-09-2013 02:00:00 14.8 C 11.91 g/m*3 14.8 C 0 km/h
890 05-09-2013 02:05:00 14.8 C 11.91 g/m*3 14.8 C 0 km/h
891 05-09-2013 02:10:00 14.7 C 11.83 g/m*3 14.7 C 0 km/h
892 05-09-2013 02:15:00 14.7 C 11.83 g/m*3 14.7 C 0 km/h
893 05-09-2013 02:20:00 14.7 C 11.83 g/m*3 14.7 C 0 km/h
894 05-09-2013 02:25:00 14.7 C 11.83 g/m*3 14.7 C 0 km/h
895 05-09-2013 02:30:00 14.6 C 11.76 g/m*3 14.6 C 0 km/h
896 05-09-2013 02:35:00 14.5 C 11.69 g/m*3 14.5 C 0 km/h
897 05-09-2013 02:40:00 14.5 C 11.69 g/m*3 14.5 C 0 km/h
898 05-09-2013 02:45:00 14.4 C 11.62 g/m*3 14.4 C 0 km/h
899 05-09-2013 02:50:00 14.4 C 11.62 g/m*3 14.4 C 0 km/h
900 05-09-2013 02:55:00 14.4 C 11.74 g/m*3 14.4 C 0 km/h
Sensor: Nr:Datum:Temp:Abs-Feuchte:Windchill:Wind:
Aussen-T/F 901 05-09-2013 03:00:00 14.3 C 11.67 g/m*3 14.3 C 0 km/h
902 05-09-2013 03:05:00 14.3 C 11.67 g/m*3 14.3 C 0 km/h
903 05-09-2013 03:10:00 14.3 C 11.67 g/m*3 14.3 C 0 km/h
904 05-09-2013 03:15:00 14.2 C 11.6 g/m*3 14.2 C 0 km/h
905 05-09-2013 03:20:00 14.2 C 11.6 g/m*3 14.2 C 0 km/h
906 05-09-2013 03:25:00 14.2 C 11.6 g/m*3 14.2 C 0 km/h
907 05-09-2013 03:30:00 14.2 C 11.6 g/m*3 14.2 C 0 km/h
908 05-09-2013 03:35:00 14.1 C 11.53 g/m*3 14.1 C 0 km/h
909 05-09-2013 03:40:00 14 C 11.46 g/m*3 14 C 0 km/h
910 05-09-2013 03:45:00 14 C 11.46 g/m*3 14 C 0 km/h
911 05-09-2013 03:50:00 14 C 11.46 g/m*3 14 C 0 km/h
912 05-09-2013 03:55:00 13.9 C 11.39 g/m*3 13.9 C 0 km/h
913 05-09-2013 04:00:00 13.9 C 11.39 g/m*3 13.9 C 0 km/h
914 05-09-2013 04:05:00 13.9 C 11.39 g/m*3 13.9 C 0 km/h
915 05-09-2013 04:10:00 13.8 C 11.32 g/m*3 13.8 C 0 km/h
916 05-09-2013 04:15:00 13.7 C 11.25 g/m*3 13.7 C 0 km/h
917 05-09-2013 04:20:00 13.7 C 11.37 g/m*3 13.7 C 0 km/h
918 05-09-2013 04:25:00 13.6 C 11.18 g/m*3 13.6 C 0 km/h
919 05-09-2013 04:30:00 13.6 C 11.3 g/m*3 13.6 C 0 km/h
920 05-09-2013 04:35:00 13.6 C 11.3 g/m*3 13.6 C 0 km/h
921 05-09-2013 04:40:00 13.6 C 11.3 g/m*3 13.6 C 0 km/h
922 05-09-2013 04:45:00 13.6 C 11.3 g/m*3 13.6 C 0 km/h
923 05-09-2013 04:50:00 13.5 C 11.23 g/m*3 13.5 C 0 km/h
924 05-09-2013 04:55:00 13.4 C 11.16 g/m*3 13.4 C 0 km/h
925 05-09-2013 05:00:00 13.3 C 11.09 g/m*3 13.3 C 0 km/h
Sensor: Nr:Datum:Temp:Abs-Feuchte:Windchill:Wind:
Aussen-T/F 926 05-09-2013 05:05:00 13.3 C 11.09 g/m*3 13.3 C 0 km/h
927 05-09-2013 05:10:00 13.3 C 11.09 g/m*3 13.3 C 0 km/h
928 05-09-2013 05:15:00 13.2 C 11.02 g/m*3 13.2 C 0 km/h
929 05-09-2013 05:20:00 13.3 C 11.09 g/m*3 13.3 C 0 km/h
930 05-09-2013 05:25:00 13.3 C 11.09 g/m*3 13.3 C 0 km/h
931 05-09-2013 05:30:00 13.2 C 11.02 g/m*3 13.2 C 0 km/h
932 05-09-2013 05:35:00 13.2 C 11.02 g/m*3 13.2 C 0 km/h
933 05-09-2013 05:40:00 13.2 C 11.02 g/m*3 13.2 C 0 km/h
934 05-09-2013 05:45:00 13.1 C 10.95 g/m*3 13.1 C 0 km/h
935 05-09-2013 05:50:00 12.9 C 10.82 g/m*3 12.9 C 0 km/h
936 05-09-2013 05:55:00 12.9 C 10.82 g/m*3 12.9 C 0 km/h
937 05-09-2013 06:00:00 12.9 C 10.82 g/m*3 12.9 C 0 km/h
938 05-09-2013 06:05:00 12.9 C 10.82 g/m*3 12.9 C 0 km/h
939 05-09-2013 06:10:00 12.9 C 10.82 g/m*3 12.9 C 0 km/h
940 05-09-2013 06:15:00 12.9 C 10.82 g/m*3 12.9 C 0 km/h
941 05-09-2013 06:20:00 12.9 C 10.82 g/m*3 12.9 C 0 km/h
942 05-09-2013 06:25:00 12.8 C 10.75 g/m*3 12.8 C 0 km/h
943 05-09-2013 06:30:00 12.7 C 10.69 g/m*3 12.7 C 0 km/h
944 05-09-2013 06:35:00 12.7 C 10.69 g/m*3 12.7 C 0 km/h
945 05-09-2013 06:40:00 12.7 C 10.69 g/m*3 12.7 C 0 km/h
946 05-09-2013 06:45:00 12.7 C 10.69 g/m*3 12.7 C 0 km/h
947 05-09-2013 06:50:00 12.7 C 10.69 g/m*3 12.7 C 0 km/h
948 05-09-2013 06:55:00 12.7 C 10.69 g/m*3 12.7 C 0 km/h
949 05-09-2013 07:00:00 12.7 C 10.69 g/m*3 12.7 C 0 km/h
950 05-09-2013 07:05:00 12.6 C 10.62 g/m*3 12.6 C 0 km/h
Sensor: Nr:Datum:Temp:Abs-Feuchte:Windchill:Wind:
Aussen-T/F 951 05-09-2013 07:10:00 12.6 C 10.73 g/m*3 12.6 C 0 km/h
952 05-09-2013 07:15:00 12.6 C 10.73 g/m*3 12.6 C 0 km/h
953 05-09-2013 07:20:00 12.6 C 10.73 g/m*3 12.6 C 0 km/h
954 05-09-2013 07:25:00 12.6 C 10.73 g/m*3 12.6 C 0 km/h
955 05-09-2013 07:30:00 12.7 C 10.8 g/m*3 12.7 C 0 km/h
956 05-09-2013 07:35:00 12.7 C 10.8 g/m*3 12.7 C 0 km/h
957 05-09-2013 07:40:00 12.8 C 10.87 g/m*3 12.8 C 0 km/h
958 05-09-2013 07:45:00 12.8 C 10.87 g/m*3 12.8 C 0 km/h
959 05-09-2013 07:50:00 12.9 C 10.93 g/m*3 12.9 C 0 km/h
960 05-09-2013 07:55:00 12.9 C 10.93 g/m*3 12.9 C 0 km/h
961 05-09-2013 08:00:00 12.9 C 10.93 g/m*3 12.9 C 0 km/h
962 05-09-2013 08:05:00 13 C 11 g/m*3 13 C 0 km/h
963 05-09-2013 08:10:00 13 C 11 g/m*3 13 C 0 km/h
964 05-09-2013 08:15:00 13 C 11 g/m*3 13 C 0 km/h
965 05-09-2013 08:20:00 13 C 11 g/m*3 13 C 0 km/h
966 05-09-2013 08:25:00 13 C 11 g/m*3 13 C 0 km/h
967 05-09-2013 08:30:00 13.1 C 11.07 g/m*3 13.1 C 0 km/h
968 05-09-2013 08:35:00 13.2 C 11.14 g/m*3 13.2 C 0 km/h
969 05-09-2013 08:40:00 13.2 C 11.14 g/m*3 13.2 C 0 km/h
970 05-09-2013 08:45:00 13.4 C 11.28 g/m*3 13.4 C 0 km/h
971 05-09-2013 08:50:00 13.4 C 11.28 g/m*3 13.4 C 0 km/h
972 05-09-2013 08:55:00 13.6 C 11.42 g/m*3 13.6 C 0 km/h
973 05-09-2013 09:00:00 13.7 C 11.49 g/m*3 13.7 C 0 km/h
974 05-09-2013 09:05:00 13.8 C 11.56 g/m*3 13.8 C 0 km/h
975 05-09-2013 09:10:00 13.9 C 11.63 g/m*3 13.9 C 0 km/h
Sensor: Nr:Datum:Temp:Abs-Feuchte:Windchill:Wind:
Aussen-T/F 976 05-09-2013 09:15:00 14.1 C 11.89 g/m*3 14.1 C 0 km/h
977 05-09-2013 09:20:00 14.2 C 11.84 g/m*3 14.2 C 0 km/h
978 05-09-2013 09:25:00 14.3 C 11.92 g/m*3 14.3 C 0 km/h
979 05-09-2013 09:30:00 14.4 C 12.11 g/m*3 14.4 C 0 km/h
980 05-09-2013 09:35:00 14.5 C 12.06 g/m*3 14.5 C 0 km/h
981 05-09-2013 09:40:00 14.7 C 12.34 g/m*3 14.7 C 0 km/h
982 05-09-2013 09:45:00 14.9 C 12.49 g/m*3 14.9 C 0 km/h
983 05-09-2013 09:50:00 15.1 C 12.64 g/m*3 15.1 C 0 km/h
984 05-09-2013 09:55:00 15.2 C 12.72 g/m*3 15.2 C 0 km/h
985 05-09-2013 10:00:00 15.3 C 12.8 g/m*3 15.3 C 0 km/h
986 05-09-2013 10:05:00 15.4 C 12.88 g/m*3 15.4 C 0 km/h
987 05-09-2013 10:10:00 15.5 C 12.95 g/m*3 15.5 C 0 km/h
988 05-09-2013 10:15:00 15.7 C 12.98 g/m*3 15.7 C 0 km/h
989 05-09-2013 10:20:00 15.8 C 13.19 g/m*3 15.8 C 0 km/h
990 05-09-2013 10:25:00 16 C 13.22 g/m*3 16 C 0 km/h
991 05-09-2013 10:30:00 16.2 C 13.51 g/m*3 16.2 C 0 km/h
992 05-09-2013 10:35:00 16.4 C 13.54 g/m*3 16.4 C 0 km/h
993 05-09-2013 10:40:00 16.6 C 13.84 g/m*3 16.6 C 0 km/h
994 05-09-2013 10:45:00 16.7 C 13.79 g/m*3 16.7 C 0 km/h
995 05-09-2013 10:50:00 16.9 C 13.95 g/m*3 16.9 C 0 km/h
996 05-09-2013 10:55:00 17 C 14.04 g/m*3 17 C 0 km/h
997 05-09-2013 11:00:00 17.2 C 14.2 g/m*3 17.2 C 0 km/h
998 05-09-2013 11:05:00 17.4 C 14.23 g/m*3 17.4 C 0 km/h
999 05-09-2013 11:10:00 17.7 C 14.48 g/m*3 17.7 C 0 km/h
1000 05-09-2013 11:15:00 17.8 C 14.42 g/m*3 17.8 C 0 km/h
Sensor: Nr:Datum:Temp:Abs-Feuchte:Windchill:Wind:
Aussen-T/F 1001 05-09-2013 11:20:00 18.1 C 14.52 g/m*3 18.1 C 0 km/h
1002 05-09-2013 11:25:00 18.2 C 14.61 g/m*3 18.2 C 0 km/h
1003 05-09-2013 11:30:00 18.4 C 14.63 g/m*3 18.4 C 0 km/h
1004 05-09-2013 11:35:00 18.7 C 14.89 g/m*3 18.7 C 0 km/h
1005 05-09-2013 11:40:00 19 C 14.83 g/m*3 19 C 1.6 km/h
1006 05-09-2013 11:45:00 19.6 C 14.52 g/m*3 19.6 C 6.4 km/h
1007 05-09-2013 11:50:00 20.6 C 15.39 g/m*3 20.6 C 6.4 km/h
1008 05-09-2013 11:55:00 20.9 C 15.48 g/m*3 20.9 C 4.8 km/h
1009 05-09-2013 12:00:00 21.3 C 15.47 g/m*3 21.3 C 6.4 km/h
1010 05-09-2013 12:05:00 21.2 C 15.57 g/m*3 21.2 C 0 km/h
1011 05-09-2013 12:10:00 20.7 C 15.3 g/m*3 20.7 C 0 km/h
1012 05-09-2013 12:15:00 20.5 C 15.3 g/m*3 20.5 C 0 km/h
1013 05-09-2013 12:20:00 20.5 C 15.48 g/m*3 20.5 C 0 km/h
1014 05-09-2013 12:25:00 20.6 C 15.75 g/m*3 20.6 C 0 km/h
1015 05-09-2013 12:30:00 20.8 C 15.57 g/m*3 20.8 C 1.6 km/h
1016 05-09-2013 12:35:00 20.9 C 15.66 g/m*3 20.9 C 4.8 km/h
1017 05-09-2013 12:40:00 21.3 C 16.03 g/m*3 21.3 C 3.2 km/h
1018 05-09-2013 12:45:00 22.2 C 14.92 g/m*3 22.2 C 6.4 km/h
1019 05-09-2013 12:50:00 22.9 C 16.14 g/m*3 22.9 C 1.6 km/h
1020 05-09-2013 12:55:00 22.8 C 15.65 g/m*3 22.8 C 12.9 km/h
1021 05-09-2013 13:00:00 25.1 C 14.82 g/m*3 25.1 C 12.9 km/h
1022 05-09-2013 13:05:00 25.3 C 15.45 g/m*3 25.3 C 4.8 km/h
1023 05-09-2013 13:10:00 24.2 C 16.28 g/m*3 24.2 C 1.6 km/h
1024 05-09-2013 13:15:00 24.5 C 16.34 g/m*3 24.5 C 3.2 km/h
1025 05-09-2013 13:20:00 24.8 C 16.39 g/m*3 24.8 C 3.2 km/h
Sensor: Nr:Datum:Temp:Abs-Feuchte:Windchill:Wind:
Aussen-T/F 1026 05-09-2013 13:25:00 26.4 C 16.18 g/m*3 26.4 C 4.8 km/h
1027 05-09-2013 13:30:00 26.6 C 16.36 g/m*3 26.6 C 4.8 km/h
1028 05-09-2013 13:35:00 26.3 C 14.36 g/m*3 26.3 C 9.7 km/h
1029 05-09-2013 13:40:00 26.3 C 16.09 g/m*3 26.3 C 6.4 km/h
1030 05-09-2013 13:45:00 26.5 C 16.02 g/m*3 26.5 C 6.4 km/h
1031 05-09-2013 13:50:00 27.2 C 16.13 g/m*3 27.2 C 8.1 km/h
1032 05-09-2013 13:55:00 26.9 C 17.66 g/m*3 26.9 C 3.2 km/h
1033 05-09-2013 14:00:00 26.2 C 14.52 g/m*3 26.2 C 6.4 km/h
1034 05-09-2013 14:05:00 27.2 C 16.65 g/m*3 27.2 C 6.4 km/h
1035 05-09-2013 14:10:00 27.4 C 15.52 g/m*3 27.4 C 8.1 km/h
1036 05-09-2013 14:15:00 26.4 C 15.93 g/m*3 26.4 C 9.7 km/h
1037 05-09-2013 14:20:00 26.7 C 16.71 g/m*3 26.7 C 3.2 km/h
1038 05-09-2013 14:25:00 27.6 C 14.9 g/m*3 27.6 C 3.2 km/h
1039 05-09-2013 14:30:00 27.2 C 16.65 g/m*3 27.2 C 3.2 km/h
1040 05-09-2013 14:35:00 28.1 C 15.86 g/m*3 28.1 C 4.8 km/h
1041 05-09-2013 14:40:00 27.9 C 14.87 g/m*3 27.9 C 4.8 km/h
1042 05-09-2013 14:45:00 27.9 C 14.6 g/m*3 27.9 C 6.4 km/h
1043 05-09-2013 14:50:00 27.2 C 16.65 g/m*3 27.2 C 4.8 km/h
1044 05-09-2013 14:55:00 27.1 C 15.53 g/m*3 27.1 C 6.4 km/h
1045 05-09-2013 15:00:00 26.9 C 16.64 g/m*3 26.9 C 1.6 km/h
1046 05-09-2013 15:05:00 27.9 C 16.23 g/m*3 27.9 C 1.6 km/h
1047 05-09-2013 15:10:00 28.2 C 16.22 g/m*3 28.2 C 4.8 km/h
1048 05-09-2013 15:15:00 28.7 C 13.85 g/m*3 28.7 C 6.4 km/h
1049 05-09-2013 15:20:00 28.7 C 16.11 g/m*3 28.7 C 8.1 km/h
1050 05-09-2013 15:25:00 28.2 C 16.5 g/m*3 28.2 C 6.4 km/h
Sensor: Nr:Datum:Temp:Abs-Feuchte:Windchill:Wind:
Aussen-T/F 1051 05-09-2013 15:30:00 28.5 C 15.65 g/m*3 28.5 C 4.8 km/h
1052 05-09-2013 15:35:00 29.1 C 14.44 g/m*3 29.1 C 4.8 km/h
1053 05-09-2013 15:40:00 29.7 C 15.51 g/m*3 29.7 C 9.7 km/h
1054 05-09-2013 15:45:00 29.4 C 14.38 g/m*3 29.4 C 9.7 km/h
1055 05-09-2013 15:50:00 28.5 C 16.21 g/m*3 28.5 C 3.2 km/h
1056 05-09-2013 15:55:00 29 C 16.37 g/m*3 29 C 9.7 km/h
1057 05-09-2013 16:00:00 29.3 C 15.77 g/m*3 29.3 C 4.8 km/h
1058 05-09-2013 16:05:00 29.9 C 15.68 g/m*3 29.9 C 8.1 km/h
1059 05-09-2013 16:10:00 29.1 C 15.6 g/m*3 29.1 C 4.8 km/h
1060 05-09-2013 16:15:00 28.8 C 14.77 g/m*3 28.8 C 8.1 km/h
1061 05-09-2013 16:20:00 29.2 C 15.68 g/m*3 29.2 C 4.8 km/h
1062 05-09-2013 16:25:00 29.5 C 13.87 g/m*3 29.5 C 4.8 km/h
1063 05-09-2013 16:30:00 29.3 C 14.31 g/m*3 29.3 C 4.8 km/h
1064 05-09-2013 16:35:00 29.8 C 15 g/m*3 29.8 C 6.4 km/h
1065 05-09-2013 16:40:00 29.6 C 14.84 g/m*3 29.6 C 8.1 km/h
1066 05-09-2013 18:15:00 21 C 12.64 g/m*3 21 C 32.2 km/h
1067 05-09-2013 18:20:00 21.2 C 12.79 g/m*3 21.2 C 32.2 km/h
1068 05-09-2013 18:25:00 21.4 C 12.75 g/m*3 21.4 C 32.2 km/h
1069 05-09-2013 18:30:00 21.7 C 12.97 g/m*3 21.7 C 32.2 km/h
1070 05-09-2013 19:00:00 20.9 C 12.57 g/m*3 20.9 C 32.2 km/h
1071 05-09-2013 19:05:00 21.2 C 12.79 g/m*3 21.2 C 32.2 km/h
1072 05-09-2013 19:10:00 23.9 C 15.79 g/m*3 23.9 C 1.6 km/h
1073 05-09-2013 19:15:00 23.7 C 15.83 g/m*3 23.7 C 3.2 km/h
1074 05-09-2013 19:20:00 23.5 C 15.65 g/m*3 23.5 C 1.6 km/h
1075 05-09-2013 19:25:00 23.3 C 15.47 g/m*3 23.3 C 3.2 km/h
Sensor: Nr:Datum:Temp:Abs-Feuchte:Windchill:Wind:
Aussen-T/F 1076 05-09-2013 19:30:00 23.2 C 15.59 g/m*3 23.2 C 3.2 km/h
1077 05-09-2013 19:35:00 23 C 15.42 g/m*3 23 C 1.6 km/h
1078 05-09-2013 19:40:00 22.8 C 15.04 g/m*3 22.8 C 3.2 km/h
1079 05-09-2013 19:45:00 22.5 C 14.98 g/m*3 22.5 C 1.6 km/h
1080 05-09-2013 19:50:00 22.2 C 14.92 g/m*3 22.2 C 0 km/h
1081 05-09-2013 19:55:00 22 C 14.75 g/m*3 22 C 1.6 km/h
1082 05-09-2013 20:00:00 21.8 C 14.77 g/m*3 21.8 C 3.2 km/h
1083 05-09-2013 20:05:00 21.6 C 14.41 g/m*3 21.6 C 1.6 km/h
1084 05-09-2013 20:10:00 21.5 C 14.52 g/m*3 21.5 C 1.6 km/h
1085 05-09-2013 20:15:00 21.4 C 14.62 g/m*3 21.4 C 0 km/h
1086 05-09-2013 20:20:00 21.3 C 14.35 g/m*3 21.3 C 1.6 km/h
1087 05-09-2013 20:25:00 21.2 C 14.27 g/m*3 21.2 C 3.2 km/h
1088 05-09-2013 20:30:00 21.1 C 14.37 g/m*3 21.1 C 1.6 km/h
1089 05-09-2013 20:35:00 21.1 C 14.19 g/m*3 21.1 C 1.6 km/h
1090 05-09-2013 20:40:00 21 C 14.11 g/m*3 21 C 1.6 km/h
1091 05-09-2013 20:45:00 21 C 14.11 g/m*3 21 C 0 km/h
1092 05-09-2013 20:50:00 20.9 C 14.21 g/m*3 20.9 C 1.6 km/h
1093 05-09-2013 20:55:00 20.9 C 14.02 g/m*3 20.9 C 1.6 km/h
1094 05-09-2013 21:00:00 20.8 C 14.12 g/m*3 20.8 C 1.6 km/h
1095 05-09-2013 21:05:00 20.8 C 14.3 g/m*3 20.8 C 0 km/h
1096 05-09-2013 21:30:00 20.7 C 14.04 g/m*3 20.7 C 0 km/h
1097 05-09-2013 21:35:00 20.5 C 13.88 g/m*3 20.5 C 0 km/h
1098 05-09-2013 21:40:00 20.4 C 13.8 g/m*3 20.4 C 1.6 km/h
1099 05-09-2013 21:45:00 20.3 C 13.72 g/m*3 20.3 C 1.6 km/h
1100 05-09-2013 22:35:00 19.8 C 13.66 g/m*3 19.8 C 1.6 km/h
Sensor: Nr:Datum:Temp:Abs-Feuchte:Windchill:Wind:
Aussen-T/F 1101 05-09-2013 22:40:00 19.7 C 13.58 g/m*3 19.7 C 1.6 km/h
1102 05-09-2013 22:45:00 19.7 C 13.58 g/m*3 19.7 C 1.6 km/h
1103 05-09-2013 22:50:00 19.4 C 13.51 g/m*3 19.4 C 0 km/h
1104 05-09-2013 23:05:00 19.4 C 13.51 g/m*3 19.4 C 0 km/h
1105 05-09-2013 23:10:00 19.3 C 13.6 g/m*3 19.3 C 1.6 km/h
1106 05-09-2013 23:15:00 19.3 C 13.44 g/m*3 19.3 C 1.6 km/h
1107 05-09-2013 23:25:00 19.3 C 13.6 g/m*3 19.3 C 1.6 km/h
1108 05-09-2013 23:30:00 19.3 C 13.44 g/m*3 19.3 C 1.6 km/h
1109 05-09-2013 23:35:00 19.3 C 13.6 g/m*3 19.3 C 0 km/h
1110 05-09-2013 23:40:00 19.3 C 13.44 g/m*3 19.3 C 0 km/h
1111 05-09-2013 23:45:00 19.3 C 13.44 g/m*3 19.3 C 0 km/h
1112 05-09-2013 23:50:00 19.3 C 13.6 g/m*3 19.3 C 0 km/h
1113 05-09-2013 23:55:00 19.3 C 13.6 g/m*3 19.3 C 3.2 km/h
1114 06-09-2013 00:00:00 19.1 C 13.44 g/m*3 19.1 C 0 km/h
1115 06-09-2013 00:05:00 17.3 C 12.08 g/m*3 17.3 C 0 km/h
1116 06-09-2013 07:50:00 14.4 C 11.74 g/m*3 14.4 C 0 km/h
1117 06-09-2013 07:55:00 14.4 C 11.74 g/m*3 14.4 C 0 km/h
1118 06-09-2013 08:00:00 14.6 C 11.89 g/m*3 14.6 C 0 km/h
1119 06-09-2013 08:05:00 14.6 C 11.89 g/m*3 14.6 C 0 km/h
1120 06-09-2013 08:10:00 14.7 C 11.96 g/m*3 14.7 C 0 km/h
1121 06-09-2013 08:15:00 14.7 C 11.96 g/m*3 14.7 C 0 km/h
1122 06-09-2013 08:20:00 14.7 C 11.96 g/m*3 14.7 C 0 km/h
1123 06-09-2013 08:25:00 14.7 C 11.96 g/m*3 14.7 C 0 km/h
1124 06-09-2013 08:30:00 14.8 C 12.03 g/m*3 14.8 C 0 km/h
1125 06-09-2013 08:35:00 14.9 C 12.11 g/m*3 14.9 C 0 km/h
Sensor: Nr:Datum:Temp:Abs-Feuchte:Windchill:Wind:
Aussen-T/F 1126 06-09-2013 08:40:00 14.9 C 12.11 g/m*3 14.9 C 0 km/h
1127 06-09-2013 08:45:00 15 C 12.18 g/m*3 15 C 0 km/h
1128 06-09-2013 08:50:00 15.1 C 12.26 g/m*3 15.1 C 0 km/h
1129 06-09-2013 08:55:00 15.2 C 12.46 g/m*3 15.2 C 0 km/h
1130 06-09-2013 09:00:00 15.3 C 12.54 g/m*3 15.3 C 0 km/h
1131 06-09-2013 09:05:00 15.4 C 12.48 g/m*3 15.4 C 0 km/h
1132 06-09-2013 09:10:00 15.4 C 12.48 g/m*3 15.4 C 0 km/h
1133 06-09-2013 09:15:00 15.6 C 12.63 g/m*3 15.6 C 0 km/h
1134 06-09-2013 09:20:00 15.7 C 12.71 g/m*3 15.7 C 0 km/h
1135 06-09-2013 09:25:00 15.9 C 12.87 g/m*3 15.9 C 0 km/h
1136 06-09-2013 09:30:00 16.1 C 13.02 g/m*3 16.1 C 0 km/h
1137 06-09-2013 09:35:00 16.2 C 13.1 g/m*3 16.2 C 0 km/h
1138 06-09-2013 09:40:00 16.4 C 13.12 g/m*3 16.4 C 0 km/h
1139 06-09-2013 09:45:00 16.5 C 13.2 g/m*3 16.5 C 0 km/h
1140 06-09-2013 09:50:00 16.7 C 13.22 g/m*3 16.7 C 0 km/h
1141 06-09-2013 09:55:00 16.9 C 13.23 g/m*3 16.9 C 0 km/h
1142 06-09-2013 10:00:00 17.2 C 13.33 g/m*3 17.2 C 0 km/h
1143 06-09-2013 10:05:00 17.4 C 13.49 g/m*3 17.4 C 0 km/h
1144 06-09-2013 10:10:00 17.5 C 13.57 g/m*3 17.5 C 0 km/h
1145 06-09-2013 10:15:00 17.7 C 13.73 g/m*3 17.7 C 0 km/h
1146 06-09-2013 10:20:00 17.9 C 13.74 g/m*3 17.9 C 0 km/h
1147 06-09-2013 10:25:00 17.9 C 13.74 g/m*3 17.9 C 0 km/h
1148 06-09-2013 10:30:00 17.9 C 13.89 g/m*3 17.9 C 0 km/h
1149 06-09-2013 10:35:00 18.1 C 13.91 g/m*3 18.1 C 0 km/h
1150 06-09-2013 10:40:00 18.2 C 13.99 g/m*3 18.2 C 0 km/h
Sensor: Nr:Datum:Temp:Abs-Feuchte:Windchill:Wind:
Aussen-T/F 1151 06-09-2013 10:45:00 18.3 C 14.07 g/m*3 18.3 C 0 km/h
1152 06-09-2013 10:50:00 18.4 C 14.16 g/m*3 18.4 C 0 km/h
1153 06-09-2013 10:55:00 18.4 C 14.16 g/m*3 18.4 C 0 km/h
1154 06-09-2013 11:00:00 18.7 C 14.41 g/m*3 18.7 C 0 km/h
1155 06-09-2013 11:05:00 18.8 C 14.49 g/m*3 18.8 C 0 km/h
1156 06-09-2013 11:10:00 18.9 C 14.58 g/m*3 18.9 C 0 km/h
1157 06-09-2013 11:15:00 19.1 C 14.75 g/m*3 19.1 C 0 km/h
1158 06-09-2013 11:20:00 19.4 C 15.02 g/m*3 19.4 C 0 km/h
1159 06-09-2013 11:25:00 19.6 C 15.02 g/m*3 19.6 C 0 km/h
1160 06-09-2013 11:30:00 19.7 C 15.11 g/m*3 19.7 C 0 km/h
1161 06-09-2013 11:35:00 19.9 C 15.29 g/m*3 19.9 C 0 km/h
1162 06-09-2013 11:40:00 20 C 15.21 g/m*3 20 C 0 km/h
1163 06-09-2013 11:45:00 20.1 C 15.3 g/m*3 20.1 C 0 km/h
1164 06-09-2013 11:50:00 20.3 C 15.48 g/m*3 20.3 C 0 km/h
1165 06-09-2013 11:55:00 20.6 C 15.75 g/m*3 20.6 C 0 km/h
1166 06-09-2013 12:00:00 20.7 C 15.66 g/m*3 20.7 C 0 km/h
1167 06-09-2013 12:05:00 20.9 C 15.66 g/m*3 20.9 C 0 km/h
1168 06-09-2013 12:10:00 21.1 C 15.85 g/m*3 21.1 C 0 km/h
1169 06-09-2013 12:15:00 21.2 C 15.94 g/m*3 21.2 C 0 km/h
1170 06-09-2013 12:20:00 21.3 C 16.03 g/m*3 21.3 C 0 km/h
1171 06-09-2013 12:25:00 21.4 C 16.12 g/m*3 21.4 C 0 km/h
1172 06-09-2013 12:30:00 21.5 C 16.22 g/m*3 21.5 C 0 km/h
1173 06-09-2013 12:35:00 21.6 C 16.12 g/m*3 21.6 C 0 km/h
1174 06-09-2013 12:40:00 21.8 C 16.31 g/m*3 21.8 C 0 km/h
1175 06-09-2013 12:45:00 21.9 C 16.4 g/m*3 21.9 C 0 km/h
Sensor: Nr:Datum:Temp:Abs-Feuchte:Windchill:Wind:
Aussen-T/F 1176 06-09-2013 12:50:00 22.2 C 16.3 g/m*3 22.2 C 3.2 km/h
1177 06-09-2013 12:55:00 23.1 C 16.74 g/m*3 23.1 C 3.2 km/h
1178 06-09-2013 13:00:00 23.5 C 16.71 g/m*3 23.5 C 3.2 km/h
1179 06-09-2013 13:05:00 24.2 C 16.72 g/m*3 24.2 C 4.8 km/h
1180 06-09-2013 13:10:00 24.4 C 16.69 g/m*3 24.4 C 3.2 km/h
1181 06-09-2013 13:15:00 24.7 C 16.52 g/m*3 24.7 C 4.8 km/h
1182 06-09-2013 13:20:00 24.3 C 16.82 g/m*3 24.3 C 0 km/h
1183 06-09-2013 13:25:00 24.1 C 16.63 g/m*3 24.1 C 3.2 km/h
1184 06-09-2013 13:30:00 23.8 C 16.56 g/m*3 23.8 C 1.6 km/h
1185 06-09-2013 13:35:00 24 C 16.54 g/m*3 24 C 8.1 km/h
1186 06-09-2013 13:40:00 24.1 C 17.07 g/m*3 24.1 C 8.1 km/h
1187 06-09-2013 13:45:00 24.3 C 16.82 g/m*3 24.3 C 11.3 km/h
1188 06-09-2013 13:50:00 25 C 17.49 g/m*3 25 C 1.6 km/h
1189 06-09-2013 13:55:00 25.4 C 17.19 g/m*3 25.4 C 1.6 km/h
1190 06-09-2013 14:00:00 26.3 C 17.82 g/m*3 26.3 C 8.1 km/h
1191 06-09-2013 14:05:00 27 C 16.21 g/m*3 27 C 8.1 km/h
1192 06-09-2013 14:10:00 27.6 C 17.29 g/m*3 27.6 C 3.2 km/h
1193 06-09-2013 14:15:00 27.5 C 14.29 g/m*3 27.5 C 4.8 km/h
1194 06-09-2013 14:20:00 27.5 C 16.93 g/m*3 27.5 C 6.4 km/h
1195 06-09-2013 14:25:00 27.4 C 16.84 g/m*3 27.4 C 0 km/h
1196 06-09-2013 14:30:00 27.2 C 14.83 g/m*3 27.2 C 3.2 km/h
1197 06-09-2013 14:35:00 27.3 C 15.18 g/m*3 27.3 C 4.8 km/h
1198 06-09-2013 14:40:00 27.5 C 14.82 g/m*3 27.5 C 1.6 km/h
1199 06-09-2013 14:45:00 28.2 C 15.4 g/m*3 28.2 C 4.8 km/h
1200 06-09-2013 14:50:00 28.5 C 16.77 g/m*3 28.5 C 8.1 km/h
Sensor: Nr:Datum:Temp:Abs-Feuchte:Windchill:Wind:
Aussen-T/F 1201 06-09-2013 14:55:00 27.8 C 17.21 g/m*3 27.8 C 8.1 km/h
1202 06-09-2013 15:00:00 27.7 C 16.58 g/m*3 27.7 C 4.8 km/h
1203 06-09-2013 15:05:00 27.3 C 16.22 g/m*3 27.3 C 3.2 km/h
1204 06-09-2013 15:10:00 27.7 C 14.18 g/m*3 27.7 C 8.1 km/h
1205 06-09-2013 15:15:00 28.7 C 13.85 g/m*3 28.7 C 4.8 km/h
1206 06-09-2013 15:20:00 29 C 15.51 g/m*3 29 C 1.6 km/h
1207 06-09-2013 15:25:00 29.1 C 16.46 g/m*3 29.1 C 4.8 km/h
1208 06-09-2013 15:30:00 29.3 C 14.31 g/m*3 29.3 C 6.4 km/h
1209 06-09-2013 15:35:00 29.6 C 14.24 g/m*3 29.6 C 8.1 km/h
1210 06-09-2013 15:40:00 29.6 C 14.24 g/m*3 29.6 C 6.4 km/h
1211 06-09-2013 15:45:00 30.2 C 14.71 g/m*3 30.2 C 4.8 km/h
1212 06-09-2013 15:50:00 29.7 C 16.41 g/m*3 29.7 C 3.2 km/h
1213 06-09-2013 15:55:00 28.7 C 15.82 g/m*3 28.7 C 1.6 km/h
1214 06-09-2013 16:00:00 28.2 C 15.4 g/m*3 28.2 C 8.1 km/h
1215 06-09-2013 16:05:00 28.4 C 15.29 g/m*3 28.4 C 8.1 km/h
1216 06-09-2013 16:10:00 28.4 C 15.29 g/m*3 28.4 C 6.4 km/h
1217 06-09-2013 16:15:00 29.2 C 15.68 g/m*3 29.2 C 6.4 km/h
1218 06-09-2013 16:25:00 30.3 C 15.41 g/m*3 30.3 C 1.6 km/h
1219 06-09-2013 16:30:00 30.3 C 15.41 g/m*3 30.3 C 6.4 km/h
1220 06-09-2013 16:35:00 30.3 C 15.41 g/m*3 30.3 C 9.7 km/h
1221 06-09-2013 16:40:00 30.8 C 15.51 g/m*3 30.8 C 6.4 km/h
1222 06-09-2013 16:45:00 30.7 C 14.8 g/m*3 30.7 C 6.4 km/h
1223 06-09-2013 16:50:00 30.4 C 16.42 g/m*3 30.4 C 1.6 km/h
1224 06-09-2013 16:55:00 30.1 C 16.77 g/m*3 30.1 C 1.6 km/h
1225 06-09-2013 17:00:00 29.7 C 16.41 g/m*3 29.7 C 3.2 km/h
Sensor: Nr:Datum:Temp:Abs-Feuchte:Windchill:Wind:
Aussen-T/F 1226 06-09-2013 17:05:00 29.8 C 16.5 g/m*3 29.8 C 4.8 km/h
1227 06-09-2013 17:10:00 29.9 C 14.18 g/m*3 29.9 C 4.8 km/h
1228 06-09-2013 17:15:00 30.2 C 16.25 g/m*3 30.2 C 1.6 km/h
1229 06-09-2013 17:20:00 30.1 C 14.94 g/m*3 30.1 C 8.1 km/h
1230 06-09-2013 17:25:00 30.3 C 14.49 g/m*3 30.3 C 3.2 km/h
1231 06-09-2013 17:30:00 30.2 C 15.63 g/m*3 30.2 C 11.3 km/h
1232 06-09-2013 17:35:00 29.4 C 16.73 g/m*3 29.4 C 3.2 km/h
1233 06-09-2013 17:40:00 28.7 C 16.39 g/m*3 28.7 C 0 km/h
1234 06-09-2013 17:45:00 28.2 C 15.12 g/m*3 28.2 C 3.2 km/h
1235 06-09-2013 17:50:00 27.8 C 16.41 g/m*3 27.8 C 1.6 km/h
1236 06-09-2013 17:55:00 27.1 C 16.04 g/m*3 27.1 C 1.6 km/h
1237 06-09-2013 18:00:00 26.3 C 16.09 g/m*3 26.3 C 1.6 km/h
1238 06-09-2013 18:05:00 25.8 C 16.37 g/m*3 25.8 C 1.6 km/h
1239 06-09-2013 18:10:00 25.3 C 16.15 g/m*3 25.3 C 0 km/h
1240 06-09-2013 18:15:00 25 C 16.11 g/m*3 25 C 0 km/h
1241 06-09-2013 18:20:00 25 C 16.11 g/m*3 25 C 0 km/h
1242 06-09-2013 18:25:00 25.1 C 16.2 g/m*3 25.1 C 1.6 km/h
1243 06-09-2013 18:30:00 25.2 C 16.3 g/m*3 25.2 C 1.6 km/h
1244 06-09-2013 18:35:00 25.6 C 15.95 g/m*3 25.6 C 4.8 km/h
1245 06-09-2013 18:40:00 25.9 C 14.53 g/m*3 25.9 C 3.2 km/h
1246 06-09-2013 18:45:00 26.4 C 13.44 g/m*3 26.4 C 4.8 km/h
1247 06-09-2013 18:50:00 26.8 C 15.02 g/m*3 26.8 C 4.8 km/h
1248 06-09-2013 18:55:00 26.5 C 15.52 g/m*3 26.5 C 3.2 km/h
1249 06-09-2013 19:00:00 26.5 C 15.52 g/m*3 26.5 C 1.6 km/h
1250 06-09-2013 19:05:00 26.5 C 15.52 g/m*3 26.5 C 1.6 km/h
Sensor: Nr:Datum:Temp:Abs-Feuchte:Windchill:Wind:
Aussen-T/F 1251 06-09-2013 19:10:00 25.6 C 14.52 g/m*3 25.6 C 1.6 km/h
1252 06-09-2013 19:15:00 25.8 C 13.72 g/m*3 25.8 C 1.6 km/h
1253 06-09-2013 19:20:00 25.8 C 13.96 g/m*3 25.8 C 3.2 km/h
1254 06-09-2013 19:25:00 25.6 C 13.57 g/m*3 25.6 C 3.2 km/h
1255 06-09-2013 19:30:00 25.1 C 14.58 g/m*3 25.1 C 3.2 km/h
1256 06-09-2013 19:35:00 24.8 C 14.57 g/m*3 24.8 C 1.6 km/h
1257 06-09-2013 19:40:00 24.2 C 14.3 g/m*3 24.2 C 1.6 km/h
1258 06-09-2013 19:45:00 24 C 14.14 g/m*3 24 C 3.2 km/h
1259 06-09-2013 19:50:00 24 C 14.14 g/m*3 24 C 1.6 km/h
1260 06-09-2013 19:55:00 23.3 C 14.22 g/m*3 23.3 C 1.6 km/h
1261 06-09-2013 20:00:00 23.1 C 14.26 g/m*3 23.1 C 1.6 km/h
1262 06-09-2013 20:05:00 23.1 C 14.26 g/m*3 23.1 C 1.6 km/h
1263 06-09-2013 20:10:00 22.8 C 14.02 g/m*3 22.8 C 1.6 km/h
1264 06-09-2013 20:15:00 22.8 C 14.02 g/m*3 22.8 C 1.6 km/h
1265 06-09-2013 20:20:00 22.7 C 14.14 g/m*3 22.7 C 1.6 km/h
1266 06-09-2013 20:25:00 22.6 C 14.26 g/m*3 22.6 C 1.6 km/h
1267 06-09-2013 20:30:00 22.5 C 14.18 g/m*3 22.5 C 0 km/h
1268 06-09-2013 20:35:00 22.5 C 14.38 g/m*3 22.5 C 1.6 km/h
1269 06-09-2013 20:40:00 22.4 C 14.3 g/m*3 22.4 C 0 km/h
1270 06-09-2013 20:45:00 22.4 C 14.3 g/m*3 22.4 C 0 km/h
1271 06-09-2013 20:50:00 22.3 C 14.41 g/m*3 22.3 C 0 km/h
1272 06-09-2013 20:55:00 22.3 C 14.41 g/m*3 22.3 C 0 km/h
1273 06-09-2013 21:00:00 22.2 C 14.53 g/m*3 22.2 C 0 km/h
1274 06-09-2013 21:05:00 22.2 C 14.53 g/m*3 22.2 C 1.6 km/h
1275 06-09-2013 21:10:00 22 C 14.36 g/m*3 22 C 1.6 km/h
Sensor: Nr:Datum:Temp:Abs-Feuchte:Windchill:Wind:
Aussen-T/F 1276 06-09-2013 21:15:00 22 C 14.36 g/m*3 22 C 0 km/h
1277 06-09-2013 21:20:00 21.9 C 14.28 g/m*3 21.9 C 0 km/h
1278 06-09-2013 21:25:00 21.9 C 14.28 g/m*3 21.9 C 0 km/h
1279 06-09-2013 21:30:00 21.9 C 14.47 g/m*3 21.9 C 0 km/h
1280 06-09-2013 21:35:00 21.8 C 14.39 g/m*3 21.8 C 0 km/h
1281 06-09-2013 21:40:00 21.7 C 14.31 g/m*3 21.7 C 0 km/h
1282 06-09-2013 21:45:00 21.6 C 14.22 g/m*3 21.6 C 0 km/h
1283 06-09-2013 21:50:00 21.5 C 14.33 g/m*3 21.5 C 0 km/h
1284 06-09-2013 21:55:00 21.3 C 14.35 g/m*3 21.3 C 0 km/h
1285 06-09-2013 22:00:00 21.2 C 14.27 g/m*3 21.2 C 0 km/h
1286 06-09-2013 22:05:00 21.1 C 14.19 g/m*3 21.1 C 0 km/h
1287 06-09-2013 22:10:00 20.9 C 14.02 g/m*3 20.9 C 1.6 km/h
1288 06-09-2013 22:15:00 20.8 C 13.94 g/m*3 20.8 C 0 km/h
1289 06-09-2013 22:20:00 20.8 C 13.94 g/m*3 20.8 C 0 km/h
1290 06-09-2013 22:25:00 20.7 C 13.86 g/m*3 20.7 C 0 km/h
1291 06-09-2013 22:30:00 20.7 C 14.04 g/m*3 20.7 C 0 km/h
1292 06-09-2013 22:35:00 20.7 C 13.86 g/m*3 20.7 C 0 km/h
1293 06-09-2013 22:40:00 20.7 C 14.04 g/m*3 20.7 C 0 km/h
1294 06-09-2013 22:45:00 20.7 C 14.04 g/m*3 20.7 C 0 km/h
1295 06-09-2013 22:50:00 20.7 C 14.22 g/m*3 20.7 C 0 km/h
1296 06-09-2013 22:55:00 20.7 C 14.04 g/m*3 20.7 C 3.2 km/h
1297 06-09-2013 23:00:00 20.5 C 13.88 g/m*3 20.5 C 1.6 km/h
1298 06-09-2013 23:05:00 20.4 C 13.98 g/m*3 20.4 C 1.6 km/h
1299 06-09-2013 23:10:00 20.3 C 13.89 g/m*3 20.3 C 0 km/h
1300 06-09-2013 23:15:00 20.2 C 13.81 g/m*3 20.2 C 0 km/h
Sensor: Nr:Datum:Temp:Abs-Feuchte:Windchill:Wind:
Aussen-T/F 1301 06-09-2013 23:20:00 20.2 C 13.81 g/m*3 20.2 C 0 km/h
1302 06-09-2013 23:25:00 20.1 C 13.73 g/m*3 20.1 C 0 km/h
1303 06-09-2013 23:30:00 20 C 14 g/m*3 20 C 0 km/h
1304 06-09-2013 23:35:00 19.8 C 13.84 g/m*3 19.8 C 0 km/h
1305 06-09-2013 23:40:00 19.7 C 13.75 g/m*3 19.7 C 0 km/h
1306 06-09-2013 23:45:00 19.7 C 13.75 g/m*3 19.7 C 0 km/h
1307 06-09-2013 23:50:00 19.6 C 13.84 g/m*3 19.6 C 0 km/h
1308 06-09-2013 23:55:00 19.4 C 13.85 g/m*3 19.4 C 0 km/h
1309 07-09-2013 00:00:00 19.3 C 13.77 g/m*3 19.3 C 3.2 km/h
1310 07-09-2013 00:05:00 19.3 C 13.77 g/m*3 19.3 C 3.2 km/h
1311 07-09-2013 00:10:00 19.2 C 13.69 g/m*3 19.2 C 0 km/h
1312 07-09-2013 00:15:00 19.1 C 13.61 g/m*3 19.1 C 0 km/h
1313 07-09-2013 00:20:00 19 C 13.69 g/m*3 19 C 0 km/h
1314 07-09-2013 00:25:00 18.8 C 13.69 g/m*3 18.8 C 0 km/h
1315 07-09-2013 00:30:00 18.8 C 13.69 g/m*3 18.8 C 0 km/h
1316 07-09-2013 00:35:00 18.7 C 13.77 g/m*3 18.7 C 0 km/h
1317 07-09-2013 00:40:00 18.6 C 13.69 g/m*3 18.6 C 0 km/h
1318 07-09-2013 00:45:00 18.4 C 13.53 g/m*3 18.4 C 0 km/h
1319 07-09-2013 00:50:00 18.4 C 13.84 g/m*3 18.4 C 0 km/h
1320 07-09-2013 00:55:00 18.3 C 13.6 g/m*3 18.3 C 0 km/h
1321 07-09-2013 01:00:00 18.2 C 13.68 g/m*3 18.2 C 0 km/h
1322 07-09-2013 01:05:00 18.1 C 13.6 g/m*3 18.1 C 0 km/h
1323 07-09-2013 01:10:00 18.1 C 13.6 g/m*3 18.1 C 0 km/h
1324 07-09-2013 01:15:00 18.1 C 13.6 g/m*3 18.1 C 0 km/h
1325 07-09-2013 01:20:00 18 C 13.52 g/m*3 18 C 0 km/h
Sensor: Nr:Datum:Temp:Abs-Feuchte:Windchill:Wind:
Aussen-T/F 1326 07-09-2013 01:25:00 17.9 C 13.44 g/m*3 17.9 C 0 km/h
1327 07-09-2013 01:30:00 17.8 C 13.36 g/m*3 17.8 C 0 km/h
1328 07-09-2013 01:35:00 17.8 C 13.36 g/m*3 17.8 C 0 km/h
1329 07-09-2013 01:40:00 17.8 C 13.51 g/m*3 17.8 C 0 km/h
1330 07-09-2013 01:45:00 17.8 C 13.51 g/m*3 17.8 C 0 km/h
1331 07-09-2013 01:50:00 17.7 C 13.28 g/m*3 17.7 C 0 km/h
1332 07-09-2013 01:55:00 17.7 C 13.28 g/m*3 17.7 C 0 km/h
1333 07-09-2013 02:00:00 17.6 C 13.35 g/m*3 17.6 C 0 km/h
1334 07-09-2013 02:05:00 17.5 C 13.27 g/m*3 17.5 C 0 km/h
1335 07-09-2013 02:10:00 17.6 C 13.35 g/m*3 17.6 C 0 km/h
1336 07-09-2013 02:15:00 17.6 C 13.2 g/m*3 17.6 C 0 km/h
1337 07-09-2013 02:20:00 17.5 C 13.27 g/m*3 17.5 C 0 km/h
1338 07-09-2013 02:25:00 17.4 C 13.04 g/m*3 17.4 C 0 km/h
1339 07-09-2013 02:30:00 17.3 C 13.11 g/m*3 17.3 C 0 km/h
1340 07-09-2013 02:35:00 17.3 C 13.11 g/m*3 17.3 C 0 km/h
1341 07-09-2013 02:40:00 17.2 C 13.03 g/m*3 17.2 C 0 km/h
1342 07-09-2013 02:45:00 17.2 C 13.18 g/m*3 17.2 C 0 km/h
1343 07-09-2013 02:50:00 17.2 C 13.18 g/m*3 17.2 C 8.1 km/h
1344 07-09-2013 02:55:00 17.3 C 13.11 g/m*3 17.3 C 8.1 km/h
1345 07-09-2013 03:00:00 17.4 C 13.19 g/m*3 17.4 C 8.1 km/h
1346 07-09-2013 03:05:00 17.4 C 13.04 g/m*3 17.4 C 8.1 km/h
1347 07-09-2013 03:10:00 17.4 C 13.04 g/m*3 17.4 C 3.2 km/h
1348 07-09-2013 03:15:00 17.4 C 13.04 g/m*3 17.4 C 4.8 km/h
1349 07-09-2013 03:20:00 17.3 C 12.96 g/m*3 17.3 C 11.3 km/h
1350 07-09-2013 03:25:00 17.4 C 12.89 g/m*3 17.4 C 11.3 km/h
Sensor: Nr:Datum:Temp:Abs-Feuchte:Windchill:Wind:
Aussen-T/F 1351 07-09-2013 03:30:00 17.5 C 12.97 g/m*3 17.5 C 14.5 km/h
1352 07-09-2013 03:35:00 17.5 C 12.97 g/m*3 17.5 C 1.6 km/h
1353 07-09-2013 03:40:00 17.4 C 13.04 g/m*3 17.4 C 0 km/h
1354 07-09-2013 03:45:00 17.3 C 12.96 g/m*3 17.3 C 0 km/h
1355 07-09-2013 03:50:00 17.2 C 12.89 g/m*3 17.2 C 0 km/h
1356 07-09-2013 03:55:00 17.2 C 12.89 g/m*3 17.2 C 3.2 km/h
1357 07-09-2013 04:00:00 17.2 C 12.89 g/m*3 17.2 C 0 km/h
1358 07-09-2013 04:05:00 17.3 C 12.96 g/m*3 17.3 C 0 km/h
1359 07-09-2013 04:10:00 17.3 C 12.96 g/m*3 17.3 C 0 km/h
1360 07-09-2013 04:15:00 17.2 C 12.89 g/m*3 17.2 C 0 km/h
1361 07-09-2013 04:20:00 17.2 C 12.89 g/m*3 17.2 C 0 km/h
1362 07-09-2013 04:25:00 17.1 C 12.81 g/m*3 17.1 C 0 km/h
1363 07-09-2013 04:30:00 17.1 C 12.96 g/m*3 17.1 C 0 km/h
1364 07-09-2013 04:35:00 17 C 12.88 g/m*3 17 C 0 km/h
1365 07-09-2013 04:40:00 16.9 C 12.94 g/m*3 16.9 C 0 km/h
1366 07-09-2013 04:45:00 16.9 C 12.94 g/m*3 16.9 C 0 km/h
1367 07-09-2013 04:50:00 17 C 13.02 g/m*3 17 C 6.4 km/h
1368 07-09-2013 04:55:00 17.1 C 12.96 g/m*3 17.1 C 3.2 km/h
1369 07-09-2013 05:00:00 17.1 C 12.96 g/m*3 17.1 C 0 km/h
1370 07-09-2013 05:05:00 17.1 C 12.96 g/m*3 17.1 C 1.6 km/h
1371 07-09-2013 05:10:00 17.2 C 12.89 g/m*3 17.2 C 8.1 km/h
1372 07-09-2013 05:15:00 17.3 C 12.96 g/m*3 17.3 C 4.8 km/h
1373 07-09-2013 05:20:00 17.4 C 12.89 g/m*3 17.4 C 4.8 km/h
1374 07-09-2013 05:25:00 17.4 C 12.89 g/m*3 17.4 C 4.8 km/h
1375 07-09-2013 05:30:00 17.3 C 12.96 g/m*3 17.3 C 3.2 km/h
Sensor: Nr:Datum:Temp:Abs-Feuchte:Windchill:Wind:
Aussen-T/F 1376 07-09-2013 05:35:00 17.2 C 12.89 g/m*3 17.2 C 0 km/h
1377 07-09-2013 05:40:00 17.1 C 12.81 g/m*3 17.1 C 0 km/h
1378 07-09-2013 05:45:00 17 C 12.73 g/m*3 17 C 0 km/h
1379 07-09-2013 05:50:00 17 C 12.88 g/m*3 17 C 3.2 km/h
1380 07-09-2013 05:55:00 16.9 C 12.8 g/m*3 16.9 C 0 km/h
1381 07-09-2013 06:00:00 16.8 C 12.72 g/m*3 16.8 C 0 km/h
1382 07-09-2013 06:05:00 16.7 C 12.65 g/m*3 16.7 C 0 km/h
1383 07-09-2013 06:10:00 16.6 C 12.71 g/m*3 16.6 C 3.2 km/h
1384 07-09-2013 06:15:00 16.6 C 12.71 g/m*3 16.6 C 0 km/h
1385 07-09-2013 06:20:00 16.6 C 12.86 g/m*3 16.6 C 0 km/h
1386 07-09-2013 06:25:00 16.6 C 12.86 g/m*3 16.6 C 0 km/h
1387 07-09-2013 06:30:00 16.6 C 12.86 g/m*3 16.6 C 0 km/h
1388 07-09-2013 06:35:00 16.6 C 12.86 g/m*3 16.6 C 0 km/h
1389 07-09-2013 06:40:00 16.8 C 13.01 g/m*3 16.8 C 3.2 km/h
1390 07-09-2013 06:45:00 16.9 C 12.94 g/m*3 16.9 C 6.4 km/h
1391 07-09-2013 06:50:00 17.1 C 12.96 g/m*3 17.1 C 4.8 km/h
1392 07-09-2013 06:55:00 17.2 C 13.03 g/m*3 17.2 C 4.8 km/h
1393 07-09-2013 07:00:00 17.2 C 13.03 g/m*3 17.2 C 0 km/h
1394 07-09-2013 07:05:00 17.2 C 13.18 g/m*3 17.2 C 4.8 km/h
1395 07-09-2013 07:10:00 17.2 C 13.18 g/m*3 17.2 C 0 km/h
1396 07-09-2013 07:15:00 17.2 C 13.33 g/m*3 17.2 C 0 km/h
1397 07-09-2013 07:20:00 17.2 C 13.62 g/m*3 17.2 C 0 km/h
1398 07-09-2013 07:25:00 17.2 C 13.62 g/m*3 17.2 C 0 km/h
1399 07-09-2013 07:30:00 17.1 C 13.54 g/m*3 17.1 C 0 km/h
1400 07-09-2013 07:35:00 17.1 C 13.68 g/m*3 17.1 C 0 km/h
Sensor: Nr:Datum:Temp:Abs-Feuchte:Windchill:Wind:
Aussen-T/F 1401 07-09-2013 07:40:00 17.1 C 13.54 g/m*3 17.1 C 6.4 km/h
1402 07-09-2013 07:45:00 17 C 13.46 g/m*3 17 C 3.2 km/h
1403 07-09-2013 07:50:00 17 C 13.46 g/m*3 17 C 1.6 km/h
1404 07-09-2013 07:55:00 17 C 13.6 g/m*3 17 C 1.6 km/h
1405 07-09-2013 08:00:00 17 C 13.6 g/m*3 17 C 1.6 km/h
1406 07-09-2013 08:05:00 17 C 13.6 g/m*3 17 C 0 km/h
1407 07-09-2013 08:10:00 17 C 13.6 g/m*3 17 C 0 km/h
1408 07-09-2013 08:15:00 17 C 13.6 g/m*3 17 C 1.6 km/h
1409 07-09-2013 08:20:00 16.9 C 13.52 g/m*3 16.9 C 0 km/h
1410 07-09-2013 08:25:00 16.9 C 13.52 g/m*3 16.9 C 0 km/h
1411 07-09-2013 08:30:00 16.8 C 13.58 g/m*3 16.8 C 0 km/h
1412 07-09-2013 08:35:00 16.8 C 13.58 g/m*3 16.8 C 0 km/h
1413 07-09-2013 08:40:00 16.8 C 13.58 g/m*3 16.8 C 0 km/h
1414 07-09-2013 08:45:00 16.8 C 13.58 g/m*3 16.8 C 0 km/h
1415 07-09-2013 08:50:00 16.8 C 13.58 g/m*3 16.8 C 0 km/h
1416 07-09-2013 08:55:00 16.8 C 13.73 g/m*3 16.8 C 0 km/h
1417 07-09-2013 09:00:00 16.8 C 13.73 g/m*3 16.8 C 0 km/h
1418 07-09-2013 09:05:00 16.8 C 13.73 g/m*3 16.8 C 0 km/h
1419 07-09-2013 09:10:00 16.8 C 13.73 g/m*3 16.8 C 0 km/h
1420 07-09-2013 09:15:00 16.9 C 13.81 g/m*3 16.9 C 0 km/h
1421 07-09-2013 09:20:00 16.9 C 13.81 g/m*3 16.9 C 0 km/h
1422 07-09-2013 09:25:00 16.9 C 13.81 g/m*3 16.9 C 0 km/h
1423 07-09-2013 09:30:00 17 C 13.89 g/m*3 17 C 0 km/h
1424 07-09-2013 09:35:00 17 C 13.89 g/m*3 17 C 0 km/h
1425 07-09-2013 09:40:00 17 C 13.89 g/m*3 17 C 0 km/h
Sensor: Nr:Datum:Temp:Abs-Feuchte:Windchill:Wind:
Aussen-T/F 1426 07-09-2013 09:45:00 17 C 13.89 g/m*3 17 C 0 km/h
1427 07-09-2013 09:50:00 17 C 13.89 g/m*3 17 C 0 km/h
1428 07-09-2013 09:55:00 17.1 C 13.97 g/m*3 17.1 C 0 km/h
1429 07-09-2013 10:00:00 17.1 C 13.97 g/m*3 17.1 C 0 km/h
1430 07-09-2013 10:05:00 17.2 C 14.06 g/m*3 17.2 C 0 km/h
1431 07-09-2013 10:10:00 17.3 C 14.29 g/m*3 17.3 C 0 km/h
1432 07-09-2013 10:15:00 17.4 C 14.38 g/m*3 17.4 C 0 km/h
1433 07-09-2013 10:20:00 17.6 C 14.55 g/m*3 17.6 C 0 km/h
1434 07-09-2013 10:25:00 17.6 C 14.55 g/m*3 17.6 C 0 km/h
1435 07-09-2013 10:30:00 17.7 C 14.64 g/m*3 17.7 C 0 km/h
1436 07-09-2013 10:35:00 17.7 C 14.64 g/m*3 17.7 C 0 km/h
1437 07-09-2013 10:40:00 17.8 C 14.72 g/m*3 17.8 C 0 km/h
1438 07-09-2013 10:45:00 17.9 C 14.66 g/m*3 17.9 C 0 km/h
1439 07-09-2013 10:50:00 18 C 14.75 g/m*3 18 C 0 km/h
1440 07-09-2013 10:55:00 18.2 C 15.08 g/m*3 18.2 C 0 km/h
1441 07-09-2013 11:00:00 18.4 C 15.26 g/m*3 18.4 C 3.2 km/h
1442 07-09-2013 11:05:00 18.3 C 15.01 g/m*3 18.3 C 1.6 km/h
1443 07-09-2013 11:10:00 18.3 C 14.85 g/m*3 18.3 C 0 km/h
1444 07-09-2013 11:15:00 18.4 C 15.1 g/m*3 18.4 C 0 km/h
1445 07-09-2013 11:20:00 18.7 C 15.21 g/m*3 18.7 C 3.2 km/h
1446 07-09-2013 11:25:00 18.8 C 15.3 g/m*3 18.8 C 0 km/h
1447 07-09-2013 11:30:00 18.8 C 15.14 g/m*3 18.8 C 3.2 km/h
1448 07-09-2013 11:35:00 18.9 C 15.07 g/m*3 18.9 C 0 km/h
1449 07-09-2013 11:40:00 19.1 C 15.25 g/m*3 19.1 C 0 km/h
1450 07-09-2013 11:45:00 19.2 C 15.34 g/m*3 19.2 C 1.6 km/h
Sensor: Nr:Datum:Temp:Abs-Feuchte:Windchill:Wind:
Aussen-T/F 1451 07-09-2013 11:50:00 19.4 C 15.52 g/m*3 19.4 C 4.8 km/h
1452 07-09-2013 11:55:00 19.4 C 15.35 g/m*3 19.4 C 3.2 km/h
1453 07-09-2013 12:00:00 19.5 C 15.44 g/m*3 19.5 C 6.4 km/h
1454 07-09-2013 12:05:00 19.6 C 15.53 g/m*3 19.6 C 0 km/h
1455 07-09-2013 12:10:00 19.7 C 15.79 g/m*3 19.7 C 0 km/h
1456 07-09-2013 12:15:00 19.7 C 15.79 g/m*3 19.7 C 0 km/h
1457 07-09-2013 12:20:00 19.7 C 15.28 g/m*3 19.7 C 1.6 km/h
1458 07-09-2013 12:25:00 20 C 15.55 g/m*3 20 C 1.6 km/h
1459 07-09-2013 12:30:00 20.2 C 15.39 g/m*3 20.2 C 0 km/h
1460 07-09-2013 12:35:00 20.5 C 15.84 g/m*3 20.5 C 0 km/h
1461 07-09-2013 12:40:00 20.6 C 16.11 g/m*3 20.6 C 0 km/h
1462 07-09-2013 12:45:00 20.7 C 15.3 g/m*3 20.7 C 3.2 km/h
1463 07-09-2013 12:50:00 20.8 C 15.75 g/m*3 20.8 C 1.6 km/h
1464 07-09-2013 12:55:00 20.8 C 15.93 g/m*3 20.8 C 0 km/h
1465 07-09-2013 13:00:00 20.7 C 16.02 g/m*3 20.7 C 0 km/h
1466 07-09-2013 13:05:00 20.7 C 16.38 g/m*3 20.7 C 0 km/h
1467 07-09-2013 13:10:00 20.6 C 16.11 g/m*3 20.6 C 0 km/h
1468 07-09-2013 13:15:00 20.7 C 15.3 g/m*3 20.7 C 0 km/h
1469 07-09-2013 13:20:00 21.1 C 16.21 g/m*3 21.1 C 1.6 km/h
1470 07-09-2013 13:25:00 21.4 C 16.12 g/m*3 21.4 C 3.2 km/h
1471 07-09-2013 13:30:00 21.6 C 16.31 g/m*3 21.6 C 1.6 km/h
1472 07-09-2013 13:35:00 21.3 C 16.22 g/m*3 21.3 C 0 km/h
1473 07-09-2013 13:40:00 21.1 C 16.4 g/m*3 21.1 C 0 km/h
1474 07-09-2013 13:45:00 21.2 C 16.12 g/m*3 21.2 C 1.6 km/h
1475 07-09-2013 13:50:00 21.7 C 16.79 g/m*3 21.7 C 1.6 km/h
Sensor: Nr:Datum:Temp:Abs-Feuchte:Windchill:Wind:
Aussen-T/F 1476 07-09-2013 13:55:00 22.1 C 16.79 g/m*3 22.1 C 1.6 km/h
1477 07-09-2013 14:00:00 22.3 C 16.19 g/m*3 22.3 C 3.2 km/h
1478 07-09-2013 14:05:00 22.3 C 16.39 g/m*3 22.3 C 4.8 km/h
1479 07-09-2013 14:10:00 22.3 C 16.78 g/m*3 22.3 C 1.6 km/h
1480 07-09-2013 14:15:00 22.1 C 16.79 g/m*3 22.1 C 0 km/h
1481 07-09-2013 14:20:00 21.9 C 16.79 g/m*3 21.9 C 3.2 km/h
1482 07-09-2013 14:25:00 22.1 C 16.4 g/m*3 22.1 C 1.6 km/h
1483 07-09-2013 14:30:00 22.3 C 16.59 g/m*3 22.3 C 4.8 km/h
1484 07-09-2013 14:35:00 22.4 C 16.48 g/m*3 22.4 C 1.6 km/h
1485 07-09-2013 14:40:00 22.3 C 16.98 g/m*3 22.3 C 0 km/h
1486 07-09-2013 14:45:00 22.1 C 16.98 g/m*3 22.1 C 1.6 km/h
1487 07-09-2013 14:50:00 21.8 C 16.88 g/m*3 21.8 C 1.6 km/h
1488 07-09-2013 14:55:00 21.5 C 16.78 g/m*3 21.5 C 0 km/h
1489 07-09-2013 15:00:00 21.2 C 16.68 g/m*3 21.2 C 0 km/h
1490 07-09-2013 15:05:00 21 C 16.67 g/m*3 21 C 0 km/h
1491 07-09-2013 15:10:00 20.9 C 16.76 g/m*3 20.9 C 0 km/h
1492 07-09-2013 15:15:00 20.8 C 16.66 g/m*3 20.8 C 0 km/h
1493 07-09-2013 15:20:00 20.8 C 16.84 g/m*3 20.8 C 0 km/h
1494 07-09-2013 15:25:00 20.7 C 16.74 g/m*3 20.7 C 0 km/h
1495 07-09-2013 15:30:00 20.8 C 16.84 g/m*3 20.8 C 0 km/h
1496 07-09-2013 15:35:00 21 C 17.22 g/m*3 21 C 0 km/h
1497 07-09-2013 15:40:00 21.1 C 17.14 g/m*3 21.1 C 0 km/h
1498 07-09-2013 15:45:00 21 C 16.85 g/m*3 21 C 0 km/h
1499 07-09-2013 15:50:00 20.8 C 16.66 g/m*3 20.8 C 0 km/h
1500 07-09-2013 15:55:00 20.8 C 16.84 g/m*3 20.8 C 0 km/h
Sensor: Nr:Datum:Temp:Abs-Feuchte:Windchill:Wind:
Aussen-T/F 1501 07-09-2013 16:00:00 20.8 C 16.84 g/m*3 20.8 C 0 km/h
1502 07-09-2013 16:05:00 20.8 C 16.84 g/m*3 20.8 C 0 km/h
1503 07-09-2013 16:10:00 20.8 C 16.84 g/m*3 20.8 C 0 km/h
1504 07-09-2013 16:15:00 20.8 C 16.84 g/m*3 20.8 C 0 km/h
1505 07-09-2013 16:20:00 20.9 C 17.12 g/m*3 20.9 C 0 km/h
1506 07-09-2013 16:25:00 21 C 16.85 g/m*3 21 C 3.2 km/h
1507 07-09-2013 16:30:00 21.4 C 16.69 g/m*3 21.4 C 3.2 km/h
1508 07-09-2013 16:35:00 21.7 C 16.21 g/m*3 21.7 C 4.8 km/h
1509 07-09-2013 16:40:00 21.8 C 17.08 g/m*3 21.8 C 0 km/h
1510 07-09-2013 16:45:00 21.3 C 16.96 g/m*3 21.3 C 0 km/h
1511 07-09-2013 16:50:00 21 C 16.85 g/m*3 21 C 0 km/h
1512 07-09-2013 16:55:00 20.8 C 16.66 g/m*3 20.8 C 0 km/h
1513 07-09-2013 17:00:00 20.6 C 16.64 g/m*3 20.6 C 1.6 km/h
1514 07-09-2013 17:05:00 20.4 C 16.45 g/m*3 20.4 C 3.2 km/h
1515 07-09-2013 17:10:00 20.3 C 16.18 g/m*3 20.3 C 1.6 km/h
1516 07-09-2013 17:15:00 20.2 C 16.26 g/m*3 20.2 C 3.2 km/h
1517 07-09-2013 17:20:00 20.1 C 16.34 g/m*3 20.1 C 0 km/h
1518 07-09-2013 17:25:00 20.1 C 16.34 g/m*3 20.1 C 0 km/h
1519 07-09-2013 17:30:00 20.1 C 16.51 g/m*3 20.1 C 1.6 km/h
1520 07-09-2013 17:35:00 19.9 C 16.15 g/m*3 19.9 C 1.6 km/h
1521 07-09-2013 17:40:00 19.8 C 16.06 g/m*3 19.8 C 0 km/h
1522 07-09-2013 17:45:00 19.8 C 16.23 g/m*3 19.8 C 3.2 km/h
1523 07-09-2013 17:50:00 19.5 C 15.27 g/m*3 19.5 C 12.9 km/h
1524 07-09-2013 17:55:00 19.4 C 15.35 g/m*3 19.4 C 1.6 km/h
1525 07-09-2013 18:00:00 19.2 C 15.34 g/m*3 19.2 C 3.2 km/h
Sensor: Nr:Datum:Temp:Abs-Feuchte:Windchill:Wind:
Aussen-T/F 1526 07-09-2013 18:05:00 19.1 C 14.92 g/m*3 19.1 C 12.9 km/h
1527 07-09-2013 18:10:00 19 C 14.83 g/m*3 19 C 1.6 km/h
1528 07-09-2013 18:15:00 18.9 C 14.9 g/m*3 18.9 C 9.7 km/h
1529 07-09-2013 18:20:00 18.9 C 15.07 g/m*3 18.9 C 3.2 km/h
1530 07-09-2013 18:25:00 18.8 C 15.14 g/m*3 18.8 C 3.2 km/h
1531 07-09-2013 18:30:00 18.7 C 14.89 g/m*3 18.7 C 8.1 km/h
1532 07-09-2013 18:35:00 18.8 C 15.14 g/m*3 18.8 C 1.6 km/h
1533 07-09-2013 18:40:00 18.8 C 15.14 g/m*3 18.8 C 3.2 km/h
1534 07-09-2013 18:45:00 18.7 C 15.05 g/m*3 18.7 C 4.8 km/h
1535 07-09-2013 18:50:00 18.6 C 14.96 g/m*3 18.6 C 3.2 km/h
1536 07-09-2013 18:55:00 18.6 C 15.12 g/m*3 18.6 C 0 km/h
1537 07-09-2013 19:00:00 18.6 C 15.12 g/m*3 18.6 C 1.6 km/h
1538 07-09-2013 19:05:00 18.5 C 15.03 g/m*3 18.5 C 0 km/h
1539 07-09-2013 19:10:00 18.4 C 14.94 g/m*3 18.4 C 1.6 km/h
1540 07-09-2013 19:15:00 18.3 C 14.85 g/m*3 18.3 C 0 km/h
1541 07-09-2013 19:20:00 18.2 C 14.77 g/m*3 18.2 C 0 km/h
1542 07-09-2013 19:25:00 18.1 C 14.68 g/m*3 18.1 C 0 km/h
1543 07-09-2013 19:30:00 18 C 14.59 g/m*3 18 C 0 km/h
1544 07-09-2013 19:35:00 17.9 C 14.5 g/m*3 17.9 C 0 km/h
1545 07-09-2013 19:40:00 17.9 C 14.5 g/m*3 17.9 C 0 km/h
1546 07-09-2013 19:45:00 17.9 C 14.5 g/m*3 17.9 C 0 km/h
1547 07-09-2013 19:50:00 17.8 C 14.57 g/m*3 17.8 C 0 km/h
1548 07-09-2013 19:55:00 17.8 C 14.57 g/m*3 17.8 C 0 km/h
1549 07-09-2013 20:00:00 17.8 C 14.57 g/m*3 17.8 C 0 km/h
1550 07-09-2013 20:05:00 17.8 C 14.57 g/m*3 17.8 C 0 km/h
Sensor: Nr:Datum:Temp:Abs-Feuchte:Windchill:Wind:
Aussen-T/F 1551 07-09-2013 20:10:00 17.8 C 14.57 g/m*3 17.8 C 0 km/h
1552 07-09-2013 20:15:00 17.7 C 14.48 g/m*3 17.7 C 0 km/h
1553 07-09-2013 20:20:00 17.7 C 14.48 g/m*3 17.7 C 0 km/h
1554 07-09-2013 20:25:00 17.7 C 14.48 g/m*3 17.7 C 0 km/h
1555 07-09-2013 20:30:00 17.7 C 14.48 g/m*3 17.7 C 0 km/h
1556 07-09-2013 20:35:00 17.6 C 14.4 g/m*3 17.6 C 11.3 km/h
1557 07-09-2013 20:40:00 17.6 C 14.25 g/m*3 17.6 C 6.4 km/h
1558 07-09-2013 20:45:00 17.6 C 14.1 g/m*3 17.6 C 8.1 km/h
1559 07-09-2013 20:50:00 17.6 C 13.95 g/m*3 17.6 C 4.8 km/h
1560 07-09-2013 20:55:00 17.6 C 13.95 g/m*3 17.6 C 4.8 km/h
1561 07-09-2013 21:00:00 17.6 C 13.8 g/m*3 17.6 C 6.4 km/h
1562 07-09-2013 21:05:00 17.7 C 13.88 g/m*3 17.7 C 6.4 km/h
1563 07-09-2013 21:10:00 17.6 C 13.65 g/m*3 17.6 C 4.8 km/h
1564 07-09-2013 21:15:00 17.6 C 13.8 g/m*3 17.6 C 1.6 km/h
1565 07-09-2013 21:20:00 17.6 C 13.8 g/m*3 17.6 C 3.2 km/h
1566 07-09-2013 21:25:00 17.6 C 13.8 g/m*3 17.6 C 0 km/h
1567 07-09-2013 21:30:00 17.5 C 13.87 g/m*3 17.5 C 0 km/h
1568 07-09-2013 21:35:00 17.4 C 13.93 g/m*3 17.4 C 0 km/h
1569 07-09-2013 21:40:00 17.3 C 13.85 g/m*3 17.3 C 3.2 km/h
1570 07-09-2013 21:45:00 17.3 C 13.85 g/m*3 17.3 C 0 km/h
1571 07-09-2013 21:50:00 17.2 C 13.91 g/m*3 17.2 C 0 km/h
1572 07-09-2013 21:55:00 17.2 C 13.91 g/m*3 17.2 C 0 km/h
1573 07-09-2013 22:00:00 17.2 C 13.91 g/m*3 17.2 C 3.2 km/h
1574 07-09-2013 22:05:00 17.1 C 13.68 g/m*3 17.1 C 4.8 km/h
1575 07-09-2013 22:10:00 17.1 C 13.68 g/m*3 17.1 C 0 km/h
Sensor: Nr:Datum:Temp:Abs-Feuchte:Windchill:Wind:
Aussen-T/F 1576 07-09-2013 22:15:00 17.2 C 13.77 g/m*3 17.2 C 0 km/h
1577 07-09-2013 22:20:00 17.1 C 13.83 g/m*3 17.1 C 0 km/h
1578 07-09-2013 22:25:00 17.1 C 13.83 g/m*3 17.1 C 0 km/h
1579 07-09-2013 22:30:00 16.9 C 13.52 g/m*3 16.9 C 0 km/h
1580 07-09-2013 22:35:00 16.8 C 13.3 g/m*3 16.8 C 1.6 km/h
1581 07-09-2013 22:40:00 16.8 C 13.44 g/m*3 16.8 C 0 km/h
1582 07-09-2013 22:45:00 16.7 C 13.36 g/m*3 16.7 C 1.6 km/h
1583 07-09-2013 22:50:00 16.7 C 13.22 g/m*3 16.7 C 1.6 km/h
1584 07-09-2013 22:55:00 16.6 C 13.28 g/m*3 16.6 C 0 km/h
1585 07-09-2013 23:00:00 16.6 C 13.28 g/m*3 16.6 C 0 km/h
1586 07-09-2013 23:05:00 16.4 C 13.26 g/m*3 16.4 C 0 km/h
1587 07-09-2013 23:10:00 16.3 C 13.18 g/m*3 16.3 C 0 km/h
1588 07-09-2013 23:15:00 16.3 C 13.18 g/m*3 16.3 C 0 km/h
1589 07-09-2013 23:20:00 16.3 C 13.18 g/m*3 16.3 C 0 km/h
1590 07-09-2013 23:25:00 16.2 C 13.24 g/m*3 16.2 C 0 km/h
1591 07-09-2013 23:30:00 16.3 C 13.32 g/m*3 16.3 C 0 km/h
1592 07-09-2013 23:35:00 16.3 C 13.32 g/m*3 16.3 C 1.6 km/h
1593 07-09-2013 23:40:00 16.3 C 13.32 g/m*3 16.3 C 0 km/h
1594 07-09-2013 23:45:00 16.2 C 13.24 g/m*3 16.2 C 0 km/h
1595 07-09-2013 23:50:00 16.2 C 13.24 g/m*3 16.2 C 0 km/h
1596 07-09-2013 23:55:00 16.2 C 13.1 g/m*3 16.2 C 0 km/h
1597 08-09-2013 00:00:00 16.2 C 13.24 g/m*3 16.2 C 0 km/h
1598 08-09-2013 00:05:00 16.2 C 13.24 g/m*3 16.2 C 0 km/h
1599 08-09-2013 00:10:00 16.2 C 13.24 g/m*3 16.2 C 0 km/h
1600 08-09-2013 00:15:00 16.1 C 13.02 g/m*3 16.1 C 0 km/h
Sensor: Nr:Datum:Temp:Abs-Feuchte:Windchill:Wind:
Aussen-T/F 1601 08-09-2013 00:20:00 16.1 C 13.02 g/m*3 16.1 C 0 km/h
1602 08-09-2013 00:25:00 16.1 C 13.02 g/m*3 16.1 C 0 km/h
1603 08-09-2013 00:30:00 16.1 C 13.16 g/m*3 16.1 C 0 km/h
1604 08-09-2013 00:35:00 16 C 13.08 g/m*3 16 C 0 km/h
1605 08-09-2013 00:40:00 16 C 13.08 g/m*3 16 C 0 km/h
1606 08-09-2013 00:45:00 16 C 13.08 g/m*3 16 C 1.6 km/h
1607 08-09-2013 00:50:00 16 C 13.08 g/m*3 16 C 0 km/h
1608 08-09-2013 00:55:00 15.9 C 13 g/m*3 15.9 C 0 km/h
1609 08-09-2013 01:00:00 15.9 C 13 g/m*3 15.9 C 0 km/h
1610 08-09-2013 01:05:00 15.9 C 13 g/m*3 15.9 C 0 km/h
1611 08-09-2013 01:10:00 15.9 C 13 g/m*3 15.9 C 0 km/h
1612 08-09-2013 01:15:00 15.9 C 13 g/m*3 15.9 C 0 km/h
1613 08-09-2013 01:20:00 15.9 C 13 g/m*3 15.9 C 0 km/h
1614 08-09-2013 01:25:00 15.8 C 12.92 g/m*3 15.8 C 1.6 km/h
1615 08-09-2013 01:30:00 15.9 C 13 g/m*3 15.9 C 0 km/h
1616 08-09-2013 01:35:00 15.9 C 13 g/m*3 15.9 C 0 km/h
1617 08-09-2013 01:40:00 15.9 C 13 g/m*3 15.9 C 0 km/h
1618 08-09-2013 01:45:00 15.9 C 13 g/m*3 15.9 C 0 km/h
1619 08-09-2013 01:50:00 15.9 C 13 g/m*3 15.9 C 0 km/h
1620 08-09-2013 01:55:00 15.9 C 13 g/m*3 15.9 C 0 km/h
1621 08-09-2013 02:00:00 15.9 C 13 g/m*3 15.9 C 0 km/h
1622 08-09-2013 02:05:00 15.9 C 13 g/m*3 15.9 C 3.2 km/h
1623 08-09-2013 02:10:00 15.9 C 13 g/m*3 15.9 C 3.2 km/h
1624 08-09-2013 02:15:00 15.8 C 12.92 g/m*3 15.8 C 4.8 km/h
1625 08-09-2013 02:20:00 15.8 C 12.79 g/m*3 15.8 C 4.8 km/h
Sensor: Nr:Datum:Temp:Abs-Feuchte:Windchill:Wind:
Aussen-T/F 1626 08-09-2013 02:25:00 15.8 C 12.79 g/m*3 15.8 C 4.8 km/h
1627 08-09-2013 02:30:00 15.9 C 12.73 g/m*3 15.9 C 4.8 km/h
1628 08-09-2013 02:35:00 15.9 C 12.73 g/m*3 15.9 C 4.8 km/h
1629 08-09-2013 02:40:00 16 C 12.81 g/m*3 16 C 4.8 km/h
1630 08-09-2013 02:45:00 16.1 C 12.88 g/m*3 16.1 C 3.2 km/h
1631 08-09-2013 02:50:00 16.1 C 12.75 g/m*3 16.1 C 8.1 km/h
1632 08-09-2013 02:55:00 16.1 C 12.75 g/m*3 16.1 C 4.8 km/h
1633 08-09-2013 03:00:00 16.1 C 12.75 g/m*3 16.1 C 8.1 km/h
1634 08-09-2013 03:05:00 16.1 C 12.75 g/m*3 16.1 C 4.8 km/h
1635 08-09-2013 03:10:00 16.1 C 12.75 g/m*3 16.1 C 1.6 km/h
1636 08-09-2013 03:15:00 16.1 C 12.75 g/m*3 16.1 C 0 km/h
1637 08-09-2013 03:20:00 16.1 C 12.75 g/m*3 16.1 C 0 km/h
1638 08-09-2013 03:25:00 16.1 C 12.88 g/m*3 16.1 C 1.6 km/h
1639 08-09-2013 03:30:00 16 C 12.81 g/m*3 16 C 1.6 km/h
1640 08-09-2013 03:35:00 16 C 12.81 g/m*3 16 C 0 km/h
1641 08-09-2013 03:40:00 16 C 12.94 g/m*3 16 C 0 km/h
1642 08-09-2013 03:45:00 16 C 12.81 g/m*3 16 C 0 km/h
1643 08-09-2013 03:50:00 15.9 C 12.73 g/m*3 15.9 C 0 km/h
1644 08-09-2013 03:55:00 15.9 C 12.87 g/m*3 15.9 C 0 km/h
1645 08-09-2013 04:00:00 15.9 C 12.87 g/m*3 15.9 C 0 km/h
1646 08-09-2013 04:05:00 15.9 C 12.87 g/m*3 15.9 C 0 km/h
1647 08-09-2013 04:10:00 15.9 C 12.87 g/m*3 15.9 C 0 km/h
1648 08-09-2013 04:15:00 15.8 C 12.79 g/m*3 15.8 C 1.6 km/h
1649 08-09-2013 04:20:00 15.8 C 12.79 g/m*3 15.8 C 4.8 km/h
1650 08-09-2013 04:25:00 15.8 C 12.79 g/m*3 15.8 C 6.4 km/h
Sensor: Nr:Datum:Temp:Abs-Feuchte:Windchill:Wind:
Aussen-T/F 1651 08-09-2013 04:30:00 15.9 C 12.87 g/m*3 15.9 C 6.4 km/h
1652 08-09-2013 04:35:00 15.8 C 12.79 g/m*3 15.8 C 4.8 km/h
1653 08-09-2013 04:40:00 15.8 C 12.79 g/m*3 15.8 C 6.4 km/h
1654 08-09-2013 04:45:00 15.8 C 12.79 g/m*3 15.8 C 0 km/h
1655 08-09-2013 04:50:00 15.8 C 12.79 g/m*3 15.8 C 3.2 km/h
1656 08-09-2013 04:55:00 15.7 C 12.84 g/m*3 15.7 C 8.1 km/h
1657 08-09-2013 05:00:00 15.7 C 12.84 g/m*3 15.7 C 4.8 km/h
1658 08-09-2013 05:05:00 15.7 C 12.84 g/m*3 15.7 C 3.2 km/h
1659 08-09-2013 05:10:00 15.7 C 12.84 g/m*3 15.7 C 12.9 km/h
1660 08-09-2013 05:15:00 15.6 C 12.77 g/m*3 15.6 C 12.9 km/h
1661 08-09-2013 05:20:00 15.5 C 12.69 g/m*3 15.5 C 6.4 km/h
1662 08-09-2013 05:25:00 15.5 C 12.69 g/m*3 15.5 C 3.2 km/h
1663 08-09-2013 05:30:00 15.5 C 12.69 g/m*3 15.5 C 4.8 km/h
1664 08-09-2013 05:35:00 15.5 C 12.69 g/m*3 15.5 C 3.2 km/h
1665 08-09-2013 05:40:00 15.6 C 12.9 g/m*3 15.6 C 8.1 km/h
1666 08-09-2013 05:45:00 15.6 C 12.9 g/m*3 15.6 C 8.1 km/h
1667 08-09-2013 05:50:00 15.4 C 12.61 g/m*3 15.4 C 8.1 km/h
1668 08-09-2013 05:55:00 15.3 C 12.54 g/m*3 15.3 C 4.8 km/h
1669 08-09-2013 06:00:00 15.2 C 12.46 g/m*3 15.2 C 4.8 km/h
1670 08-09-2013 06:05:00 15.1 C 12.39 g/m*3 15.1 C 6.4 km/h
1671 08-09-2013 06:10:00 15 C 12.31 g/m*3 15 C 1.6 km/h
1672 08-09-2013 06:15:00 14.9 C 12.24 g/m*3 14.9 C 3.2 km/h
1673 08-09-2013 06:20:00 14.9 C 12.24 g/m*3 14.9 C 3.2 km/h
1674 08-09-2013 06:25:00 14.9 C 12.24 g/m*3 14.9 C 3.2 km/h
1675 08-09-2013 06:30:00 14.8 C 12.16 g/m*3 14.8 C 11.3 km/h
Sensor: Nr:Datum:Temp:Abs-Feuchte:Windchill:Wind:
Aussen-T/F 1676 08-09-2013 06:35:00 14.6 C 11.89 g/m*3 14.6 C 8.1 km/h
1677 08-09-2013 06:40:00 14.4 C 11.5 g/m*3 14.4 C 9.7 km/h
1678 08-09-2013 06:45:00 14.3 C 11.55 g/m*3 14.3 C 1.6 km/h
1679 08-09-2013 06:50:00 14.2 C 11.48 g/m*3 14.2 C 8.1 km/h
1680 08-09-2013 06:55:00 14.1 C 11.53 g/m*3 14.1 C 0 km/h
1681 08-09-2013 07:00:00 14.1 C 11.53 g/m*3 14.1 C 1.6 km/h
1682 08-09-2013 07:05:00 14 C 11.46 g/m*3 14 C 1.6 km/h
1683 08-09-2013 07:10:00 13.9 C 11.51 g/m*3 13.9 C 1.6 km/h
1684 08-09-2013 07:15:00 13.9 C 11.39 g/m*3 13.9 C 3.2 km/h
1685 08-09-2013 07:20:00 13.8 C 11.32 g/m*3 13.8 C 3.2 km/h
1686 08-09-2013 07:25:00 13.8 C 11.44 g/m*3 13.8 C 0 km/h
1687 08-09-2013 07:30:00 13.8 C 11.44 g/m*3 13.8 C 3.2 km/h
1688 08-09-2013 07:35:00 13.7 C 11.25 g/m*3 13.7 C 4.8 km/h
1689 08-09-2013 07:40:00 13.6 C 11.18 g/m*3 13.6 C 8.1 km/h
1690 08-09-2013 07:45:00 13.6 C 11.18 g/m*3 13.6 C 6.4 km/h
1691 08-09-2013 07:50:00 13.6 C 11.18 g/m*3 13.6 C 3.2 km/h
1692 08-09-2013 07:55:00 13.6 C 11.18 g/m*3 13.6 C 0 km/h
1693 08-09-2013 08:00:00 13.7 C 11.37 g/m*3 13.7 C 4.8 km/h
1694 08-09-2013 08:05:00 13.6 C 11.18 g/m*3 13.6 C 3.2 km/h
1695 08-09-2013 08:10:00 13.6 C 11.18 g/m*3 13.6 C 6.4 km/h
1696 08-09-2013 08:15:00 13.6 C 11.18 g/m*3 13.6 C 0 km/h
1697 08-09-2013 08:20:00 13.6 C 11.18 g/m*3 13.6 C 1.6 km/h
1698 08-09-2013 08:25:00 13.6 C 11.3 g/m*3 13.6 C 3.2 km/h
1699 08-09-2013 08:30:00 13.6 C 11.18 g/m*3 13.6 C 4.8 km/h
1700 08-09-2013 08:35:00 13.5 C 11.11 g/m*3 13.5 C 0 km/h
Sensor: Nr:Datum:Temp:Abs-Feuchte:Windchill:Wind:
Aussen-T/F 1701 08-09-2013 08:40:00 13.4 C 11.04 g/m*3 13.4 C 4.8 km/h
1702 08-09-2013 08:45:00 13.4 C 11.16 g/m*3 13.4 C 0 km/h
1703 08-09-2013 08:50:00 13.4 C 11.16 g/m*3 13.4 C 0 km/h
1704 08-09-2013 08:55:00 13.4 C 11.16 g/m*3 13.4 C 3.2 km/h
1705 08-09-2013 09:00:00 13.6 C 11.3 g/m*3 13.6 C 0 km/h
1706 08-09-2013 09:05:00 13.6 C 11.3 g/m*3 13.6 C 0 km/h
1707 08-09-2013 09:10:00 13.6 C 11.3 g/m*3 13.6 C 0 km/h
1708 08-09-2013 09:15:00 13.6 C 11.3 g/m*3 13.6 C 1.6 km/h
1709 08-09-2013 09:20:00 13.5 C 11.23 g/m*3 13.5 C 1.6 km/h
1710 08-09-2013 09:25:00 13.5 C 11.23 g/m*3 13.5 C 0 km/h
1711 08-09-2013 09:30:00 13.6 C 11.3 g/m*3 13.6 C 0 km/h
1712 08-09-2013 09:35:00 13.6 C 11.3 g/m*3 13.6 C 0 km/h
1713 08-09-2013 09:40:00 13.7 C 11.37 g/m*3 13.7 C 0 km/h
1714 08-09-2013 09:45:00 13.8 C 11.56 g/m*3 13.8 C 0 km/h
1715 08-09-2013 09:50:00 13.8 C 11.56 g/m*3 13.8 C 0 km/h
1716 08-09-2013 09:55:00 13.8 C 11.56 g/m*3 13.8 C 1.6 km/h
1717 08-09-2013 10:00:00 13.9 C 11.63 g/m*3 13.9 C 1.6 km/h
1718 08-09-2013 10:05:00 14.1 C 11.77 g/m*3 14.1 C 0 km/h
1719 08-09-2013 10:10:00 14.2 C 11.84 g/m*3 14.2 C 3.2 km/h
1720 08-09-2013 10:15:00 14.2 C 11.72 g/m*3 14.2 C 3.2 km/h
1721 08-09-2013 10:20:00 14.2 C 11.72 g/m*3 14.2 C 3.2 km/h
1722 08-09-2013 10:25:00 14.3 C 11.79 g/m*3 14.3 C 1.6 km/h
1723 08-09-2013 10:30:00 14.4 C 11.87 g/m*3 14.4 C 6.4 km/h
1724 08-09-2013 10:35:00 14.4 C 11.74 g/m*3 14.4 C 6.4 km/h
1725 08-09-2013 10:40:00 14.4 C 11.74 g/m*3 14.4 C 4.8 km/h
Sensor: Nr:Datum:Temp:Abs-Feuchte:Windchill:Wind:
Aussen-T/F 1726 08-09-2013 10:45:00 14.6 C 11.89 g/m*3 14.6 C 4.8 km/h
1727 08-09-2013 10:50:00 14.6 C 11.76 g/m*3 14.6 C 4.8 km/h
1728 08-09-2013 10:55:00 14.7 C 11.71 g/m*3 14.7 C 8.1 km/h
1729 08-09-2013 11:00:00 14.7 C 11.71 g/m*3 14.7 C 6.4 km/h
1730 08-09-2013 11:05:00 14.7 C 11.71 g/m*3 14.7 C 6.4 km/h
1731 08-09-2013 11:10:00 14.7 C 11.58 g/m*3 14.7 C 9.7 km/h
1732 08-09-2013 11:15:00 14.7 C 11.58 g/m*3 14.7 C 8.1 km/h
1733 08-09-2013 11:20:00 14.7 C 11.58 g/m*3 14.7 C 4.8 km/h
1734 08-09-2013 11:25:00 14.7 C 11.58 g/m*3 14.7 C 6.4 km/h
1735 08-09-2013 11:30:00 14.7 C 11.58 g/m*3 14.7 C 8.1 km/h
1736 08-09-2013 11:35:00 14.7 C 11.58 g/m*3 14.7 C 11.3 km/h
1737 08-09-2013 11:40:00 14.8 C 11.65 g/m*3 14.8 C 8.1 km/h
1738 08-09-2013 11:45:00 14.9 C 11.73 g/m*3 14.9 C 3.2 km/h
1739 08-09-2013 11:50:00 14.9 C 11.73 g/m*3 14.9 C 4.8 km/h
1740 08-09-2013 11:55:00 15 C 11.67 g/m*3 15 C 11.3 km/h
1741 08-09-2013 12:00:00 15 C 11.54 g/m*3 15 C 8.1 km/h
1742 08-09-2013 12:05:00 14.9 C 11.47 g/m*3 14.9 C 11.3 km/h
1743 08-09-2013 12:10:00 14.9 C 11.6 g/m*3 14.9 C 8.1 km/h
1744 08-09-2013 12:15:00 15.1 C 11.74 g/m*3 15.1 C 9.7 km/h
1745 08-09-2013 12:20:00 15.2 C 11.68 g/m*3 15.2 C 8.1 km/h
1746 08-09-2013 12:25:00 15.2 C 11.81 g/m*3 15.2 C 9.7 km/h
1747 08-09-2013 12:30:00 15.2 C 11.68 g/m*3 15.2 C 11.3 km/h
1748 08-09-2013 12:35:00 15.2 C 11.68 g/m*3 15.2 C 12.9 km/h
1749 08-09-2013 12:40:00 15.2 C 11.55 g/m*3 15.2 C 8.1 km/h
1750 08-09-2013 12:45:00 15.1 C 11.48 g/m*3 15.1 C 9.7 km/h
Sensor: Nr:Datum:Temp:Abs-Feuchte:Windchill:Wind:
Aussen-T/F 1751 08-09-2013 12:50:00 15 C 11.41 g/m*3 15 C 9.7 km/h
1752 08-09-2013 12:55:00 14.9 C 11.47 g/m*3 14.9 C 9.7 km/h
1753 08-09-2013 13:00:00 14.9 C 11.34 g/m*3 14.9 C 6.4 km/h
1754 08-09-2013 13:05:00 14.9 C 11.47 g/m*3 14.9 C 6.4 km/h
1755 08-09-2013 13:10:00 15 C 11.54 g/m*3 15 C 6.4 km/h
1756 08-09-2013 13:15:00 15 C 11.54 g/m*3 15 C 11.3 km/h
1757 08-09-2013 13:20:00 15.1 C 11.74 g/m*3 15.1 C 8.1 km/h
1758 08-09-2013 13:25:00 15 C 11.54 g/m*3 15 C 9.7 km/h
1759 08-09-2013 13:30:00 14.9 C 11.47 g/m*3 14.9 C 6.4 km/h
1760 08-09-2013 13:35:00 14.8 C 11.4 g/m*3 14.8 C 6.4 km/h
1761 08-09-2013 13:40:00 14.8 C 11.4 g/m*3 14.8 C 3.2 km/h
1762 08-09-2013 13:45:00 14.8 C 11.53 g/m*3 14.8 C 0 km/h
1763 08-09-2013 13:50:00 14.8 C 11.53 g/m*3 14.8 C 6.4 km/h
1764 08-09-2013 13:55:00 14.8 C 11.53 g/m*3 14.8 C 6.4 km/h
1765 08-09-2013 14:00:00 14.7 C 11.58 g/m*3 14.7 C 3.2 km/h
1766 08-09-2013 14:05:00 14.7 C 11.71 g/m*3 14.7 C 4.8 km/h
1767 08-09-2013 14:10:00 14.8 C 11.78 g/m*3 14.8 C 8.1 km/h
1768 08-09-2013 14:15:00 14.9 C 11.85 g/m*3 14.9 C 1.6 km/h
1769 08-09-2013 14:20:00 15 C 11.93 g/m*3 15 C 1.6 km/h
1770 08-09-2013 14:25:00 14.9 C 11.73 g/m*3 14.9 C 3.2 km/h
1771 08-09-2013 14:30:00 14.9 C 11.85 g/m*3 14.9 C 3.2 km/h
1772 08-09-2013 14:35:00 15 C 11.93 g/m*3 15 C 1.6 km/h
1773 08-09-2013 14:40:00 15.1 C 11.87 g/m*3 15.1 C 3.2 km/h
1774 08-09-2013 14:45:00 15.1 C 11.87 g/m*3 15.1 C 8.1 km/h
1775 08-09-2013 14:50:00 15.2 C 11.94 g/m*3 15.2 C 4.8 km/h
Sensor: Nr:Datum:Temp:Abs-Feuchte:Windchill:Wind:
Aussen-T/F 1776 08-09-2013 14:55:00 15.3 C 12.01 g/m*3 15.3 C 4.8 km/h
1777 08-09-2013 15:00:00 15.3 C 11.88 g/m*3 15.3 C 3.2 km/h
1778 08-09-2013 15:05:00 15.3 C 11.88 g/m*3 15.3 C 6.4 km/h
1779 08-09-2013 15:10:00 15.3 C 11.88 g/m*3 15.3 C 4.8 km/h
1780 08-09-2013 15:15:00 15.3 C 11.88 g/m*3 15.3 C 3.2 km/h
1781 08-09-2013 15:20:00 15.4 C 12.09 g/m*3 15.4 C 4.8 km/h
1782 08-09-2013 15:25:00 15.4 C 11.96 g/m*3 15.4 C 6.4 km/h
1783 08-09-2013 15:30:00 15.5 C 12.03 g/m*3 15.5 C 1.6 km/h
1784 08-09-2013 15:35:00 15.4 C 11.82 g/m*3 15.4 C 4.8 km/h
1785 08-09-2013 15:40:00 15.4 C 11.82 g/m*3 15.4 C 4.8 km/h
1786 08-09-2013 15:45:00 15.4 C 11.82 g/m*3 15.4 C 4.8 km/h
1787 08-09-2013 15:50:00 15.4 C 11.82 g/m*3 15.4 C 3.2 km/h
1788 08-09-2013 15:55:00 15.4 C 11.82 g/m*3 15.4 C 3.2 km/h
1789 08-09-2013 16:00:00 15.4 C 11.82 g/m*3 15.4 C 0 km/h
1790 08-09-2013 16:05:00 15.5 C 11.9 g/m*3 15.5 C 4.8 km/h
1791 08-09-2013 16:10:00 15.6 C 11.97 g/m*3 15.6 C 3.2 km/h
1792 08-09-2013 16:15:00 15.6 C 12.1 g/m*3 15.6 C 4.8 km/h
1793 08-09-2013 16:20:00 15.5 C 11.9 g/m*3 15.5 C 6.4 km/h
1794 08-09-2013 16:25:00 15.5 C 11.9 g/m*3 15.5 C 3.2 km/h
1795 08-09-2013 16:30:00 15.5 C 11.9 g/m*3 15.5 C 1.6 km/h
1796 08-09-2013 16:35:00 15.6 C 11.97 g/m*3 15.6 C 8.1 km/h
1797 08-09-2013 16:40:00 15.5 C 11.9 g/m*3 15.5 C 8.1 km/h
1798 08-09-2013 16:45:00 15.5 C 11.9 g/m*3 15.5 C 9.7 km/h
1799 08-09-2013 16:50:00 15.4 C 11.82 g/m*3 15.4 C 8.1 km/h
1800 08-09-2013 16:55:00 15.4 C 11.69 g/m*3 15.4 C 6.4 km/h
Sensor: Nr:Datum:Temp:Abs-Feuchte:Windchill:Wind:
Aussen-T/F 1801 08-09-2013 17:00:00 15.3 C 11.62 g/m*3 15.3 C 4.8 km/h
1802 08-09-2013 17:05:00 15.3 C 11.62 g/m*3 15.3 C 4.8 km/h
1803 08-09-2013 17:10:00 15.2 C 11.68 g/m*3 15.2 C 0 km/h
1804 08-09-2013 17:15:00 15.2 C 11.81 g/m*3 15.2 C 3.2 km/h
1805 08-09-2013 17:20:00 15.2 C 11.68 g/m*3 15.2 C 6.4 km/h
1806 08-09-2013 17:25:00 15.1 C 11.74 g/m*3 15.1 C 0 km/h
1807 08-09-2013 17:30:00 15.1 C 11.61 g/m*3 15.1 C 9.7 km/h
1808 08-09-2013 17:35:00 15.1 C 11.61 g/m*3 15.1 C 8.1 km/h
1809 08-09-2013 17:40:00 15.1 C 11.61 g/m*3 15.1 C 9.7 km/h
1810 08-09-2013 17:45:00 15 C 11.54 g/m*3 15 C 6.4 km/h
1811 08-09-2013 17:50:00 14.9 C 11.34 g/m*3 14.9 C 6.4 km/h
1812 08-09-2013 17:55:00 14.9 C 11.34 g/m*3 14.9 C 4.8 km/h
1813 08-09-2013 18:00:00 14.9 C 11.34 g/m*3 14.9 C 4.8 km/h
1814 08-09-2013 18:05:00 14.8 C 11.27 g/m*3 14.8 C 8.1 km/h
1815 08-09-2013 18:10:00 14.8 C 11.4 g/m*3 14.8 C 4.8 km/h
1816 08-09-2013 18:15:00 14.8 C 11.27 g/m*3 14.8 C 8.1 km/h
1817 08-09-2013 18:20:00 14.8 C 11.27 g/m*3 14.8 C 3.2 km/h
1818 08-09-2013 18:25:00 14.8 C 11.4 g/m*3 14.8 C 1.6 km/h
1819 08-09-2013 18:30:00 14.8 C 11.53 g/m*3 14.8 C 1.6 km/h
1820 08-09-2013 18:35:00 14.8 C 11.53 g/m*3 14.8 C 0 km/h
1821 08-09-2013 18:40:00 14.8 C 11.53 g/m*3 14.8 C 0 km/h
1822 08-09-2013 18:45:00 14.8 C 11.53 g/m*3 14.8 C 1.6 km/h
1823 08-09-2013 18:50:00 14.8 C 11.53 g/m*3 14.8 C 1.6 km/h
1824 08-09-2013 18:55:00 14.7 C 11.46 g/m*3 14.7 C 1.6 km/h
1825 08-09-2013 19:00:00 14.7 C 11.58 g/m*3 14.7 C 0 km/h
Sensor: Nr:Datum:Temp:Abs-Feuchte:Windchill:Wind:
Aussen-T/F 1826 08-09-2013 19:05:00 14.7 C 11.71 g/m*3 14.7 C 0 km/h
1827 08-09-2013 19:10:00 14.7 C 11.71 g/m*3 14.7 C 0 km/h
1828 08-09-2013 19:15:00 14.7 C 11.83 g/m*3 14.7 C 0 km/h
1829 08-09-2013 19:20:00 14.6 C 11.76 g/m*3 14.6 C 0 km/h
1830 08-09-2013 19:25:00 14.5 C 11.69 g/m*3 14.5 C 0 km/h
1831 08-09-2013 19:30:00 14.4 C 11.62 g/m*3 14.4 C 0 km/h
1832 08-09-2013 19:35:00 14.4 C 11.62 g/m*3 14.4 C 0 km/h
1833 08-09-2013 19:40:00 14.4 C 11.62 g/m*3 14.4 C 0 km/h
1834 08-09-2013 19:45:00 14.3 C 11.67 g/m*3 14.3 C 0 km/h
1835 08-09-2013 19:50:00 14.3 C 11.67 g/m*3 14.3 C 0 km/h
1836 08-09-2013 19:55:00 14.2 C 11.6 g/m*3 14.2 C 0 km/h
1837 08-09-2013 20:00:00 14.1 C 11.53 g/m*3 14.1 C 0 km/h
1838 08-09-2013 20:05:00 14.1 C 11.53 g/m*3 14.1 C 0 km/h
1839 08-09-2013 20:10:00 14.1 C 11.53 g/m*3 14.1 C 0 km/h
1840 08-09-2013 20:15:00 13.9 C 11.39 g/m*3 13.9 C 0 km/h
1841 08-09-2013 20:20:00 13.9 C 11.39 g/m*3 13.9 C 0 km/h
1842 08-09-2013 20:25:00 13.9 C 11.39 g/m*3 13.9 C 0 km/h
1843 08-09-2013 20:30:00 13.9 C 11.39 g/m*3 13.9 C 0 km/h
1844 08-09-2013 20:35:00 13.8 C 11.32 g/m*3 13.8 C 0 km/h
1845 08-09-2013 20:40:00 13.7 C 11.25 g/m*3 13.7 C 0 km/h
1846 08-09-2013 20:45:00 13.7 C 11.37 g/m*3 13.7 C 0 km/h
1847 08-09-2013 20:50:00 13.7 C 11.37 g/m*3 13.7 C 0 km/h
1848 08-09-2013 20:55:00 13.7 C 11.37 g/m*3 13.7 C 0 km/h
1849 08-09-2013 21:00:00 13.7 C 11.37 g/m*3 13.7 C 0 km/h
1850 08-09-2013 21:05:00 13.7 C 11.37 g/m*3 13.7 C 0 km/h
Sensor: Nr:Datum:Temp:Abs-Feuchte:Windchill:Wind:
Aussen-T/F 1851 08-09-2013 21:10:00 13.6 C 11.3 g/m*3 13.6 C 0 km/h
1852 08-09-2013 21:15:00 13.7 C 11.37 g/m*3 13.7 C 0 km/h
1853 08-09-2013 21:20:00 13.6 C 11.3 g/m*3 13.6 C 0 km/h
1854 08-09-2013 21:25:00 13.6 C 11.3 g/m*3 13.6 C 0 km/h
1855 08-09-2013 21:30:00 13.6 C 11.3 g/m*3 13.6 C 0 km/h
1856 08-09-2013 21:35:00 13.6 C 11.3 g/m*3 13.6 C 0 km/h
1857 08-09-2013 21:40:00 13.6 C 11.3 g/m*3 13.6 C 0 km/h
1858 08-09-2013 21:45:00 13.6 C 11.3 g/m*3 13.6 C 0 km/h
1859 08-09-2013 21:50:00 13.6 C 11.3 g/m*3 13.6 C 0 km/h
1860 08-09-2013 21:55:00 13.6 C 11.3 g/m*3 13.6 C 0 km/h
1861 08-09-2013 22:00:00 13.6 C 11.42 g/m*3 13.6 C 0 km/h
1862 08-09-2013 22:05:00 13.6 C 11.42 g/m*3 13.6 C 0 km/h
1863 08-09-2013 22:10:00 13.5 C 11.35 g/m*3 13.5 C 0 km/h
1864 08-09-2013 22:15:00 13.5 C 11.35 g/m*3 13.5 C 0 km/h
1865 08-09-2013 22:20:00 13.5 C 11.35 g/m*3 13.5 C 0 km/h
1866 08-09-2013 22:25:00 13.5 C 11.35 g/m*3 13.5 C 0 km/h
1867 08-09-2013 22:30:00 13.4 C 11.28 g/m*3 13.4 C 0 km/h
1868 08-09-2013 22:35:00 13.4 C 11.28 g/m*3 13.4 C 0 km/h
1869 08-09-2013 22:40:00 13.5 C 11.35 g/m*3 13.5 C 0 km/h
1870 08-09-2013 22:45:00 13.5 C 11.35 g/m*3 13.5 C 0 km/h
1871 08-09-2013 22:50:00 13.5 C 11.35 g/m*3 13.5 C 0 km/h
1872 08-09-2013 22:55:00 13.5 C 11.35 g/m*3 13.5 C 0 km/h
1873 08-09-2013 23:00:00 13.5 C 11.35 g/m*3 13.5 C 0 km/h
1874 08-09-2013 23:05:00 13.5 C 11.35 g/m*3 13.5 C 0 km/h
1875 08-09-2013 23:10:00 13.5 C 11.35 g/m*3 13.5 C 0 km/h
Sensor: Nr:Datum:Temp:Abs-Feuchte:Windchill:Wind:
Aussen-T/F 1876 08-09-2013 23:15:00 13.5 C 11.35 g/m*3 13.5 C 0 km/h
1877 08-09-2013 23:20:00 13.5 C 11.35 g/m*3 13.5 C 0 km/h
1878 08-09-2013 23:25:00 13.6 C 11.42 g/m*3 13.6 C 0 km/h
1879 08-09-2013 23:30:00 13.6 C 11.42 g/m*3 13.6 C 0 km/h
1880 08-09-2013 23:35:00 13.6 C 11.42 g/m*3 13.6 C 0 km/h
1881 08-09-2013 23:40:00 13.6 C 11.42 g/m*3 13.6 C 0 km/h
1882 08-09-2013 23:45:00 13.6 C 11.42 g/m*3 13.6 C 0 km/h
1883 08-09-2013 23:50:00 13.6 C 11.42 g/m*3 13.6 C 4.8 km/h
1884 08-09-2013 23:55:00 13.6 C 11.42 g/m*3 13.6 C 3.2 km/h
1885 09-09-2013 00:00:00 13.7 C 11.49 g/m*3 13.7 C 0 km/h
1886 09-09-2013 00:05:00 13.7 C 11.49 g/m*3 13.7 C 0 km/h
1887 09-09-2013 00:10:00 13.7 C 11.49 g/m*3 13.7 C 0 km/h
1888 09-09-2013 00:15:00 13.7 C 11.49 g/m*3 13.7 C 0 km/h
1889 09-09-2013 00:20:00 13.6 C 11.42 g/m*3 13.6 C 0 km/h
1890 09-09-2013 00:25:00 13.6 C 11.42 g/m*3 13.6 C 0 km/h
1891 09-09-2013 00:30:00 13.6 C 11.42 g/m*3 13.6 C 0 km/h
1892 09-09-2013 00:35:00 13.6 C 11.42 g/m*3 13.6 C 0 km/h
1893 09-09-2013 00:40:00 13.6 C 11.42 g/m*3 13.6 C 0 km/h
1894 09-09-2013 00:45:00 13.5 C 11.35 g/m*3 13.5 C 0 km/h
1895 09-09-2013 00:50:00 13.5 C 11.35 g/m*3 13.5 C 0 km/h
1896 09-09-2013 00:55:00 13.4 C 11.28 g/m*3 13.4 C 0 km/h
1897 09-09-2013 01:00:00 13.4 C 11.28 g/m*3 13.4 C 0 km/h
1898 09-09-2013 01:05:00 13.4 C 11.28 g/m*3 13.4 C 0 km/h
1899 09-09-2013 01:10:00 13.4 C 11.16 g/m*3 13.4 C 0 km/h
1900 09-09-2013 01:15:00 13.4 C 11.28 g/m*3 13.4 C 0 km/h
Sensor: Nr:Datum:Temp:Abs-Feuchte:Windchill:Wind:
Aussen-T/F 1901 09-09-2013 01:20:00 13.3 C 11.21 g/m*3 13.3 C 0 km/h
1902 09-09-2013 01:25:00 13.3 C 11.21 g/m*3 13.3 C 0 km/h
1903 09-09-2013 01:30:00 13.3 C 11.21 g/m*3 13.3 C 0 km/h
1904 09-09-2013 01:35:00 13.3 C 11.21 g/m*3 13.3 C 0 km/h
1905 09-09-2013 01:40:00 13.3 C 11.21 g/m*3 13.3 C 0 km/h
1906 09-09-2013 01:45:00 13.2 C 11.14 g/m*3 13.2 C 0 km/h
1907 09-09-2013 01:50:00 13.3 C 11.21 g/m*3 13.3 C 0 km/h
1908 09-09-2013 01:55:00 13.3 C 11.21 g/m*3 13.3 C 0 km/h
1909 09-09-2013 02:00:00 13.2 C 11.14 g/m*3 13.2 C 0 km/h
1910 09-09-2013 02:05:00 13.2 C 11.14 g/m*3 13.2 C 0 km/h
1911 09-09-2013 02:10:00 13.2 C 11.14 g/m*3 13.2 C 0 km/h
1912 09-09-2013 02:15:00 13.2 C 11.14 g/m*3 13.2 C 0 km/h
1913 09-09-2013 02:20:00 13.2 C 11.14 g/m*3 13.2 C 0 km/h
1914 09-09-2013 02:25:00 13.2 C 11.14 g/m*3 13.2 C 0 km/h
1915 09-09-2013 02:30:00 13.2 C 11.14 g/m*3 13.2 C 0 km/h
1916 09-09-2013 02:35:00 13.1 C 11.07 g/m*3 13.1 C 0 km/h
1917 09-09-2013 02:40:00 13.1 C 11.07 g/m*3 13.1 C 0 km/h
1918 09-09-2013 02:45:00 13.1 C 11.07 g/m*3 13.1 C 0 km/h
1919 09-09-2013 02:50:00 13.1 C 11.07 g/m*3 13.1 C 0 km/h
1920 09-09-2013 02:55:00 13.1 C 11.07 g/m*3 13.1 C 0 km/h
1921 09-09-2013 03:00:00 13 C 11 g/m*3 13 C 0 km/h
1922 09-09-2013 03:05:00 13 C 11 g/m*3 13 C 0 km/h
1923 09-09-2013 03:10:00 13 C 11 g/m*3 13 C 0 km/h
1924 09-09-2013 03:15:00 13.1 C 11.07 g/m*3 13.1 C 0 km/h
1925 09-09-2013 03:20:00 13.1 C 11.07 g/m*3 13.1 C 0 km/h
Sensor: Nr:Datum:Temp:Abs-Feuchte:Windchill:Wind:
Aussen-T/F 1926 09-09-2013 03:25:00 13.1 C 11.07 g/m*3 13.1 C 0 km/h
1927 09-09-2013 03:30:00 13.1 C 11.07 g/m*3 13.1 C 0 km/h
1928 09-09-2013 03:35:00 13.2 C 11.14 g/m*3 13.2 C 0 km/h
1929 09-09-2013 03:40:00 13.2 C 11.14 g/m*3 13.2 C 0 km/h
1930 09-09-2013 03:45:00 13.3 C 11.21 g/m*3 13.3 C 0 km/h
1931 09-09-2013 03:50:00 13.3 C 11.21 g/m*3 13.3 C 0 km/h
1932 09-09-2013 03:55:00 13.3 C 11.21 g/m*3 13.3 C 0 km/h
1933 09-09-2013 04:00:00 13.3 C 11.21 g/m*3 13.3 C 0 km/h
1934 09-09-2013 04:05:00 13.3 C 11.21 g/m*3 13.3 C 0 km/h
1935 09-09-2013 04:10:00 13.3 C 11.21 g/m*3 13.3 C 0 km/h
1936 09-09-2013 04:15:00 13.3 C 11.21 g/m*3 13.3 C 1.6 km/h
1937 09-09-2013 04:20:00 13.3 C 11.21 g/m*3 13.3 C 1.6 km/h
1938 09-09-2013 04:25:00 13.3 C 11.21 g/m*3 13.3 C 1.6 km/h
1939 09-09-2013 04:30:00 13.3 C 11.21 g/m*3 13.3 C 0 km/h
1940 09-09-2013 04:35:00 13.3 C 11.21 g/m*3 13.3 C 0 km/h
1941 09-09-2013 04:40:00 13.3 C 11.21 g/m*3 13.3 C 0 km/h
1942 09-09-2013 04:45:00 13.3 C 11.21 g/m*3 13.3 C 0 km/h
1943 09-09-2013 04:50:00 13.2 C 11.14 g/m*3 13.2 C 0 km/h
1944 09-09-2013 04:55:00 13.2 C 11.14 g/m*3 13.2 C 0 km/h
1945 09-09-2013 05:00:00 13.2 C 11.14 g/m*3 13.2 C 0 km/h
1946 09-09-2013 05:05:00 13.2 C 11.14 g/m*3 13.2 C 0 km/h
1947 09-09-2013 05:10:00 13.2 C 11.14 g/m*3 13.2 C 0 km/h
1948 09-09-2013 05:15:00 13.2 C 11.14 g/m*3 13.2 C 0 km/h
1949 09-09-2013 05:20:00 13.2 C 11.14 g/m*3 13.2 C 0 km/h
1950 09-09-2013 05:25:00 13.2 C 11.14 g/m*3 13.2 C 0 km/h
Sensor: Nr:Datum:Temp:Abs-Feuchte:Windchill:Wind:
Aussen-T/F 1951 09-09-2013 05:30:00 13.2 C 11.14 g/m*3 13.2 C 3.2 km/h
1952 09-09-2013 05:35:00 13.1 C 11.07 g/m*3 13.1 C 0 km/h
1953 09-09-2013 05:40:00 13.1 C 11.07 g/m*3 13.1 C 0 km/h
1954 09-09-2013 05:45:00 13 C 10.89 g/m*3 13 C 1.6 km/h
1955 09-09-2013 05:50:00 12.9 C 10.82 g/m*3 12.9 C 6.4 km/h
1956 09-09-2013 05:55:00 12.8 C 10.64 g/m*3 12.8 C 3.2 km/h
1957 09-09-2013 06:00:00 12.8 C 10.64 g/m*3 12.8 C 6.4 km/h
1958 09-09-2013 06:05:00 12.7 C 10.46 g/m*3 12.7 C 6.4 km/h
1959 09-09-2013 06:10:00 12.7 C 10.46 g/m*3 12.7 C 6.4 km/h
1960 09-09-2013 06:15:00 12.8 C 10.64 g/m*3 12.8 C 6.4 km/h
1961 09-09-2013 06:20:00 12.7 C 10.46 g/m*3 12.7 C 9.7 km/h
1962 09-09-2013 06:25:00 12.6 C 10.4 g/m*3 12.6 C 4.8 km/h
1963 09-09-2013 06:30:00 12.6 C 10.4 g/m*3 12.6 C 0 km/h
1964 09-09-2013 06:35:00 12.4 C 10.38 g/m*3 12.4 C 0 km/h
1965 09-09-2013 06:40:00 12.3 C 10.32 g/m*3 12.3 C 4.8 km/h
1966 09-09-2013 06:45:00 12.1 C 10.08 g/m*3 12.1 C 11.3 km/h
1967 09-09-2013 06:50:00 11.9 C 9.96 g/m*3 11.9 C 1.6 km/h
1968 09-09-2013 06:55:00 11.8 C 10 g/m*3 11.8 C 0 km/h
1969 09-09-2013 07:00:00 11.7 C 9.94 g/m*3 11.7 C 0 km/h
1970 09-09-2013 07:05:00 11.6 C 9.87 g/m*3 11.6 C 0 km/h
1971 09-09-2013 07:10:00 11.5 C 9.81 g/m*3 11.5 C 0 km/h
1972 09-09-2013 07:15:00 11.4 C 9.75 g/m*3 11.4 C 0 km/h
1973 09-09-2013 07:20:00 11.4 C 9.85 g/m*3 11.4 C 0 km/h
1974 09-09-2013 07:25:00 11.3 C 9.79 g/m*3 11.3 C 0 km/h
1975 09-09-2013 07:30:00 11.3 C 9.79 g/m*3 11.3 C 1.6 km/h
Sensor: Nr:Datum:Temp:Abs-Feuchte:Windchill:Wind:
Aussen-T/F 1976 09-09-2013 07:35:00 11.3 C 9.79 g/m*3 11.3 C 3.2 km/h
1977 09-09-2013 07:40:00 11.3 C 9.79 g/m*3 11.3 C 3.2 km/h
1978 09-09-2013 07:45:00 11.4 C 9.85 g/m*3 11.4 C 0 km/h
1979 09-09-2013 07:50:00 11.4 C 9.85 g/m*3 11.4 C 1.6 km/h
1980 09-09-2013 07:55:00 11.4 C 9.85 g/m*3 11.4 C 0 km/h
1981 09-09-2013 08:00:00 11.4 C 9.96 g/m*3 11.4 C 1.6 km/h
1982 09-09-2013 08:05:00 11.5 C 9.92 g/m*3 11.5 C 1.6 km/h
1983 09-09-2013 08:10:00 11.5 C 9.92 g/m*3 11.5 C 3.2 km/h
1984 09-09-2013 08:15:00 11.6 C 9.98 g/m*3 11.6 C 0 km/h
1985 09-09-2013 08:20:00 11.6 C 9.98 g/m*3 11.6 C 0 km/h
1986 09-09-2013 08:25:00 11.7 C 10.04 g/m*3 11.7 C 1.6 km/h
1987 09-09-2013 08:30:00 11.7 C 10.04 g/m*3 11.7 C 4.8 km/h
1988 09-09-2013 08:35:00 11.7 C 9.94 g/m*3 11.7 C 0 km/h
1989 09-09-2013 08:40:00 11.8 C 10 g/m*3 11.8 C 1.6 km/h
1990 09-09-2013 08:45:00 11.8 C 10 g/m*3 11.8 C 1.6 km/h
1991 09-09-2013 08:50:00 11.8 C 10 g/m*3 11.8 C 1.6 km/h
1992 09-09-2013 08:55:00 11.8 C 9.89 g/m*3 11.8 C 1.6 km/h
1993 09-09-2013 09:00:00 11.8 C 9.89 g/m*3 11.8 C 1.6 km/h
1994 09-09-2013 09:05:00 11.8 C 9.89 g/m*3 11.8 C 3.2 km/h
1995 09-09-2013 09:10:00 11.8 C 9.89 g/m*3 11.8 C 3.2 km/h
1996 09-09-2013 09:15:00 11.8 C 9.79 g/m*3 11.8 C 1.6 km/h
1997 09-09-2013 09:20:00 11.8 C 9.89 g/m*3 11.8 C 1.6 km/h
1998 09-09-2013 09:25:00 11.8 C 9.89 g/m*3 11.8 C 1.6 km/h
1999 09-09-2013 09:30:00 11.8 C 9.89 g/m*3 11.8 C 1.6 km/h
2000 09-09-2013 09:35:00 11.9 C 10.06 g/m*3 11.9 C 1.6 km/h
Sensor: Nr:Datum:Temp:Abs-Feuchte:Windchill:Wind:
Aussen-T/F 2001 09-09-2013 09:40:00 11.9 C 10.06 g/m*3 11.9 C 1.6 km/h
2002 09-09-2013 09:45:00 12.1 C 10.19 g/m*3 12.1 C 8.1 km/h
2003 09-09-2013 09:50:00 12.2 C 10.14 g/m*3 12.2 C 4.8 km/h
2004 09-09-2013 09:55:00 12.3 C 10.1 g/m*3 12.3 C 6.4 km/h
2005 09-09-2013 10:00:00 12.4 C 10.16 g/m*3 12.4 C 6.4 km/h
2006 09-09-2013 10:05:00 12.6 C 10.18 g/m*3 12.6 C 6.4 km/h
2007 09-09-2013 10:10:00 12.6 C 10.18 g/m*3 12.6 C 8.1 km/h
2008 09-09-2013 10:15:00 12.8 C 10.3 g/m*3 12.8 C 8.1 km/h
2009 09-09-2013 10:20:00 12.8 C 10.19 g/m*3 12.8 C 14.5 km/h
2010 09-09-2013 10:25:00 13.1 C 10.38 g/m*3 13.1 C 8.1 km/h
2011 09-09-2013 10:30:00 13.1 C 10.27 g/m*3 13.1 C 11.3 km/h
2012 09-09-2013 10:35:00 13.1 C 10.27 g/m*3 13.1 C 3.2 km/h
2013 09-09-2013 10:40:00 13.2 C 10.33 g/m*3 13.2 C 9.7 km/h
2014 09-09-2013 10:45:00 13.2 C 10.33 g/m*3 13.2 C 8.1 km/h
2015 09-09-2013 10:50:00 13.3 C 10.4 g/m*3 13.3 C 6.4 km/h
2016 09-09-2013 10:55:00 13.3 C 10.4 g/m*3 13.3 C 8.1 km/h
2017 09-09-2013 11:00:00 13.4 C 10.35 g/m*3 13.4 C 8.1 km/h
2018 09-09-2013 11:05:00 13.6 C 10.47 g/m*3 13.6 C 9.7 km/h
2019 09-09-2013 11:10:00 13.7 C 10.54 g/m*3 13.7 C 12.9 km/h
2020 09-09-2013 11:15:00 13.9 C 10.43 g/m*3 13.9 C 11.3 km/h
2021 09-09-2013 11:20:00 14.2 C 10.62 g/m*3 14.2 C 9.7 km/h
2022 09-09-2013 11:25:00 14.3 C 10.57 g/m*3 14.3 C 8.1 km/h
2023 09-09-2013 11:30:00 14.6 C 10.39 g/m*3 14.6 C 9.7 km/h
2024 09-09-2013 11:35:00 14.7 C 10.45 g/m*3 14.7 C 16.1 km/h
2025 09-09-2013 11:40:00 14.8 C 10.26 g/m*3 14.8 C 8.1 km/h
Sensor: Nr:Datum:Temp:Abs-Feuchte:Windchill:Wind:
Aussen-T/F 2026 09-09-2013 11:45:00 14.9 C 10.32 g/m*3 14.9 C 8.1 km/h
2027 09-09-2013 11:50:00 14.9 C 10.58 g/m*3 14.9 C 11.3 km/h
2028 09-09-2013 11:55:00 15.2 C 10.77 g/m*3 15.2 C 8.1 km/h
2029 09-09-2013 12:00:00 15.4 C 10.64 g/m*3 15.4 C 9.7 km/h
2030 09-09-2013 12:05:00 15.6 C 10.51 g/m*3 15.6 C 17.7 km/h
2031 09-09-2013 12:10:00 15.7 C 10.44 g/m*3 15.7 C 6.4 km/h
2032 09-09-2013 12:15:00 15.9 C 10.83 g/m*3 15.9 C 9.7 km/h
2033 09-09-2013 12:20:00 16.2 C 10.48 g/m*3 16.2 C 12.9 km/h
2034 09-09-2013 12:25:00 16.3 C 10.41 g/m*3 16.3 C 12.9 km/h
2035 09-09-2013 12:30:00 16.4 C 10.75 g/m*3 16.4 C 9.7 km/h
2036 09-09-2013 12:35:00 16.5 C 10.53 g/m*3 16.5 C 11.3 km/h
2037 09-09-2013 12:40:00 16.5 C 10.39 g/m*3 16.5 C 14.5 km/h
2038 09-09-2013 12:45:00 16.5 C 10.39 g/m*3 16.5 C 6.4 km/h
2039 09-09-2013 12:50:00 16.6 C 10.45 g/m*3 16.6 C 11.3 km/h
2040 09-09-2013 12:55:00 16.9 C 10.07 g/m*3 16.9 C 12.9 km/h
2041 09-09-2013 13:00:00 17.2 C 10.25 g/m*3 17.2 C 8.1 km/h
2042 09-09-2013 13:05:00 17.5 C 10.44 g/m*3 17.5 C 19.3 km/h
2043 09-09-2013 13:10:00 17.7 C 10.41 g/m*3 17.7 C 19.3 km/h
2044 09-09-2013 13:15:00 17.3 C 10.02 g/m*3 17.3 C 17.7 km/h
2045 09-09-2013 13:20:00 17.1 C 10.48 g/m*3 17.1 C 6.4 km/h
2046 09-09-2013 13:25:00 17.1 C 10.34 g/m*3 17.1 C 6.4 km/h
2047 09-09-2013 13:30:00 17.3 C 10.02 g/m*3 17.3 C 11.3 km/h
2048 09-09-2013 13:35:00 17.7 C 10.26 g/m*3 17.7 C 9.7 km/h
2049 09-09-2013 13:40:00 18.1 C 9.89 g/m*3 18.1 C 9.7 km/h
2050 09-09-2013 13:45:00 18.2 C 9.95 g/m*3 18.2 C 12.9 km/h
Sensor: Nr:Datum:Temp:Abs-Feuchte:Windchill:Wind:
Aussen-T/F 2051 09-09-2013 13:50:00 18.1 C 9.73 g/m*3 18.1 C 16.1 km/h
2052 09-09-2013 13:55:00 17.9 C 9.62 g/m*3 17.9 C 12.9 km/h
2053 09-09-2013 14:00:00 17.4 C 9.34 g/m*3 17.4 C 12.9 km/h
2054 09-09-2013 14:05:00 16.9 C 9.49 g/m*3 16.9 C 4.8 km/h
2055 09-09-2013 14:10:00 16.7 C 9.81 g/m*3 16.7 C 6.4 km/h
2056 09-09-2013 14:15:00 16.6 C 9.89 g/m*3 16.6 C 1.6 km/h
2057 09-09-2013 14:20:00 16.7 C 10.09 g/m*3 16.7 C 6.4 km/h
2058 09-09-2013 14:25:00 16.8 C 10.29 g/m*3 16.8 C 3.2 km/h
2059 09-09-2013 14:30:00 16.9 C 10.64 g/m*3 16.9 C 1.6 km/h
2060 09-09-2013 14:35:00 16.9 C 10.5 g/m*3 16.9 C 3.2 km/h
2061 09-09-2013 14:40:00 16.7 C 10.94 g/m*3 16.7 C 1.6 km/h
2062 09-09-2013 14:45:00 16.7 C 10.52 g/m*3 16.7 C 3.2 km/h
2063 09-09-2013 14:50:00 17.2 C 9.81 g/m*3 17.2 C 12.9 km/h
2064 09-09-2013 14:55:00 17.8 C 9.26 g/m*3 17.8 C 14.5 km/h
2065 09-09-2013 15:00:00 17.8 C 9.71 g/m*3 17.8 C 8.1 km/h
2066 09-09-2013 15:05:00 17.7 C 9.51 g/m*3 17.7 C 9.7 km/h
2067 09-09-2013 15:10:00 17.4 C 9.19 g/m*3 17.4 C 6.4 km/h
2068 09-09-2013 15:15:00 17.3 C 9.43 g/m*3 17.3 C 9.7 km/h
2069 09-09-2013 15:20:00 17.1 C 9.75 g/m*3 17.1 C 3.2 km/h
2070 09-09-2013 15:25:00 16.9 C 9.64 g/m*3 16.9 C 3.2 km/h
2071 09-09-2013 15:30:00 16.8 C 10.44 g/m*3 16.8 C 0 km/h
2072 09-09-2013 15:35:00 16.4 C 10.61 g/m*3 16.4 C 1.6 km/h
2073 09-09-2013 15:40:00 16.3 C 10.96 g/m*3 16.3 C 1.6 km/h
2074 09-09-2013 15:45:00 16.2 C 10.34 g/m*3 16.2 C 6.4 km/h
2075 09-09-2013 15:50:00 16.5 C 9.83 g/m*3 16.5 C 14.5 km/h
Sensor: Nr:Datum:Temp:Abs-Feuchte:Windchill:Wind:
Aussen-T/F 2076 09-09-2013 15:55:00 17.5 C 9.54 g/m*3 17.5 C 4.8 km/h
2077 09-09-2013 16:00:00 17.9 C 9.77 g/m*3 17.9 C 12.9 km/h
2078 09-09-2013 16:05:00 18.4 C 10.07 g/m*3 18.4 C 6.4 km/h
2079 09-09-2013 16:10:00 18.7 C 9.61 g/m*3 18.7 C 12.9 km/h
2080 09-09-2013 16:15:00 18.7 C 9.61 g/m*3 18.7 C 9.7 km/h
2081 09-09-2013 16:20:00 18.8 C 9.99 g/m*3 18.8 C 9.7 km/h
2082 09-09-2013 16:25:00 18.9 C 9.07 g/m*3 18.9 C 16.1 km/h
2083 09-09-2013 16:30:00 18.8 C 9.02 g/m*3 18.8 C 12.9 km/h
2084 09-09-2013 16:35:00 18.5 C 9.18 g/m*3 18.5 C 16.1 km/h
2085 09-09-2013 16:40:00 18.6 C 9.39 g/m*3 18.6 C 9.7 km/h
2086 09-09-2013 16:45:00 18.5 C 9.49 g/m*3 18.5 C 8.1 km/h
2087 09-09-2013 16:50:00 18.2 C 9.01 g/m*3 18.2 C 11.3 km/h
2088 09-09-2013 16:55:00 17.9 C 9.62 g/m*3 17.9 C 8.1 km/h
2089 09-09-2013 17:00:00 17.6 C 9.3 g/m*3 17.6 C 4.8 km/h
2090 09-09-2013 17:05:00 17.6 C 9.3 g/m*3 17.6 C 8.1 km/h
2091 09-09-2013 17:10:00 17.6 C 9.6 g/m*3 17.6 C 6.4 km/h
2092 09-09-2013 17:15:00 17.4 C 10.67 g/m*3 17.4 C 1.6 km/h
2093 09-09-2013 17:20:00 17.2 C 10.54 g/m*3 17.2 C 9.7 km/h
2094 09-09-2013 17:25:00 16.9 C 11.22 g/m*3 16.9 C 3.2 km/h
2095 09-09-2013 17:30:00 16.7 C 11.51 g/m*3 16.7 C 0 km/h
2096 09-09-2013 17:35:00 16.7 C 10.37 g/m*3 16.7 C 3.2 km/h
2097 09-09-2013 17:40:00 16.8 C 10.29 g/m*3 16.8 C 4.8 km/h
2098 09-09-2013 17:45:00 16.7 C 11.51 g/m*3 16.7 C 0 km/h
2099 09-09-2013 17:50:00 16.4 C 10.61 g/m*3 16.4 C 1.6 km/h
2100 09-09-2013 17:55:00 16.3 C 10.82 g/m*3 16.3 C 1.6 km/h
Sensor: Nr:Datum:Temp:Abs-Feuchte:Windchill:Wind:
Aussen-T/F 2101 09-09-2013 18:00:00 16.1 C 11.24 g/m*3 16.1 C 1.6 km/h
2102 09-09-2013 18:05:00 15.9 C 11.38 g/m*3 15.9 C 0 km/h
2103 09-09-2013 18:10:00 15.7 C 10.84 g/m*3 15.7 C 0 km/h
2104 09-09-2013 18:15:00 15.7 C 11.37 g/m*3 15.7 C 0 km/h
2105 09-09-2013 18:20:00 15.6 C 11.57 g/m*3 15.6 C 0 km/h
2106 09-09-2013 18:25:00 15.5 C 11.5 g/m*3 15.5 C 0 km/h
2107 09-09-2013 18:30:00 15.3 C 11.36 g/m*3 15.3 C 0 km/h
2108 09-09-2013 18:35:00 15.1 C 11.22 g/m*3 15.1 C 0 km/h
2109 09-09-2013 18:40:00 14.9 C 11.09 g/m*3 14.9 C 1.6 km/h
2110 09-09-2013 18:45:00 14.8 C 11.15 g/m*3 14.8 C 0 km/h
2111 09-09-2013 18:50:00 14.7 C 11.21 g/m*3 14.7 C 0 km/h
2112 09-09-2013 18:55:00 14.6 C 10.89 g/m*3 14.6 C 0 km/h
2113 09-09-2013 19:00:00 14.6 C 11.14 g/m*3 14.6 C 0 km/h
2114 09-09-2013 19:05:00 14.4 C 10.63 g/m*3 14.4 C 1.6 km/h
2115 09-09-2013 19:10:00 14.4 C 10.75 g/m*3 14.4 C 1.6 km/h
2116 09-09-2013 19:15:00 14.3 C 10.81 g/m*3 14.3 C 1.6 km/h
2117 09-09-2013 19:20:00 14.5 C 10.2 g/m*3 14.5 C 3.2 km/h
2118 09-09-2013 19:25:00 14.7 C 10.2 g/m*3 14.7 C 1.6 km/h
2119 09-09-2013 19:30:00 14.8 C 10.01 g/m*3 14.8 C 1.6 km/h
2120 09-09-2013 19:35:00 14.8 C 10.51 g/m*3 14.8 C 4.8 km/h
2121 09-09-2013 19:40:00 14.7 C 10.45 g/m*3 14.7 C 0 km/h
2122 09-09-2013 19:45:00 14.6 C 9.89 g/m*3 14.6 C 1.6 km/h
2123 09-09-2013 19:50:00 14.7 C 10.2 g/m*3 14.7 C 1.6 km/h
2124 09-09-2013 19:55:00 14.6 C 10.39 g/m*3 14.6 C 0 km/h
2125 09-09-2013 20:00:00 14.4 C 10.51 g/m*3 14.4 C 0 km/h
Sensor: Nr:Datum:Temp:Abs-Feuchte:Windchill:Wind:
Aussen-T/F 2126 09-09-2013 20:05:00 14.2 C 10.5 g/m*3 14.2 C 0 km/h
2127 09-09-2013 20:10:00 14.1 C 10.56 g/m*3 14.1 C 0 km/h
2128 09-09-2013 20:15:00 13.9 C 10.43 g/m*3 13.9 C 1.6 km/h
2129 09-09-2013 20:20:00 13.9 C 10.55 g/m*3 13.9 C 0 km/h
2130 09-09-2013 20:25:00 13.8 C 10.6 g/m*3 13.8 C 0 km/h
2131 09-09-2013 20:30:00 13.8 C 10.6 g/m*3 13.8 C 0 km/h
2132 09-09-2013 20:35:00 13.7 C 10.54 g/m*3 13.7 C 0 km/h
2133 09-09-2013 20:40:00 13.6 C 10.47 g/m*3 13.6 C 0 km/h
2134 09-09-2013 20:45:00 13.6 C 10.59 g/m*3 13.6 C 0 km/h
2135 09-09-2013 20:50:00 13.6 C 10.59 g/m*3 13.6 C 0 km/h
2136 09-09-2013 20:55:00 13.5 C 10.41 g/m*3 13.5 C 0 km/h
2137 09-09-2013 21:00:00 13.4 C 10.46 g/m*3 13.4 C 0 km/h
2138 09-09-2013 21:05:00 13.4 C 10.35 g/m*3 13.4 C 0 km/h
2139 09-09-2013 21:10:00 13.4 C 10.35 g/m*3 13.4 C 0 km/h
2140 09-09-2013 21:15:00 13.3 C 10.4 g/m*3 13.3 C 0 km/h
2141 09-09-2013 21:20:00 13.2 C 10.22 g/m*3 13.2 C 0 km/h
2142 09-09-2013 21:25:00 13.2 C 10.33 g/m*3 13.2 C 0 km/h
2143 09-09-2013 21:30:00 13.2 C 10.33 g/m*3 13.2 C 0 km/h
2144 09-09-2013 21:35:00 13.1 C 10.27 g/m*3 13.1 C 0 km/h
2145 09-09-2013 21:40:00 13.1 C 10.27 g/m*3 13.1 C 0 km/h
2146 09-09-2013 21:45:00 13.1 C 10.16 g/m*3 13.1 C 0 km/h
2147 09-09-2013 21:50:00 13.1 C 10.27 g/m*3 13.1 C 0 km/h
2148 09-09-2013 21:55:00 13.1 C 10.38 g/m*3 13.1 C 0 km/h
2149 09-09-2013 22:00:00 13.1 C 10.27 g/m*3 13.1 C 0 km/h
2150 09-09-2013 22:05:00 13.1 C 10.27 g/m*3 13.1 C 0 km/h
Sensor: Nr:Datum:Temp:Abs-Feuchte:Windchill:Wind:
Aussen-T/F 2151 09-09-2013 22:10:00 13.1 C 10.5 g/m*3 13.1 C 0 km/h
2152 09-09-2013 22:15:00 13 C 10.43 g/m*3 13 C 3.2 km/h
2153 09-09-2013 22:20:00 12.9 C 10.48 g/m*3 12.9 C 0 km/h
2154 09-09-2013 22:25:00 12.9 C 10.48 g/m*3 12.9 C 0 km/h
2155 09-09-2013 22:30:00 12.8 C 10.53 g/m*3 12.8 C 0 km/h
2156 09-09-2013 22:35:00 12.8 C 10.53 g/m*3 12.8 C 0 km/h
2157 09-09-2013 22:40:00 12.7 C 10.46 g/m*3 12.7 C 0 km/h
2158 09-09-2013 22:45:00 12.7 C 10.46 g/m*3 12.7 C 0 km/h
2159 09-09-2013 22:50:00 12.7 C 10.58 g/m*3 12.7 C 0 km/h
2160 09-09-2013 22:55:00 12.6 C 10.51 g/m*3 12.6 C 0 km/h
2161 09-09-2013 23:00:00 12.6 C 10.51 g/m*3 12.6 C 0 km/h
2162 09-09-2013 23:05:00 12.6 C 10.51 g/m*3 12.6 C 4.8 km/h
2163 09-09-2013 23:10:00 12.6 C 10.51 g/m*3 12.6 C 1.6 km/h
2164 09-09-2013 23:15:00 12.6 C 10.62 g/m*3 12.6 C 3.2 km/h
2165 09-09-2013 23:20:00 12.7 C 10.69 g/m*3 12.7 C 1.6 km/h
2166 09-09-2013 23:25:00 12.7 C 10.69 g/m*3 12.7 C 0 km/h
2167 09-09-2013 23:30:00 12.7 C 10.69 g/m*3 12.7 C 0 km/h
2168 09-09-2013 23:35:00 12.7 C 10.69 g/m*3 12.7 C 0 km/h
2169 09-09-2013 23:40:00 12.6 C 10.62 g/m*3 12.6 C 0 km/h
2170 09-09-2013 23:45:00 12.6 C 10.62 g/m*3 12.6 C 0 km/h
2171 09-09-2013 23:50:00 12.6 C 10.62 g/m*3 12.6 C 0 km/h
2172 09-09-2013 23:55:00 12.6 C 10.62 g/m*3 12.6 C 0 km/h
2173 10-09-2013 00:00:00 12.6 C 10.62 g/m*3 12.6 C 0 km/h
2174 10-09-2013 00:05:00 12.6 C 10.62 g/m*3 12.6 C 0 km/h
2175 10-09-2013 00:10:00 12.6 C 10.62 g/m*3 12.6 C 0 km/h
Sensor: Nr:Datum:Temp:Abs-Feuchte:Windchill:Wind:
Aussen-T/F 2176 10-09-2013 00:15:00 12.6 C 10.62 g/m*3 12.6 C 0 km/h
2177 10-09-2013 00:20:00 12.6 C 10.62 g/m*3 12.6 C 0 km/h
2178 10-09-2013 00:25:00 12.5 C 10.55 g/m*3 12.5 C 0 km/h
2179 10-09-2013 00:30:00 12.6 C 10.62 g/m*3 12.6 C 0 km/h
2180 10-09-2013 00:35:00 12.6 C 10.62 g/m*3 12.6 C 0 km/h
2181 10-09-2013 00:40:00 12.6 C 10.62 g/m*3 12.6 C 3.2 km/h
2182 10-09-2013 00:45:00 12.6 C 10.62 g/m*3 12.6 C 3.2 km/h
2183 10-09-2013 00:50:00 12.6 C 10.62 g/m*3 12.6 C 0 km/h
2184 10-09-2013 00:55:00 12.6 C 10.62 g/m*3 12.6 C 1.6 km/h
2185 10-09-2013 01:00:00 12.6 C 10.73 g/m*3 12.6 C 1.6 km/h
2186 10-09-2013 01:05:00 12.6 C 10.73 g/m*3 12.6 C 1.6 km/h
2187 10-09-2013 01:10:00 12.6 C 10.73 g/m*3 12.6 C 3.2 km/h
2188 10-09-2013 01:15:00 12.7 C 10.69 g/m*3 12.7 C 3.2 km/h
2189 10-09-2013 01:20:00 12.7 C 10.69 g/m*3 12.7 C 0 km/h
2190 10-09-2013 01:25:00 12.7 C 10.8 g/m*3 12.7 C 1.6 km/h
2191 10-09-2013 01:30:00 12.8 C 10.87 g/m*3 12.8 C 0 km/h
2192 10-09-2013 01:35:00 12.8 C 10.87 g/m*3 12.8 C 0 km/h
2193 10-09-2013 02:15:00 13 C 11 g/m*3 13 C 3.2 km/h
2194 10-09-2013 02:20:00 13 C 11 g/m*3 13 C 0 km/h
2195 10-09-2013 02:25:00 13 C 11 g/m*3 13 C 0 km/h
2196 10-09-2013 02:30:00 13 C 11 g/m*3 13 C 0 km/h
2197 10-09-2013 02:35:00 12.9 C 10.93 g/m*3 12.9 C 0 km/h
2198 10-09-2013 02:40:00 12.9 C 10.93 g/m*3 12.9 C 0 km/h
2199 10-09-2013 02:45:00 12.9 C 10.93 g/m*3 12.9 C 0 km/h
2200 10-09-2013 03:25:00 13.2 C 11.14 g/m*3 13.2 C 1.6 km/h
Sensor: Nr:Datum:Temp:Abs-Feuchte:Windchill:Wind:
Aussen-T/F 2201 10-09-2013 03:30:00 13.2 C 11.14 g/m*3 13.2 C 1.6 km/h
2202 10-09-2013 03:35:00 13.3 C 11.21 g/m*3 13.3 C 1.6 km/h
2203 10-09-2013 03:40:00 13.3 C 11.21 g/m*3 13.3 C 1.6 km/h
2204 10-09-2013 03:45:00 13.2 C 11.14 g/m*3 13.2 C 0 km/h
2205 10-09-2013 03:50:00 13.2 C 11.14 g/m*3 13.2 C 1.6 km/h
2206 10-09-2013 03:55:00 13.2 C 11.14 g/m*3 13.2 C 1.6 km/h
2207 10-09-2013 04:00:00 13.2 C 11.02 g/m*3 13.2 C 6.4 km/h
2208 10-09-2013 04:05:00 13.1 C 10.84 g/m*3 13.1 C 9.7 km/h
2209 10-09-2013 04:10:00 12.9 C 10.48 g/m*3 12.9 C 14.5 km/h
2210 10-09-2013 04:15:00 12.8 C 10.19 g/m*3 12.8 C 8.1 km/h
2211 10-09-2013 04:20:00 12.7 C 10.13 g/m*3 12.7 C 4.8 km/h
2212 10-09-2013 04:25:00 12.6 C 10.18 g/m*3 12.6 C 4.8 km/h
2213 10-09-2013 04:30:00 12.4 C 10.16 g/m*3 12.4 C 3.2 km/h
2214 10-09-2013 04:35:00 12.3 C 10.21 g/m*3 12.3 C 0 km/h
2215 10-09-2013 04:40:00 12.1 C 9.97 g/m*3 12.1 C 4.8 km/h
2216 10-09-2013 04:45:00 11.9 C 9.74 g/m*3 11.9 C 3.2 km/h
2217 10-09-2013 04:50:00 11.8 C 9.58 g/m*3 11.8 C 11.3 km/h
2218 10-09-2013 04:55:00 11.8 C 9.58 g/m*3 11.8 C 6.4 km/h
2219 10-09-2013 05:00:00 11.7 C 9.52 g/m*3 11.7 C 8.1 km/h
2220 10-09-2013 05:05:00 11.5 C 9.19 g/m*3 11.5 C 3.2 km/h
2221 10-09-2013 05:10:00 11.4 C 9.14 g/m*3 11.4 C 12.9 km/h
2222 10-09-2013 05:15:00 11.3 C 9.08 g/m*3 11.3 C 11.3 km/h
2223 10-09-2013 05:20:00 11.3 C 9.08 g/m*3 11.3 C 6.4 km/h
2224 10-09-2013 05:25:00 11.3 C 9.28 g/m*3 11.3 C 1.6 km/h
2225 10-09-2013 05:30:00 11.1 C 9.17 g/m*3 11.1 C 1.6 km/h
Sensor: Nr:Datum:Temp:Abs-Feuchte:Windchill:Wind:
Aussen-T/F 2226 10-09-2013 05:35:00 11 C 9.11 g/m*3 11 C 3.2 km/h
2227 10-09-2013 05:40:00 10.9 C 9.15 g/m*3 10.9 C 1.6 km/h
2228 10-09-2013 05:45:00 10.9 C 9.15 g/m*3 10.9 C 1.6 km/h
2229 10-09-2013 05:50:00 10.8 C 9.19 g/m*3 10.8 C 0 km/h
2230 10-09-2013 05:55:00 10.8 C 9.19 g/m*3 10.8 C 0 km/h
2231 10-09-2013 06:00:00 10.7 C 9.13 g/m*3 10.7 C 0 km/h
2232 10-09-2013 06:05:00 10.7 C 9.23 g/m*3 10.7 C 0 km/h
2233 10-09-2013 06:10:00 10.6 C 9.08 g/m*3 10.6 C 1.6 km/h
2234 10-09-2013 06:15:00 10.7 C 9.04 g/m*3 10.7 C 3.2 km/h
2235 10-09-2013 06:20:00 10.7 C 9.04 g/m*3 10.7 C 4.8 km/h
2236 10-09-2013 06:25:00 10.7 C 9.04 g/m*3 10.7 C 0 km/h
2237 10-09-2013 06:30:00 10.6 C 8.98 g/m*3 10.6 C 0 km/h
2238 10-09-2013 06:35:00 10.4 C 8.96 g/m*3 10.4 C 0 km/h
2239 10-09-2013 06:40:00 10.3 C 9 g/m*3 10.3 C 0 km/h
2240 10-09-2013 06:45:00 10.2 C 8.95 g/m*3 10.2 C 0 km/h
2241 10-09-2013 06:50:00 10.2 C 9.04 g/m*3 10.2 C 0 km/h
2242 10-09-2013 06:55:00 10.1 C 8.98 g/m*3 10.1 C 0 km/h
2243 10-09-2013 07:00:00 10 C 8.93 g/m*3 10 C 0 km/h
2244 10-09-2013 07:05:00 9.9 C 8.87 g/m*3 9.9 C 0 km/h
2245 10-09-2013 07:10:00 9.9 C 8.96 g/m*3 9.9 C 0 km/h
2246 10-09-2013 07:15:00 9.8 C 8.91 g/m*3 9.8 C 0 km/h
2247 10-09-2013 07:20:00 9.8 C 8.91 g/m*3 9.8 C 0 km/h
2248 10-09-2013 07:25:00 9.7 C 8.85 g/m*3 9.7 C 0 km/h
2249 10-09-2013 07:30:00 9.6 C 8.79 g/m*3 9.6 C 0 km/h
2250 10-09-2013 07:35:00 9.6 C 8.79 g/m*3 9.6 C 0 km/h
Sensor: Nr:Datum:Temp:Abs-Feuchte:Windchill:Wind:
Aussen-T/F 2251 10-09-2013 07:40:00 9.6 C 8.79 g/m*3 9.6 C 0 km/h
2252 10-09-2013 07:45:00 9.6 C 8.79 g/m*3 9.6 C 0 km/h
2253 10-09-2013 07:50:00 9.5 C 8.74 g/m*3 9.5 C 0 km/h
2254 10-09-2013 07:55:00 9.5 C 8.74 g/m*3 9.5 C 0 km/h
2255 10-09-2013 08:00:00 9.5 C 8.74 g/m*3 9.5 C 0 km/h
2256 10-09-2013 08:05:00 9.4 C 8.68 g/m*3 9.4 C 0 km/h
2257 10-09-2013 08:10:00 9.5 C 8.74 g/m*3 9.5 C 0 km/h
2258 10-09-2013 08:15:00 9.6 C 8.79 g/m*3 9.6 C 0 km/h
2259 10-09-2013 08:20:00 9.7 C 8.85 g/m*3 9.7 C 1.6 km/h
2260 10-09-2013 08:25:00 9.8 C 8.81 g/m*3 9.8 C 4.8 km/h
2261 10-09-2013 08:30:00 10 C 8.83 g/m*3 10 C 4.8 km/h
2262 10-09-2013 08:35:00 10.2 C 8.85 g/m*3 8.66 C 11.3 km/h
2263 10-09-2013 08:40:00 10.3 C 8.81 g/m*3 9.72 C 6.4 km/h
2264 10-09-2013 08:45:00 10.4 C 8.77 g/m*3 8.9 C 11.3 km/h
2265 10-09-2013 08:50:00 10.7 C 8.74 g/m*3 9.04 C 12.9 km/h
2266 10-09-2013 08:55:00 10.8 C 8.8 g/m*3 8.96 C 14.5 km/h
2267 10-09-2013 09:00:00 10.9 C 8.75 g/m*3 10.04 C 8.1 km/h
2268 10-09-2013 09:05:00 11 C 8.81 g/m*3 10.16 C 8.1 km/h
2269 10-09-2013 09:10:00 11.1 C 8.76 g/m*3 11.1 C 12.9 km/h
2270 10-09-2013 09:15:00 11.2 C 8.82 g/m*3 11.2 C 12.9 km/h
2271 10-09-2013 09:20:00 11.3 C 8.87 g/m*3 11.3 C 11.3 km/h
2272 10-09-2013 09:25:00 11.4 C 8.93 g/m*3 11.4 C 16.1 km/h
2273 10-09-2013 09:30:00 11.5 C 8.99 g/m*3 11.5 C 16.1 km/h
2274 10-09-2013 09:35:00 11.7 C 8.99 g/m*3 11.7 C 11.3 km/h
2275 10-09-2013 09:40:00 11.9 C 9.11 g/m*3 11.9 C 11.3 km/h
Sensor: Nr:Datum:Temp:Abs-Feuchte:Windchill:Wind:
Aussen-T/F 2276 10-09-2013 09:45:00 12 C 9.17 g/m*3 12 C 11.3 km/h
2277 10-09-2013 09:50:00 12.1 C 9.22 g/m*3 12.1 C 9.7 km/h
2278 10-09-2013 09:55:00 12.2 C 9.17 g/m*3 12.2 C 9.7 km/h
2279 10-09-2013 10:00:00 12.4 C 9.29 g/m*3 12.4 C 12.9 km/h
2280 10-09-2013 10:05:00 12.4 C 9.18 g/m*3 12.4 C 11.3 km/h
2281 10-09-2013 10:10:00 12.5 C 9.35 g/m*3 12.5 C 11.3 km/h
2282 10-09-2013 10:15:00 12.6 C 9.29 g/m*3 12.6 C 14.5 km/h
2283 10-09-2013 10:20:00 12.6 C 9.4 g/m*3 12.6 C 8.1 km/h
2284 10-09-2013 10:25:00 12.6 C 9.4 g/m*3 12.6 C 4.8 km/h
2285 10-09-2013 10:30:00 12.6 C 9.4 g/m*3 12.6 C 9.7 km/h
2286 10-09-2013 10:35:00 12.6 C 9.4 g/m*3 12.6 C 9.7 km/h
2287 10-09-2013 10:40:00 12.6 C 9.4 g/m*3 12.6 C 11.3 km/h
2288 10-09-2013 10:45:00 12.7 C 9.57 g/m*3 12.7 C 6.4 km/h
2289 10-09-2013 10:50:00 12.7 C 9.46 g/m*3 12.7 C 11.3 km/h
2290 10-09-2013 10:55:00 12.8 C 9.52 g/m*3 12.8 C 9.7 km/h
2291 10-09-2013 11:00:00 12.9 C 9.58 g/m*3 12.9 C 8.1 km/h
2292 10-09-2013 11:05:00 13.1 C 9.59 g/m*3 13.1 C 11.3 km/h
2293 10-09-2013 11:10:00 13.2 C 9.53 g/m*3 13.2 C 11.3 km/h
2294 10-09-2013 11:15:00 13.3 C 9.59 g/m*3 13.3 C 11.3 km/h
2295 10-09-2013 11:20:00 13.4 C 9.65 g/m*3 13.4 C 9.7 km/h
2296 10-09-2013 11:25:00 13.4 C 9.53 g/m*3 13.4 C 6.4 km/h
2297 10-09-2013 11:30:00 13.4 C 9.65 g/m*3 13.4 C 8.1 km/h
2298 10-09-2013 11:35:00 13.4 C 9.65 g/m*3 13.4 C 8.1 km/h
2299 10-09-2013 11:40:00 13.6 C 9.65 g/m*3 13.6 C 14.5 km/h
2300 10-09-2013 11:45:00 13.8 C 9.77 g/m*3 13.8 C 9.7 km/h
Sensor: Nr:Datum:Temp:Abs-Feuchte:Windchill:Wind:
Aussen-T/F 2301 10-09-2013 11:50:00 13.9 C 9.71 g/m*3 13.9 C 6.4 km/h
2302 10-09-2013 11:55:00 14.1 C 9.83 g/m*3 14.1 C 6.4 km/h
2303 10-09-2013 12:00:00 14.3 C 9.95 g/m*3 14.3 C 8.1 km/h
2304 10-09-2013 12:05:00 14.3 C 9.46 g/m*3 14.3 C 12.9 km/h
2305 10-09-2013 12:10:00 14.3 C 9.46 g/m*3 14.3 C 12.9 km/h
2306 10-09-2013 12:15:00 14.2 C 9.28 g/m*3 14.2 C 8.1 km/h
2307 10-09-2013 12:20:00 14.1 C 9.34 g/m*3 14.1 C 11.3 km/h
2308 10-09-2013 12:25:00 14.2 C 9.52 g/m*3 14.2 C 11.3 km/h
2309 10-09-2013 12:30:00 14.2 C 9.52 g/m*3 14.2 C 9.7 km/h
2310 10-09-2013 12:35:00 14.3 C 9.58 g/m*3 14.3 C 11.3 km/h
2311 10-09-2013 12:40:00 14.3 C 9.58 g/m*3 14.3 C 14.5 km/h
2312 10-09-2013 12:45:00 14.3 C 9.34 g/m*3 14.3 C 4.8 km/h
2313 10-09-2013 12:50:00 14.3 C 9.46 g/m*3 14.3 C 9.7 km/h
2314 10-09-2013 12:55:00 14.4 C 9.27 g/m*3 14.4 C 12.9 km/h
2315 10-09-2013 13:00:00 14.5 C 9.33 g/m*3 14.5 C 19.3 km/h
2316 10-09-2013 13:05:00 14.6 C 9.26 g/m*3 14.6 C 11.3 km/h
2317 10-09-2013 13:10:00 14.8 C 8.99 g/m*3 14.8 C 14.5 km/h
2318 10-09-2013 13:15:00 15.3 C 9.27 g/m*3 15.3 C 17.7 km/h
2319 10-09-2013 13:20:00 15.6 C 9.18 g/m*3 15.6 C 16.1 km/h
2320 10-09-2013 13:25:00 15.8 C 9.29 g/m*3 15.8 C 11.3 km/h
2321 10-09-2013 13:30:00 15.9 C 9.07 g/m*3 15.9 C 14.5 km/h
2322 10-09-2013 13:35:00 16.1 C 9.18 g/m*3 16.1 C 9.7 km/h
2323 10-09-2013 13:40:00 16.2 C 9.24 g/m*3 16.2 C 12.9 km/h
2324 10-09-2013 13:45:00 16.3 C 9.3 g/m*3 16.3 C 16.1 km/h
2325 10-09-2013 13:50:00 16.4 C 9.49 g/m*3 16.4 C 14.5 km/h
Sensor: Nr:Datum:Temp:Abs-Feuchte:Windchill:Wind:
Aussen-T/F 2326 10-09-2013 13:55:00 16.2 C 9.38 g/m*3 16.2 C 12.9 km/h
2327 10-09-2013 14:00:00 15.9 C 9.21 g/m*3 15.9 C 12.9 km/h
2328 10-09-2013 14:05:00 15.8 C 9.29 g/m*3 15.8 C 12.9 km/h
2329 10-09-2013 14:10:00 15.6 C 9.18 g/m*3 15.6 C 9.7 km/h
2330 10-09-2013 14:15:00 15.6 C 9.58 g/m*3 15.6 C 11.3 km/h
2331 10-09-2013 14:20:00 15.6 C 9.18 g/m*3 15.6 C 11.3 km/h
2332 10-09-2013 14:25:00 15.7 C 9.23 g/m*3 15.7 C 14.5 km/h
2333 10-09-2013 14:30:00 15.9 C 9.07 g/m*3 15.9 C 20.9 km/h
2334 10-09-2013 14:35:00 16.1 C 9.18 g/m*3 16.1 C 22.5 km/h
2335 10-09-2013 14:40:00 16.2 C 9.24 g/m*3 16.2 C 24.1 km/h
2336 10-09-2013 14:45:00 16.2 C 9.1 g/m*3 16.2 C 20.9 km/h
2337 10-09-2013 14:50:00 16.1 C 9.18 g/m*3 16.1 C 16.1 km/h
2338 10-09-2013 14:55:00 16 C 9.54 g/m*3 16 C 6.4 km/h
2339 10-09-2013 15:00:00 16.1 C 9.32 g/m*3 16.1 C 16.1 km/h
2340 10-09-2013 15:05:00 16.1 C 9.32 g/m*3 16.1 C 14.5 km/h
2341 10-09-2013 15:10:00 15.9 C 9.34 g/m*3 15.9 C 12.9 km/h
2342 10-09-2013 15:15:00 15.9 C 9.21 g/m*3 15.9 C 20.9 km/h
2343 10-09-2013 15:20:00 15.8 C 9.42 g/m*3 15.8 C 16.1 km/h
2344 10-09-2013 15:25:00 15.6 C 9.31 g/m*3 15.6 C 19.3 km/h
2345 10-09-2013 15:30:00 15.5 C 9.39 g/m*3 15.5 C 12.9 km/h
2346 10-09-2013 15:35:00 15.6 C 9.44 g/m*3 15.6 C 16.1 km/h
2347 10-09-2013 15:40:00 15.8 C 9.29 g/m*3 15.8 C 16.1 km/h
2348 10-09-2013 15:45:00 16 C 9.26 g/m*3 16 C 20.9 km/h
2349 10-09-2013 15:50:00 15.9 C 9.48 g/m*3 15.9 C 11.3 km/h
2350 10-09-2013 15:55:00 15.9 C 9.48 g/m*3 15.9 C 4.8 km/h
Sensor: Nr:Datum:Temp:Abs-Feuchte:Windchill:Wind:
Aussen-T/F 2351 10-09-2013 16:00:00 15.8 C 9.42 g/m*3 15.8 C 9.7 km/h
2352 10-09-2013 16:05:00 15.8 C 9.42 g/m*3 15.8 C 20.9 km/h
2353 10-09-2013 16:10:00 15.7 C 9.37 g/m*3 15.7 C 16.1 km/h
2354 10-09-2013 16:15:00 15.8 C 9.29 g/m*3 15.8 C 6.4 km/h
2355 10-09-2013 16:20:00 16 C 9.4 g/m*3 16 C 16.1 km/h
2356 10-09-2013 16:25:00 16.1 C 9.32 g/m*3 16.1 C 19.3 km/h
2357 10-09-2013 16:30:00 16 C 9.54 g/m*3 16 C 17.7 km/h
2358 10-09-2013 16:35:00 15.9 C 9.34 g/m*3 15.9 C 12.9 km/h
2359 10-09-2013 16:40:00 15.9 C 9.48 g/m*3 15.9 C 9.7 km/h
2360 10-09-2013 16:45:00 15.9 C 9.62 g/m*3 15.9 C 8.1 km/h
2361 10-09-2013 16:50:00 15.8 C 9.42 g/m*3 15.8 C 14.5 km/h
2362 10-09-2013 16:55:00 15.7 C 9.37 g/m*3 15.7 C 11.3 km/h
2363 10-09-2013 17:00:00 15.7 C 9.5 g/m*3 15.7 C 14.5 km/h
2364 10-09-2013 17:05:00 15.7 C 9.37 g/m*3 15.7 C 14.5 km/h
2365 10-09-2013 17:10:00 15.8 C 9.69 g/m*3 15.8 C 8.1 km/h
2366 10-09-2013 17:15:00 16 C 9.67 g/m*3 16 C 9.7 km/h
2367 10-09-2013 17:20:00 16 C 9.54 g/m*3 16 C 11.3 km/h
2368 10-09-2013 17:25:00 16 C 9.67 g/m*3 16 C 12.9 km/h
2369 10-09-2013 17:30:00 15.9 C 9.75 g/m*3 15.9 C 14.5 km/h
2370 10-09-2013 17:35:00 16 C 9.81 g/m*3 16 C 6.4 km/h
2371 10-09-2013 17:40:00 15.8 C 9.69 g/m*3 15.8 C 11.3 km/h
2372 10-09-2013 17:45:00 15.6 C 9.71 g/m*3 15.6 C 9.7 km/h
2373 10-09-2013 17:50:00 15.4 C 9.72 g/m*3 15.4 C 11.3 km/h
2374 10-09-2013 17:55:00 15.3 C 9.66 g/m*3 15.3 C 8.1 km/h
2375 10-09-2013 18:00:00 15.3 C 9.66 g/m*3 15.3 C 9.7 km/h
Sensor: Nr:Datum:Temp:Abs-Feuchte:Windchill:Wind:
Aussen-T/F 2376 10-09-2013 18:05:00 15.4 C 9.85 g/m*3 15.4 C 9.7 km/h
2377 10-09-2013 18:10:00 15.4 C 9.72 g/m*3 15.4 C 8.1 km/h
2378 10-09-2013 18:15:00 15.3 C 9.79 g/m*3 15.3 C 9.7 km/h
2379 10-09-2013 18:20:00 15.3 C 9.66 g/m*3 15.3 C 9.7 km/h
2380 10-09-2013 18:25:00 15.4 C 9.72 g/m*3 15.4 C 9.7 km/h
2381 10-09-2013 18:30:00 15.4 C 9.72 g/m*3 15.4 C 9.7 km/h
2382 10-09-2013 18:35:00 15.3 C 9.79 g/m*3 15.3 C 9.7 km/h
2383 10-09-2013 18:40:00 15.2 C 9.73 g/m*3 15.2 C 4.8 km/h
2384 10-09-2013 18:45:00 15.2 C 9.73 g/m*3 15.2 C 9.7 km/h
2385 10-09-2013 18:50:00 15.2 C 9.73 g/m*3 15.2 C 12.9 km/h
2386 10-09-2013 18:55:00 15.2 C 9.86 g/m*3 15.2 C 6.4 km/h
2387 10-09-2013 19:00:00 15.2 C 9.86 g/m*3 15.2 C 8.1 km/h
2388 10-09-2013 19:05:00 15.3 C 9.79 g/m*3 15.3 C 8.1 km/h
2389 10-09-2013 19:10:00 15.2 C 9.61 g/m*3 15.2 C 11.3 km/h
2390 10-09-2013 19:15:00 15 C 9.62 g/m*3 15 C 3.2 km/h
2391 10-09-2013 19:20:00 14.9 C 9.43 g/m*3 14.9 C 9.7 km/h
2392 10-09-2013 19:25:00 14.8 C 9.37 g/m*3 14.8 C 8.1 km/h
2393 10-09-2013 19:30:00 14.8 C 9.37 g/m*3 14.8 C 4.8 km/h
2394 10-09-2013 19:35:00 14.7 C 9.44 g/m*3 14.7 C 6.4 km/h
2395 10-09-2013 19:40:00 14.6 C 9.26 g/m*3 14.6 C 11.3 km/h
2396 10-09-2013 19:45:00 14.6 C 9.26 g/m*3 14.6 C 6.4 km/h
2397 10-09-2013 19:50:00 14.5 C 9.08 g/m*3 14.5 C 8.1 km/h
2398 10-09-2013 19:55:00 14.5 C 9.2 g/m*3 14.5 C 12.9 km/h
2399 10-09-2013 20:00:00 14.4 C 9.15 g/m*3 14.4 C 11.3 km/h
2400 10-09-2013 20:05:00 14.4 C 9.15 g/m*3 14.4 C 8.1 km/h
Sensor: Nr:Datum:Temp:Abs-Feuchte:Windchill:Wind:
Aussen-T/F 2401 10-09-2013 20:10:00 14.3 C 9.21 g/m*3 14.3 C 3.2 km/h
2402 10-09-2013 20:15:00 14.2 C 9.16 g/m*3 14.2 C 4.8 km/h
2403 10-09-2013 20:20:00 14.2 C 9.28 g/m*3 14.2 C 1.6 km/h
2404 10-09-2013 20:25:00 14.1 C 9.34 g/m*3 14.1 C 8.1 km/h
2405 10-09-2013 20:30:00 14.1 C 9.59 g/m*3 14.1 C 6.4 km/h
2406 10-09-2013 20:35:00 13.9 C 9.35 g/m*3 13.9 C 1.6 km/h
2407 10-09-2013 20:40:00 13.8 C 9.41 g/m*3 13.8 C 1.6 km/h
2408 10-09-2013 20:45:00 13.8 C 9.29 g/m*3 13.8 C 3.2 km/h
2409 10-09-2013 20:50:00 13.8 C 9.29 g/m*3 13.8 C 3.2 km/h
2410 10-09-2013 20:55:00 13.8 C 9.29 g/m*3 13.8 C 4.8 km/h
2411 10-09-2013 21:00:00 13.8 C 9.29 g/m*3 13.8 C 9.7 km/h
2412 10-09-2013 21:05:00 13.8 C 9.53 g/m*3 13.8 C 9.7 km/h
2413 10-09-2013 21:10:00 13.7 C 9.47 g/m*3 13.7 C 1.6 km/h
2414 10-09-2013 21:15:00 13.6 C 9.42 g/m*3 13.6 C 1.6 km/h
2415 10-09-2013 21:20:00 13.6 C 9.42 g/m*3 13.6 C 8.1 km/h
2416 10-09-2013 21:25:00 13.5 C 9.36 g/m*3 13.5 C 12.9 km/h
2417 10-09-2013 21:30:00 13.5 C 9.24 g/m*3 13.5 C 12.9 km/h
2418 10-09-2013 21:35:00 13.5 C 9.36 g/m*3 13.5 C 8.1 km/h
2419 10-09-2013 21:40:00 13.5 C 9.24 g/m*3 13.5 C 16.1 km/h
2420 10-09-2013 21:45:00 13.5 C 9.12 g/m*3 13.5 C 9.7 km/h
2421 10-09-2013 21:50:00 13.4 C 9.07 g/m*3 13.4 C 8.1 km/h
2422 10-09-2013 21:55:00 13.4 C 9.07 g/m*3 13.4 C 8.1 km/h
2423 10-09-2013 22:00:00 13.4 C 9.07 g/m*3 13.4 C 8.1 km/h
2424 10-09-2013 22:05:00 13.4 C 9.07 g/m*3 13.4 C 14.5 km/h
2425 10-09-2013 22:10:00 13.3 C 9.01 g/m*3 13.3 C 8.1 km/h
Sensor: Nr:Datum:Temp:Abs-Feuchte:Windchill:Wind:
Aussen-T/F 2426 10-09-2013 22:15:00 13.4 C 9.07 g/m*3 13.4 C 9.7 km/h
2427 10-09-2013 22:20:00 13.4 C 8.95 g/m*3 13.4 C 11.3 km/h
2428 10-09-2013 22:25:00 13.4 C 9.07 g/m*3 13.4 C 6.4 km/h
2429 10-09-2013 22:30:00 13.3 C 9.01 g/m*3 13.3 C 9.7 km/h
2430 10-09-2013 22:35:00 13.3 C 9.01 g/m*3 13.3 C 12.9 km/h
2431 10-09-2013 22:40:00 13.2 C 9.07 g/m*3 13.2 C 4.8 km/h
2432 10-09-2013 22:45:00 13.1 C 9.13 g/m*3 13.1 C 4.8 km/h
2433 10-09-2013 22:50:00 13 C 8.96 g/m*3 13 C 4.8 km/h
2434 10-09-2013 22:55:00 13 C 9.07 g/m*3 13 C 4.8 km/h
2435 10-09-2013 23:00:00 12.9 C 9.02 g/m*3 12.9 C 8.1 km/h
2436 10-09-2013 23:05:00 12.9 C 9.02 g/m*3 12.9 C 1.6 km/h
2437 10-09-2013 23:10:00 12.8 C 9.07 g/m*3 12.8 C 1.6 km/h
2438 10-09-2013 23:15:00 12.8 C 9.07 g/m*3 12.8 C 1.6 km/h
2439 10-09-2013 23:20:00 12.7 C 9.02 g/m*3 12.7 C 4.8 km/h
2440 10-09-2013 23:25:00 12.7 C 9.02 g/m*3 12.7 C 4.8 km/h
2441 10-09-2013 23:30:00 12.7 C 9.02 g/m*3 12.7 C 3.2 km/h
2442 10-09-2013 23:35:00 12.7 C 8.91 g/m*3 12.7 C 6.4 km/h
2443 10-09-2013 23:40:00 12.8 C 8.96 g/m*3 12.8 C 6.4 km/h
2444 10-09-2013 23:45:00 12.8 C 8.85 g/m*3 12.8 C 9.7 km/h
2445 10-09-2013 23:50:00 12.9 C 8.9 g/m*3 12.9 C 17.7 km/h
2446 10-09-2013 23:55:00 12.9 C 8.9 g/m*3 12.9 C 9.7 km/h
2447 11-09-2013 00:00:00 12.9 C 8.9 g/m*3 12.9 C 9.7 km/h
2448 11-09-2013 00:05:00 12.9 C 8.9 g/m*3 12.9 C 11.3 km/h
2449 11-09-2013 00:10:00 12.8 C 8.85 g/m*3 12.8 C 14.5 km/h
2450 11-09-2013 00:15:00 12.8 C 8.85 g/m*3 12.8 C 8.1 km/h
Sensor: Nr:Datum:Temp:Abs-Feuchte:Windchill:Wind:
Aussen-T/F 2451 11-09-2013 00:20:00 12.8 C 8.85 g/m*3 12.8 C 16.1 km/h
2452 11-09-2013 00:25:00 12.8 C 8.85 g/m*3 12.8 C 6.4 km/h
2453 11-09-2013 00:30:00 12.8 C 8.85 g/m*3 12.8 C 11.3 km/h
2454 11-09-2013 00:35:00 12.8 C 8.74 g/m*3 12.8 C 16.1 km/h
2455 11-09-2013 00:40:00 12.7 C 8.68 g/m*3 12.7 C 14.5 km/h
2456 11-09-2013 00:45:00 12.7 C 8.68 g/m*3 12.7 C 12.9 km/h
2457 11-09-2013 00:50:00 12.7 C 8.68 g/m*3 12.7 C 14.5 km/h
2458 11-09-2013 00:55:00 12.7 C 8.79 g/m*3 12.7 C 8.1 km/h
2459 11-09-2013 01:00:00 12.7 C 8.68 g/m*3 12.7 C 12.9 km/h
2460 11-09-2013 01:05:00 12.7 C 8.68 g/m*3 12.7 C 11.3 km/h
2461 11-09-2013 01:10:00 12.7 C 8.68 g/m*3 12.7 C 17.7 km/h
2462 11-09-2013 01:15:00 12.6 C 8.63 g/m*3 12.6 C 8.1 km/h
2463 11-09-2013 01:20:00 12.6 C 8.74 g/m*3 12.6 C 14.5 km/h
2464 11-09-2013 01:25:00 12.6 C 8.74 g/m*3 12.6 C 20.9 km/h
2465 11-09-2013 01:30:00 12.6 C 8.74 g/m*3 12.6 C 9.7 km/h
2466 11-09-2013 01:35:00 12.6 C 8.74 g/m*3 12.6 C 14.5 km/h
2467 11-09-2013 01:40:00 12.6 C 8.74 g/m*3 12.6 C 8.1 km/h
2468 11-09-2013 01:45:00 12.5 C 8.69 g/m*3 12.5 C 8.1 km/h
2469 11-09-2013 01:50:00 12.5 C 8.69 g/m*3 12.5 C 11.3 km/h
2470 11-09-2013 01:55:00 12.5 C 8.69 g/m*3 12.5 C 12.9 km/h
2471 11-09-2013 02:00:00 12.5 C 8.69 g/m*3 12.5 C 8.1 km/h
2472 11-09-2013 02:05:00 12.5 C 8.8 g/m*3 12.5 C 17.7 km/h
2473 11-09-2013 02:10:00 12.4 C 8.85 g/m*3 12.4 C 8.1 km/h
2474 11-09-2013 02:15:00 12.3 C 8.8 g/m*3 12.3 C 8.1 km/h
2475 11-09-2013 02:20:00 12.2 C 8.85 g/m*3 12.2 C 11.3 km/h
Sensor: Nr:Datum:Temp:Abs-Feuchte:Windchill:Wind:
Aussen-T/F 2476 11-09-2013 02:25:00 12.2 C 8.96 g/m*3 12.2 C 11.3 km/h
2477 11-09-2013 02:30:00 12.1 C 8.9 g/m*3 12.1 C 9.7 km/h
2478 11-09-2013 02:35:00 12.1 C 8.9 g/m*3 12.1 C 9.7 km/h
2479 11-09-2013 02:40:00 12.2 C 8.85 g/m*3 12.2 C 20.9 km/h
2480 11-09-2013 02:45:00 12.2 C 8.96 g/m*3 12.2 C 12.9 km/h
2481 11-09-2013 02:50:00 12.2 C 8.96 g/m*3 12.2 C 17.7 km/h
2482 11-09-2013 02:55:00 12.2 C 8.96 g/m*3 12.2 C 8.1 km/h
2483 11-09-2013 03:00:00 12.2 C 8.96 g/m*3 12.2 C 17.7 km/h
2484 11-09-2013 03:05:00 12.2 C 8.96 g/m*3 12.2 C 11.3 km/h
2485 11-09-2013 03:10:00 12.2 C 8.85 g/m*3 12.2 C 12.9 km/h
2486 11-09-2013 03:15:00 12.2 C 8.85 g/m*3 12.2 C 11.3 km/h
2487 11-09-2013 03:20:00 12.3 C 8.9 g/m*3 12.3 C 12.9 km/h
2488 11-09-2013 03:25:00 12.3 C 8.9 g/m*3 12.3 C 19.3 km/h
2489 11-09-2013 03:30:00 12.3 C 8.9 g/m*3 12.3 C 12.9 km/h
2490 11-09-2013 03:35:00 12.3 C 8.9 g/m*3 12.3 C 30.6 km/h
2491 11-09-2013 03:40:00 12.3 C 9.12 g/m*3 12.3 C 12.9 km/h
2492 11-09-2013 03:45:00 12.1 C 9.12 g/m*3 12.1 C 16.1 km/h
2493 11-09-2013 03:50:00 11.9 C 9.11 g/m*3 11.9 C 14.5 km/h
2494 11-09-2013 03:55:00 11.8 C 9.05 g/m*3 11.8 C 17.7 km/h
2495 11-09-2013 04:00:00 11.8 C 9.16 g/m*3 11.8 C 9.7 km/h
2496 11-09-2013 04:05:00 11.8 C 9.16 g/m*3 11.8 C 16.1 km/h
2497 11-09-2013 04:10:00 11.8 C 9.05 g/m*3 11.8 C 11.3 km/h
2498 11-09-2013 04:15:00 11.8 C 9.05 g/m*3 11.8 C 11.3 km/h
2499 11-09-2013 04:20:00 11.8 C 9.05 g/m*3 11.8 C 12.9 km/h
2500 11-09-2013 04:25:00 11.9 C 9.11 g/m*3 11.9 C 16.1 km/h
Sensor: Nr:Datum:Temp:Abs-Feuchte:Windchill:Wind:
Aussen-T/F 2501 11-09-2013 04:30:00 11.9 C 9.11 g/m*3 11.9 C 14.5 km/h
2502 11-09-2013 04:35:00 11.9 C 9.11 g/m*3 11.9 C 11.3 km/h
2503 11-09-2013 04:40:00 11.9 C 9.11 g/m*3 11.9 C 11.3 km/h
2504 11-09-2013 04:45:00 11.9 C 9.11 g/m*3 11.9 C 9.7 km/h
2505 11-09-2013 04:50:00 12.1 C 9.12 g/m*3 12.1 C 9.7 km/h
2506 11-09-2013 04:55:00 12.1 C 9.12 g/m*3 12.1 C 14.5 km/h
2507 11-09-2013 05:00:00 12.1 C 9.12 g/m*3 12.1 C 16.1 km/h
2508 11-09-2013 05:05:00 12.2 C 9.17 g/m*3 12.2 C 12.9 km/h
2509 11-09-2013 05:10:00 12.2 C 9.06 g/m*3 12.2 C 11.3 km/h
2510 11-09-2013 05:15:00 12.2 C 9.06 g/m*3 12.2 C 14.5 km/h
2511 11-09-2013 05:20:00 12.2 C 9.06 g/m*3 12.2 C 19.3 km/h
2512 11-09-2013 05:25:00 12.2 C 9.06 g/m*3 12.2 C 6.4 km/h
2513 11-09-2013 05:30:00 12.3 C 9.01 g/m*3 12.3 C 14.5 km/h
2514 11-09-2013 05:35:00 12.3 C 9.01 g/m*3 12.3 C 14.5 km/h
2515 11-09-2013 05:40:00 12.3 C 9.12 g/m*3 12.3 C 20.9 km/h
2516 11-09-2013 05:45:00 12.2 C 9.17 g/m*3 12.2 C 19.3 km/h
2517 11-09-2013 05:50:00 12.1 C 9.22 g/m*3 12.1 C 17.7 km/h
2518 11-09-2013 05:55:00 11.9 C 9.21 g/m*3 11.9 C 12.9 km/h
2519 11-09-2013 06:00:00 11.8 C 9.37 g/m*3 11.8 C 12.9 km/h
2520 11-09-2013 06:05:00 11.7 C 9.31 g/m*3 11.7 C 17.7 km/h
2521 11-09-2013 06:10:00 11.7 C 9.31 g/m*3 11.7 C 12.9 km/h
2522 11-09-2013 06:15:00 11.6 C 9.35 g/m*3 11.6 C 8.1 km/h
2523 11-09-2013 06:20:00 11.6 C 9.35 g/m*3 11.6 C 11.3 km/h
2524 11-09-2013 06:25:00 11.6 C 9.46 g/m*3 11.6 C 14.5 km/h
2525 11-09-2013 06:30:00 11.5 C 9.4 g/m*3 11.5 C 8.1 km/h
Sensor: Nr:Datum:Temp:Abs-Feuchte:Windchill:Wind:
Aussen-T/F 2526 11-09-2013 06:35:00 11.5 C 9.4 g/m*3 11.5 C 8.1 km/h
2527 11-09-2013 06:40:00 11.4 C 9.34 g/m*3 11.4 C 11.3 km/h
2528 11-09-2013 06:45:00 11.5 C 9.5 g/m*3 11.5 C 11.3 km/h
2529 11-09-2013 06:50:00 11.5 C 9.5 g/m*3 11.5 C 11.3 km/h
2530 11-09-2013 06:55:00 11.5 C 9.5 g/m*3 11.5 C 8.1 km/h
2531 11-09-2013 07:00:00 11.5 C 9.5 g/m*3 11.5 C 11.3 km/h
2532 11-09-2013 07:05:00 11.5 C 9.5 g/m*3 11.5 C 16.1 km/h
2533 11-09-2013 07:10:00 11.5 C 9.5 g/m*3 11.5 C 16.1 km/h
2534 11-09-2013 07:15:00 11.6 C 9.56 g/m*3 11.6 C 6.4 km/h
2535 11-09-2013 07:20:00 11.5 C 9.5 g/m*3 11.5 C 9.7 km/h
2536 11-09-2013 07:25:00 11.5 C 9.5 g/m*3 11.5 C 14.5 km/h
2537 11-09-2013 07:30:00 11.4 C 9.44 g/m*3 11.4 C 11.3 km/h
2538 11-09-2013 07:35:00 11.4 C 9.55 g/m*3 11.4 C 4.8 km/h
2539 11-09-2013 07:40:00 11.4 C 9.55 g/m*3 11.4 C 6.4 km/h
2540 11-09-2013 07:45:00 11.4 C 9.55 g/m*3 11.4 C 3.2 km/h
2541 11-09-2013 07:50:00 11.4 C 9.55 g/m*3 11.4 C 6.4 km/h
2542 11-09-2013 07:55:00 11.4 C 9.55 g/m*3 11.4 C 11.3 km/h
2543 11-09-2013 08:00:00 11.4 C 9.65 g/m*3 11.4 C 9.7 km/h
2544 11-09-2013 08:05:00 11.4 C 9.65 g/m*3 11.4 C 8.1 km/h
2545 11-09-2013 08:10:00 11.4 C 9.65 g/m*3 11.4 C 8.1 km/h
2546 11-09-2013 08:15:00 11.4 C 9.65 g/m*3 11.4 C 1.6 km/h
2547 11-09-2013 08:20:00 11.4 C 9.75 g/m*3 11.4 C 0 km/h
2548 11-09-2013 08:25:00 11.4 C 9.75 g/m*3 11.4 C 4.8 km/h
2549 11-09-2013 08:30:00 11.4 C 9.75 g/m*3 11.4 C 4.8 km/h
2550 11-09-2013 08:35:00 11.4 C 9.75 g/m*3 11.4 C 3.2 km/h
Sensor: Nr:Datum:Temp:Abs-Feuchte:Windchill:Wind:
Aussen-T/F 2551 11-09-2013 08:40:00 11.5 C 9.81 g/m*3 11.5 C 4.8 km/h
2552 11-09-2013 08:45:00 11.6 C 9.87 g/m*3 11.6 C 4.8 km/h
2553 11-09-2013 08:50:00 11.6 C 9.87 g/m*3 11.6 C 4.8 km/h
2554 11-09-2013 08:55:00 11.6 C 9.87 g/m*3 11.6 C 8.1 km/h
2555 11-09-2013 09:00:00 11.7 C 9.94 g/m*3 11.7 C 4.8 km/h
2556 11-09-2013 09:05:00 11.7 C 9.94 g/m*3 11.7 C 3.2 km/h
2557 11-09-2013 09:10:00 11.7 C 9.94 g/m*3 11.7 C 8.1 km/h
2558 11-09-2013 09:15:00 11.7 C 9.94 g/m*3 11.7 C 8.1 km/h
2559 11-09-2013 09:20:00 11.7 C 9.94 g/m*3 11.7 C 8.1 km/h
2560 11-09-2013 09:25:00 11.7 C 9.94 g/m*3 11.7 C 3.2 km/h
2561 11-09-2013 09:30:00 11.7 C 9.94 g/m*3 11.7 C 4.8 km/h
2562 11-09-2013 09:35:00 11.8 C 10 g/m*3 11.8 C 3.2 km/h
2563 11-09-2013 09:40:00 11.8 C 10 g/m*3 11.8 C 4.8 km/h
2564 11-09-2013 09:45:00 11.9 C 10.06 g/m*3 11.9 C 4.8 km/h
2565 11-09-2013 09:50:00 12 C 10.12 g/m*3 12 C 6.4 km/h
2566 11-09-2013 09:55:00 12 C 10.02 g/m*3 12 C 3.2 km/h
2567 11-09-2013 10:00:00 12.1 C 10.08 g/m*3 12.1 C 1.6 km/h
2568 11-09-2013 10:05:00 12.1 C 10.19 g/m*3 12.1 C 1.6 km/h
2569 11-09-2013 10:10:00 12.2 C 10.14 g/m*3 12.2 C 8.1 km/h
2570 11-09-2013 10:15:00 12.3 C 10.21 g/m*3 12.3 C 4.8 km/h
2571 11-09-2013 10:20:00 12.3 C 10.21 g/m*3 12.3 C 3.2 km/h
2572 11-09-2013 10:25:00 12.4 C 10.27 g/m*3 12.4 C 11.3 km/h
2573 11-09-2013 10:30:00 12.6 C 10.29 g/m*3 12.6 C 9.7 km/h
2574 11-09-2013 10:35:00 12.6 C 10.18 g/m*3 12.6 C 9.7 km/h
2575 11-09-2013 10:40:00 12.7 C 10.13 g/m*3 12.7 C 4.8 km/h
Sensor: Nr:Datum:Temp:Abs-Feuchte:Windchill:Wind:
Aussen-T/F 2576 11-09-2013 10:45:00 12.7 C 9.91 g/m*3 12.7 C 8.1 km/h
2577 11-09-2013 10:50:00 12.8 C 9.97 g/m*3 12.8 C 8.1 km/h
2578 11-09-2013 10:55:00 12.9 C 10.14 g/m*3 12.9 C 6.4 km/h
2579 11-09-2013 11:00:00 13.1 C 10.27 g/m*3 13.1 C 6.4 km/h
2580 11-09-2013 11:05:00 13.2 C 10.56 g/m*3 13.2 C 4.8 km/h
2581 11-09-2013 11:10:00 13.3 C 10.51 g/m*3 13.3 C 8.1 km/h
2582 11-09-2013 11:15:00 13.3 C 10.17 g/m*3 13.3 C 9.7 km/h
2583 11-09-2013 11:20:00 13.5 C 10.29 g/m*3 13.5 C 4.8 km/h
2584 11-09-2013 11:25:00 13.6 C 10.36 g/m*3 13.6 C 9.7 km/h
2585 11-09-2013 11:30:00 13.7 C 10.3 g/m*3 13.7 C 16.1 km/h
2586 11-09-2013 11:35:00 13.8 C 10.37 g/m*3 13.8 C 4.8 km/h
2587 11-09-2013 11:40:00 14 C 10.49 g/m*3 14 C 8.1 km/h
2588 11-09-2013 11:45:00 14.2 C 10.5 g/m*3 14.2 C 9.7 km/h
2589 11-09-2013 11:50:00 14.3 C 10.44 g/m*3 14.3 C 9.7 km/h
2590 11-09-2013 11:55:00 14.3 C 10.57 g/m*3 14.3 C 8.1 km/h
2591 11-09-2013 12:00:00 14.5 C 10.57 g/m*3 14.5 C 9.7 km/h
2592 11-09-2013 12:05:00 14.6 C 10.51 g/m*3 14.6 C 6.4 km/h
2593 11-09-2013 12:10:00 14.7 C 10.2 g/m*3 14.7 C 8.1 km/h
2594 11-09-2013 12:15:00 14.8 C 10.26 g/m*3 14.8 C 9.7 km/h
2595 11-09-2013 12:20:00 14.8 C 10.13 g/m*3 14.8 C 9.7 km/h
2596 11-09-2013 12:25:00 14.8 C 10.13 g/m*3 14.8 C 9.7 km/h
2597 11-09-2013 12:30:00 14.8 C 10.13 g/m*3 14.8 C 8.1 km/h
2598 11-09-2013 12:35:00 15 C 10.51 g/m*3 15 C 9.7 km/h
2599 11-09-2013 12:40:00 15 C 10.26 g/m*3 15 C 11.3 km/h
2600 11-09-2013 12:45:00 15.1 C 10.19 g/m*3 15.1 C 8.1 km/h
Sensor: Nr:Datum:Temp:Abs-Feuchte:Windchill:Wind:
Aussen-T/F 2601 11-09-2013 12:50:00 15.1 C 10.32 g/m*3 15.1 C 3.2 km/h
2602 11-09-2013 12:55:00 15.2 C 10.25 g/m*3 15.2 C 11.3 km/h
2603 11-09-2013 13:00:00 15.3 C 9.92 g/m*3 15.3 C 6.4 km/h
2604 11-09-2013 13:05:00 15.4 C 10.25 g/m*3 15.4 C 6.4 km/h
2605 11-09-2013 13:10:00 15.7 C 10.17 g/m*3 15.7 C 14.5 km/h
2606 11-09-2013 13:15:00 15.8 C 10.1 g/m*3 15.8 C 8.1 km/h
2607 11-09-2013 13:20:00 15.9 C 10.02 g/m*3 15.9 C 11.3 km/h
2608 11-09-2013 13:25:00 15.2 C 11.42 g/m*3 15.2 C 0 km/h
2609 11-09-2013 13:30:00 14.9 C 11.34 g/m*3 14.9 C 0 km/h
2610 11-09-2013 13:35:00 14.9 C 11.47 g/m*3 14.9 C 4.8 km/h
2611 11-09-2013 13:40:00 14.9 C 10.96 g/m*3 14.9 C 1.6 km/h
2612 11-09-2013 13:45:00 15.1 C 11.22 g/m*3 15.1 C 3.2 km/h
2613 11-09-2013 14:25:00 15.3 C 11.62 g/m*3 15.3 C 0 km/h
2614 11-09-2013 14:30:00 15.4 C 11.56 g/m*3 15.4 C 8.1 km/h
2615 11-09-2013 14:35:00 15.7 C 11.11 g/m*3 15.7 C 8.1 km/h
2616 11-09-2013 14:40:00 16.1 C 11.24 g/m*3 16.1 C 3.2 km/h
2617 11-09-2013 14:45:00 16.6 C 11.58 g/m*3 16.6 C 4.8 km/h
2618 11-09-2013 14:50:00 16.9 C 11.22 g/m*3 16.9 C 6.4 km/h
2619 11-09-2013 14:55:00 17.2 C 10.98 g/m*3 17.2 C 8.1 km/h
2620 11-09-2013 15:00:00 17.4 C 10.67 g/m*3 17.4 C 16.1 km/h
2621 11-09-2013 15:05:00 17.4 C 11.26 g/m*3 17.4 C 3.2 km/h
2622 11-09-2013 15:10:00 17.4 C 11.26 g/m*3 17.4 C 3.2 km/h
2623 11-09-2013 15:15:00 17.3 C 10.75 g/m*3 17.3 C 14.5 km/h
2624 11-09-2013 15:20:00 17.3 C 10.61 g/m*3 17.3 C 8.1 km/h
2625 11-09-2013 15:25:00 17.4 C 10.97 g/m*3 17.4 C 9.7 km/h
Sensor: Nr:Datum:Temp:Abs-Feuchte:Windchill:Wind:
Aussen-T/F 2626 11-09-2013 15:30:00 17.3 C 10.61 g/m*3 17.3 C 9.7 km/h
2627 11-09-2013 15:35:00 17.3 C 10.61 g/m*3 17.3 C 8.1 km/h
2628 11-09-2013 15:40:00 17.4 C 10.08 g/m*3 17.4 C 11.3 km/h
2629 11-09-2013 15:45:00 17.7 C 10.26 g/m*3 17.7 C 8.1 km/h
2630 11-09-2013 15:50:00 17.6 C 11.25 g/m*3 17.6 C 6.4 km/h
2631 11-09-2013 15:55:00 17.5 C 10.73 g/m*3 17.5 C 8.1 km/h
2632 11-09-2013 16:00:00 17.6 C 11.1 g/m*3 17.6 C 8.1 km/h
2633 11-09-2013 16:05:00 17.4 C 10.23 g/m*3 17.4 C 8.1 km/h
2634 11-09-2013 16:10:00 17.4 C 11.12 g/m*3 17.4 C 3.2 km/h
2635 11-09-2013 16:15:00 17.1 C 11.65 g/m*3 17.1 C 0 km/h
2636 11-09-2013 16:55:00 16.4 C 11.03 g/m*3 16.4 C 6.4 km/h
2637 11-09-2013 17:00:00 16.8 C 14.3 g/m*3 16.8 C 11.3 km/h
2638 11-09-2013 17:05:00 16.8 C 14.3 g/m*3 16.8 C 8.1 km/h
2639 11-09-2013 17:10:00 16.8 C 14.3 g/m*3 16.8 C 4.8 km/h
2640 11-09-2013 17:15:00 17.3 C 11.05 g/m*3 17.3 C 4.8 km/h
2641 11-09-2013 17:20:00 17.1 C 10.77 g/m*3 17.1 C 12.9 km/h
2642 11-09-2013 17:25:00 16.7 C 10.66 g/m*3 16.7 C 19.3 km/h
2643 11-09-2013 17:30:00 16.2 C 10.62 g/m*3 16.2 C 8.1 km/h
2644 11-09-2013 17:35:00 15.6 C 10.51 g/m*3 15.6 C 12.9 km/h
2645 11-09-2013 17:40:00 15.2 C 10.25 g/m*3 15.2 C 12.9 km/h
2646 11-09-2013 17:45:00 14.8 C 10.39 g/m*3 14.8 C 8.1 km/h
2647 11-09-2013 17:50:00 14.4 C 10.51 g/m*3 14.4 C 8.1 km/h
2648 11-09-2013 17:55:00 14.1 C 10.56 g/m*3 14.1 C 4.8 km/h
2649 11-09-2013 18:00:00 13.7 C 10.42 g/m*3 13.7 C 3.2 km/h
2650 11-09-2013 18:05:00 13.3 C 10.51 g/m*3 13.3 C 11.3 km/h
Sensor: Nr:Datum:Temp:Abs-Feuchte:Windchill:Wind:
Aussen-T/F 2651 11-09-2013 18:10:00 13.2 C 10.56 g/m*3 13.2 C 11.3 km/h
2652 11-09-2013 18:15:00 13.1 C 10.5 g/m*3 13.1 C 1.6 km/h
2653 11-09-2013 18:20:00 13 C 10.55 g/m*3 13 C 0 km/h
2654 11-09-2013 18:25:00 12.9 C 10.48 g/m*3 12.9 C 0 km/h
2655 11-09-2013 18:30:00 12.9 C 10.59 g/m*3 12.9 C 0 km/h
2656 11-09-2013 18:35:00 12.9 C 10.59 g/m*3 12.9 C 1.6 km/h
2657 11-09-2013 18:40:00 12.8 C 10.53 g/m*3 12.8 C 1.6 km/h
2658 11-09-2013 18:45:00 12.8 C 10.64 g/m*3 12.8 C 0 km/h
2659 11-09-2013 18:50:00 12.8 C 10.64 g/m*3 12.8 C 1.6 km/h
2660 11-09-2013 18:55:00 12.7 C 10.58 g/m*3 12.7 C 1.6 km/h
2661 11-09-2013 19:00:00 12.7 C 10.58 g/m*3 12.7 C 4.8 km/h
2662 11-09-2013 19:05:00 12.6 C 10.51 g/m*3 12.6 C 0 km/h
2663 11-09-2013 19:10:00 12.6 C 10.51 g/m*3 12.6 C 1.6 km/h
2664 11-09-2013 19:15:00 12.6 C 10.62 g/m*3 12.6 C 0 km/h
2665 11-09-2013 19:20:00 12.6 C 10.62 g/m*3 12.6 C 0 km/h
2666 11-09-2013 19:25:00 12.5 C 10.55 g/m*3 12.5 C 0 km/h
2667 11-09-2013 19:30:00 12.5 C 10.55 g/m*3 12.5 C 1.6 km/h
2668 11-09-2013 19:35:00 12.5 C 10.55 g/m*3 12.5 C 0 km/h
2669 11-09-2013 19:40:00 12.5 C 10.55 g/m*3 12.5 C 1.6 km/h
2670 11-09-2013 19:45:00 12.4 C 10.49 g/m*3 12.4 C 4.8 km/h
2671 11-09-2013 19:50:00 12.3 C 10.32 g/m*3 12.3 C 1.6 km/h
2672 11-09-2013 19:55:00 12.3 C 10.32 g/m*3 12.3 C 3.2 km/h
2673 11-09-2013 20:00:00 12.3 C 10.32 g/m*3 12.3 C 8.1 km/h
2674 11-09-2013 20:05:00 12.2 C 10.25 g/m*3 12.2 C 4.8 km/h
2675 11-09-2013 20:10:00 12.2 C 10.25 g/m*3 12.2 C 3.2 km/h
Sensor: Nr:Datum:Temp:Abs-Feuchte:Windchill:Wind:
Aussen-T/F 2676 11-09-2013 20:15:00 12.2 C 10.25 g/m*3 12.2 C 1.6 km/h
2677 11-09-2013 20:20:00 12.1 C 10.19 g/m*3 12.1 C 3.2 km/h
2678 11-09-2013 20:25:00 12.1 C 10.19 g/m*3 12.1 C 1.6 km/h
2679 11-09-2013 20:30:00 12.1 C 10.19 g/m*3 12.1 C 1.6 km/h
2680 11-09-2013 20:35:00 12.1 C 10.19 g/m*3 12.1 C 1.6 km/h
2681 11-09-2013 20:40:00 12 C 10.12 g/m*3 12 C 0 km/h
2682 11-09-2013 20:45:00 11.9 C 10.06 g/m*3 11.9 C 0 km/h
2683 11-09-2013 20:50:00 11.9 C 10.17 g/m*3 11.9 C 1.6 km/h
2684 11-09-2013 20:55:00 11.8 C 10 g/m*3 11.8 C 0 km/h
2685 11-09-2013 21:00:00 11.8 C 10.1 g/m*3 11.8 C 0 km/h
2686 11-09-2013 21:05:00 11.8 C 10.1 g/m*3 11.8 C 1.6 km/h
2687 11-09-2013 21:10:00 11.8 C 10.1 g/m*3 11.8 C 0 km/h
2688 11-09-2013 21:15:00 11.8 C 10.1 g/m*3 11.8 C 0 km/h
2689 11-09-2013 21:20:00 11.8 C 10.1 g/m*3 11.8 C 0 km/h
2690 11-09-2013 21:25:00 11.8 C 10.1 g/m*3 11.8 C 0 km/h
2691 11-09-2013 21:30:00 11.8 C 10.1 g/m*3 11.8 C 0 km/h
2692 11-09-2013 21:35:00 11.8 C 10.1 g/m*3 11.8 C 0 km/h
2693 11-09-2013 21:40:00 11.8 C 10.1 g/m*3 11.8 C 1.6 km/h
2694 11-09-2013 21:45:00 11.8 C 10.1 g/m*3 11.8 C 0 km/h
2695 11-09-2013 21:50:00 11.8 C 10.1 g/m*3 11.8 C 0 km/h
2696 11-09-2013 21:55:00 11.8 C 10.1 g/m*3 11.8 C 0 km/h
2697 11-09-2013 22:00:00 11.8 C 10.1 g/m*3 11.8 C 1.6 km/h
2698 11-09-2013 22:05:00 11.8 C 10.21 g/m*3 11.8 C 1.6 km/h
2699 11-09-2013 22:10:00 11.8 C 10.21 g/m*3 11.8 C 3.2 km/h
2700 11-09-2013 22:15:00 11.8 C 10.1 g/m*3 11.8 C 0 km/h
Sensor: Nr:Datum:Temp:Abs-Feuchte:Windchill:Wind:
Aussen-T/F 2701 11-09-2013 22:20:00 11.8 C 10.21 g/m*3 11.8 C 1.6 km/h
2702 11-09-2013 22:25:00 11.8 C 10.21 g/m*3 11.8 C 0 km/h
2703 11-09-2013 22:30:00 11.8 C 10.21 g/m*3 11.8 C 0 km/h
2704 11-09-2013 22:35:00 11.8 C 10.21 g/m*3 11.8 C 0 km/h
2705 11-09-2013 22:40:00 11.8 C 10.21 g/m*3 11.8 C 0 km/h
2706 11-09-2013 22:45:00 11.8 C 10.21 g/m*3 11.8 C 0 km/h
2707 11-09-2013 22:50:00 11.8 C 10.21 g/m*3 11.8 C 0 km/h
2708 11-09-2013 22:55:00 11.8 C 10.21 g/m*3 11.8 C 0 km/h
2709 11-09-2013 23:00:00 11.8 C 10.21 g/m*3 11.8 C 0 km/h
2710 11-09-2013 23:05:00 11.8 C 10.21 g/m*3 11.8 C 0 km/h
2711 11-09-2013 23:10:00 11.8 C 10.21 g/m*3 11.8 C 3.2 km/h
2712 11-09-2013 23:15:00 11.8 C 10.21 g/m*3 11.8 C 1.6 km/h
2713 11-09-2013 23:20:00 11.8 C 10.21 g/m*3 11.8 C 0 km/h
2714 11-09-2013 23:25:00 11.8 C 10.21 g/m*3 11.8 C 3.2 km/h
2715 11-09-2013 23:30:00 11.8 C 10.21 g/m*3 11.8 C 3.2 km/h
2716 11-09-2013 23:35:00 11.9 C 10.27 g/m*3 11.9 C 3.2 km/h
2717 11-09-2013 23:40:00 12 C 10.34 g/m*3 12 C 4.8 km/h
2718 11-09-2013 23:45:00 12.1 C 10.4 g/m*3 12.1 C 1.6 km/h
2719 11-09-2013 23:50:00 12.1 C 10.4 g/m*3 12.1 C 1.6 km/h
2720 11-09-2013 23:55:00 12.1 C 10.29 g/m*3 12.1 C 1.6 km/h
2721 12-09-2013 00:00:00 12.2 C 10.36 g/m*3 12.2 C 1.6 km/h
2722 12-09-2013 00:05:00 12.2 C 10.36 g/m*3 12.2 C 1.6 km/h
2723 12-09-2013 00:10:00 12.2 C 10.36 g/m*3 12.2 C 1.6 km/h
2724 12-09-2013 00:15:00 12.2 C 10.36 g/m*3 12.2 C 0 km/h
2725 12-09-2013 00:20:00 12.2 C 10.36 g/m*3 12.2 C 0 km/h
Sensor: Nr:Datum:Temp:Abs-Feuchte:Windchill:Wind:
Aussen-T/F 2726 12-09-2013 00:25:00 12.2 C 10.36 g/m*3 12.2 C 4.8 km/h
2727 12-09-2013 00:30:00 12.2 C 10.36 g/m*3 12.2 C 1.6 km/h
2728 12-09-2013 00:35:00 12.3 C 10.42 g/m*3 12.3 C 3.2 km/h
2729 12-09-2013 00:40:00 12.3 C 10.42 g/m*3 12.3 C 3.2 km/h
2730 12-09-2013 00:45:00 12.4 C 10.49 g/m*3 12.4 C 1.6 km/h
2731 12-09-2013 00:50:00 12.4 C 10.49 g/m*3 12.4 C 3.2 km/h
2732 12-09-2013 00:55:00 12.4 C 10.49 g/m*3 12.4 C 4.8 km/h
2733 12-09-2013 01:00:00 12.4 C 10.38 g/m*3 12.4 C 1.6 km/h
2734 12-09-2013 01:05:00 12.4 C 10.38 g/m*3 12.4 C 1.6 km/h
2735 12-09-2013 01:10:00 12.4 C 10.38 g/m*3 12.4 C 1.6 km/h
2736 12-09-2013 01:15:00 12.4 C 10.38 g/m*3 12.4 C 1.6 km/h
2737 12-09-2013 01:20:00 12.4 C 10.38 g/m*3 12.4 C 0 km/h
2738 12-09-2013 01:25:00 12.4 C 10.38 g/m*3 12.4 C 1.6 km/h
2739 12-09-2013 01:30:00 12.4 C 10.38 g/m*3 12.4 C 0 km/h
2740 12-09-2013 01:35:00 12.4 C 10.38 g/m*3 12.4 C 1.6 km/h
2741 12-09-2013 01:40:00 12.4 C 10.38 g/m*3 12.4 C 3.2 km/h
2742 12-09-2013 01:45:00 12.4 C 10.38 g/m*3 12.4 C 1.6 km/h
2743 12-09-2013 01:50:00 12.4 C 10.38 g/m*3 12.4 C 1.6 km/h
2744 12-09-2013 01:55:00 12.4 C 10.38 g/m*3 12.4 C 0 km/h
2745 12-09-2013 02:00:00 12.4 C 10.38 g/m*3 12.4 C 0 km/h
2746 12-09-2013 02:05:00 12.4 C 10.38 g/m*3 12.4 C 0 km/h
2747 12-09-2013 02:10:00 12.4 C 10.38 g/m*3 12.4 C 1.6 km/h
2748 12-09-2013 02:15:00 12.4 C 10.38 g/m*3 12.4 C 3.2 km/h
2749 12-09-2013 02:20:00 12.4 C 10.49 g/m*3 12.4 C 1.6 km/h
2750 12-09-2013 02:25:00 12.4 C 10.38 g/m*3 12.4 C 4.8 km/h
Sensor: Nr:Datum:Temp:Abs-Feuchte:Windchill:Wind:
Aussen-T/F 2751 12-09-2013 02:30:00 12.4 C 10.38 g/m*3 12.4 C 3.2 km/h
2752 12-09-2013 02:35:00 12.4 C 10.38 g/m*3 12.4 C 1.6 km/h
2753 12-09-2013 02:40:00 12.4 C 10.38 g/m*3 12.4 C 3.2 km/h
2754 12-09-2013 02:45:00 12.4 C 10.38 g/m*3 12.4 C 4.8 km/h
2755 12-09-2013 02:50:00 12.3 C 10.32 g/m*3 12.3 C 1.6 km/h
2756 12-09-2013 02:55:00 12.4 C 10.38 g/m*3 12.4 C 1.6 km/h
2757 12-09-2013 03:00:00 12.4 C 10.38 g/m*3 12.4 C 1.6 km/h
2758 12-09-2013 03:05:00 12.4 C 10.38 g/m*3 12.4 C 3.2 km/h
2759 12-09-2013 03:10:00 12.4 C 10.38 g/m*3 12.4 C 0 km/h
2760 12-09-2013 03:15:00 12.4 C 10.38 g/m*3 12.4 C 3.2 km/h
2761 12-09-2013 03:20:00 12.3 C 10.32 g/m*3 12.3 C 1.6 km/h
2762 12-09-2013 03:25:00 12.3 C 10.32 g/m*3 12.3 C 1.6 km/h
2763 12-09-2013 03:30:00 12.3 C 10.32 g/m*3 12.3 C 0 km/h
2764 12-09-2013 03:35:00 12.2 C 10.25 g/m*3 12.2 C 1.6 km/h
2765 12-09-2013 03:40:00 12.3 C 10.42 g/m*3 12.3 C 1.6 km/h
2766 12-09-2013 03:45:00 12.3 C 10.42 g/m*3 12.3 C 0 km/h
2767 12-09-2013 03:50:00 12.3 C 10.42 g/m*3 12.3 C 0 km/h
2768 12-09-2013 03:55:00 12.3 C 10.42 g/m*3 12.3 C 0 km/h
2769 12-09-2013 04:00:00 12.3 C 10.42 g/m*3 12.3 C 0 km/h
2770 12-09-2013 04:05:00 12.3 C 10.42 g/m*3 12.3 C 1.6 km/h
2771 12-09-2013 04:10:00 12.3 C 10.42 g/m*3 12.3 C 1.6 km/h
2772 12-09-2013 04:15:00 12.3 C 10.42 g/m*3 12.3 C 1.6 km/h
2773 12-09-2013 04:20:00 12.3 C 10.42 g/m*3 12.3 C 1.6 km/h
2774 12-09-2013 04:25:00 12.3 C 10.42 g/m*3 12.3 C 1.6 km/h
2775 12-09-2013 04:30:00 12.3 C 10.42 g/m*3 12.3 C 0 km/h
Sensor: Nr:Datum:Temp:Abs-Feuchte:Windchill:Wind:
Aussen-T/F 2776 12-09-2013 04:35:00 12.3 C 10.42 g/m*3 12.3 C 1.6 km/h
2777 12-09-2013 04:40:00 12.3 C 10.42 g/m*3 12.3 C 1.6 km/h
2778 12-09-2013 04:45:00 12.2 C 10.36 g/m*3 12.2 C 0 km/h
2779 12-09-2013 04:50:00 12.2 C 10.36 g/m*3 12.2 C 1.6 km/h
2780 12-09-2013 04:55:00 12.2 C 10.36 g/m*3 12.2 C 0 km/h
2781 12-09-2013 05:00:00 12.3 C 10.42 g/m*3 12.3 C 0 km/h
2782 12-09-2013 05:05:00 12.3 C 10.42 g/m*3 12.3 C 3.2 km/h
2783 12-09-2013 05:10:00 12.3 C 10.42 g/m*3 12.3 C 1.6 km/h
2784 12-09-2013 05:15:00 12.3 C 10.42 g/m*3 12.3 C 1.6 km/h
2785 12-09-2013 05:20:00 12.3 C 10.42 g/m*3 12.3 C 0 km/h
2786 12-09-2013 05:25:00 12.4 C 10.38 g/m*3 12.4 C 1.6 km/h
2787 12-09-2013 05:30:00 12.4 C 10.38 g/m*3 12.4 C 0 km/h
2788 12-09-2013 05:35:00 12.4 C 10.38 g/m*3 12.4 C 1.6 km/h
2789 12-09-2013 05:40:00 12.4 C 10.38 g/m*3 12.4 C 0 km/h
2790 12-09-2013 05:45:00 12.4 C 10.38 g/m*3 12.4 C 0 km/h
2791 12-09-2013 05:50:00 12.3 C 10.32 g/m*3 12.3 C 0 km/h
2792 12-09-2013 05:55:00 12.3 C 10.42 g/m*3 12.3 C 0 km/h
2793 12-09-2013 06:00:00 12.3 C 10.42 g/m*3 12.3 C 0 km/h
2794 12-09-2013 06:05:00 12.3 C 10.42 g/m*3 12.3 C 0 km/h
2795 12-09-2013 06:10:00 12.3 C 10.42 g/m*3 12.3 C 0 km/h
2796 12-09-2013 06:15:00 12.3 C 10.42 g/m*3 12.3 C 0 km/h
2797 12-09-2013 06:20:00 12.3 C 10.42 g/m*3 12.3 C 0 km/h
2798 12-09-2013 06:25:00 12.3 C 10.42 g/m*3 12.3 C 0 km/h
2799 12-09-2013 06:30:00 12.3 C 10.42 g/m*3 12.3 C 0 km/h
2800 12-09-2013 06:35:00 12.2 C 10.36 g/m*3 12.2 C 0 km/h
Sensor: Nr:Datum:Temp:Abs-Feuchte:Windchill:Wind:
Aussen-T/F 2801 12-09-2013 06:40:00 12.2 C 10.36 g/m*3 12.2 C 0 km/h
2802 12-09-2013 06:45:00 12.2 C 10.36 g/m*3 12.2 C 0 km/h
2803 12-09-2013 06:50:00 12.2 C 10.36 g/m*3 12.2 C 0 km/h
2804 12-09-2013 06:55:00 12.1 C 10.4 g/m*3 12.1 C 0 km/h
2805 12-09-2013 07:00:00 12.1 C 10.4 g/m*3 12.1 C 0 km/h
2806 12-09-2013 07:05:00 12.1 C 10.4 g/m*3 12.1 C 0 km/h
2807 12-09-2013 07:10:00 12.1 C 10.4 g/m*3 12.1 C 0 km/h
2808 12-09-2013 07:15:00 12.1 C 10.4 g/m*3 12.1 C 0 km/h
2809 12-09-2013 07:20:00 12.1 C 10.4 g/m*3 12.1 C 0 km/h
2810 12-09-2013 07:25:00 12 C 10.34 g/m*3 12 C 0 km/h
2811 12-09-2013 07:30:00 12 C 10.34 g/m*3 12 C 0 km/h
2812 12-09-2013 07:35:00 12 C 10.34 g/m*3 12 C 0 km/h
2813 12-09-2013 07:40:00 12 C 10.34 g/m*3 12 C 0 km/h
2814 12-09-2013 07:45:00 12 C 10.34 g/m*3 12 C 1.6 km/h
2815 12-09-2013 07:50:00 12 C 10.34 g/m*3 12 C 0 km/h
2816 12-09-2013 07:55:00 12.1 C 10.4 g/m*3 12.1 C 0 km/h
2817 12-09-2013 08:00:00 12.1 C 10.4 g/m*3 12.1 C 0 km/h
2818 12-09-2013 08:05:00 12.1 C 10.4 g/m*3 12.1 C 0 km/h
2819 12-09-2013 08:10:00 12.1 C 10.4 g/m*3 12.1 C 0 km/h
2820 12-09-2013 08:15:00 12.1 C 10.4 g/m*3 12.1 C 0 km/h
2821 12-09-2013 08:20:00 12.1 C 10.4 g/m*3 12.1 C 0 km/h
2822 12-09-2013 08:25:00 12.2 C 10.47 g/m*3 12.2 C 0 km/h
2823 12-09-2013 08:30:00 12.2 C 10.47 g/m*3 12.2 C 0 km/h
2824 12-09-2013 08:35:00 12.3 C 10.53 g/m*3 12.3 C 0 km/h
2825 12-09-2013 08:40:00 12.3 C 10.53 g/m*3 12.3 C 0 km/h
Sensor: Nr:Datum:Temp:Abs-Feuchte:Windchill:Wind:
Aussen-T/F 2826 12-09-2013 08:45:00 12.3 C 10.53 g/m*3 12.3 C 0 km/h
2827 12-09-2013 08:50:00 12.4 C 10.6 g/m*3 12.4 C 0 km/h
2828 12-09-2013 08:55:00 12.4 C 10.6 g/m*3 12.4 C 3.2 km/h
2829 12-09-2013 09:00:00 12.5 C 10.66 g/m*3 12.5 C 1.6 km/h
2830 12-09-2013 09:05:00 12.6 C 10.73 g/m*3 12.6 C 0 km/h
2831 12-09-2013 09:10:00 12.7 C 10.8 g/m*3 12.7 C 6.4 km/h
2832 12-09-2013 09:15:00 12.8 C 10.87 g/m*3 12.8 C 6.4 km/h
2833 12-09-2013 09:20:00 12.8 C 10.75 g/m*3 12.8 C 3.2 km/h
2834 12-09-2013 09:25:00 12.9 C 10.82 g/m*3 12.9 C 6.4 km/h
2835 12-09-2013 09:30:00 13.1 C 10.84 g/m*3 13.1 C 6.4 km/h
2836 12-09-2013 09:35:00 13.2 C 10.91 g/m*3 13.2 C 0 km/h
2837 12-09-2013 09:40:00 13.3 C 10.98 g/m*3 13.3 C 6.4 km/h
2838 12-09-2013 09:45:00 13.4 C 10.93 g/m*3 13.4 C 8.1 km/h
2839 12-09-2013 09:50:00 13.6 C 10.83 g/m*3 13.6 C 9.7 km/h
2840 12-09-2013 09:55:00 13.7 C 10.78 g/m*3 13.7 C 6.4 km/h
2841 12-09-2013 10:00:00 13.8 C 10.6 g/m*3 13.8 C 4.8 km/h
2842 12-09-2013 10:05:00 13.9 C 10.79 g/m*3 13.9 C 4.8 km/h
2843 12-09-2013 10:10:00 14 C 10.74 g/m*3 14 C 4.8 km/h
2844 12-09-2013 10:15:00 14.1 C 10.68 g/m*3 14.1 C 4.8 km/h
2845 12-09-2013 10:20:00 14.2 C 10.87 g/m*3 14.2 C 4.8 km/h
2846 12-09-2013 10:25:00 14.3 C 10.93 g/m*3 14.3 C 3.2 km/h
2847 12-09-2013 10:30:00 14.3 C 10.93 g/m*3 14.3 C 4.8 km/h
2848 12-09-2013 10:35:00 14.4 C 10.88 g/m*3 14.4 C 3.2 km/h
2849 12-09-2013 10:40:00 14.3 C 10.81 g/m*3 14.3 C 4.8 km/h
2850 12-09-2013 10:45:00 14.3 C 10.93 g/m*3 14.3 C 8.1 km/h
Sensor: Nr:Datum:Temp:Abs-Feuchte:Windchill:Wind:
Aussen-T/F 2851 12-09-2013 10:50:00 14.3 C 10.93 g/m*3 14.3 C 11.3 km/h
2852 12-09-2013 10:55:00 14.2 C 10.87 g/m*3 14.2 C 6.4 km/h
2853 12-09-2013 11:00:00 14.1 C 10.92 g/m*3 14.1 C 6.4 km/h
2854 12-09-2013 11:05:00 13.9 C 10.91 g/m*3 13.9 C 6.4 km/h
2855 12-09-2013 11:10:00 13.8 C 10.96 g/m*3 13.8 C 3.2 km/h
2856 12-09-2013 11:15:00 13.7 C 10.89 g/m*3 13.7 C 3.2 km/h
2857 12-09-2013 11:20:00 13.6 C 10.95 g/m*3 13.6 C 1.6 km/h
2858 12-09-2013 11:25:00 13.6 C 10.95 g/m*3 13.6 C 3.2 km/h
2859 12-09-2013 11:30:00 13.6 C 11.06 g/m*3 13.6 C 0 km/h
2860 12-09-2013 11:35:00 13.7 C 11.13 g/m*3 13.7 C 1.6 km/h
2861 12-09-2013 11:40:00 13.8 C 11.2 g/m*3 13.8 C 3.2 km/h
2862 12-09-2013 11:45:00 13.9 C 11.27 g/m*3 13.9 C 4.8 km/h
2863 12-09-2013 11:50:00 14.1 C 11.41 g/m*3 14.1 C 3.2 km/h
2864 12-09-2013 11:55:00 14.2 C 11.36 g/m*3 14.2 C 3.2 km/h
2865 12-09-2013 12:00:00 14.3 C 11.55 g/m*3 14.3 C 1.6 km/h
2866 12-09-2013 12:05:00 14.3 C 11.3 g/m*3 14.3 C 4.8 km/h
2867 12-09-2013 12:10:00 14.4 C 11.25 g/m*3 14.4 C 3.2 km/h
2868 12-09-2013 12:15:00 14.7 C 11.46 g/m*3 14.7 C 3.2 km/h
2869 12-09-2013 12:20:00 14.9 C 11.34 g/m*3 14.9 C 3.2 km/h
2870 12-09-2013 12:25:00 15.1 C 11.22 g/m*3 15.1 C 3.2 km/h
2871 12-09-2013 12:30:00 15.3 C 11.36 g/m*3 15.3 C 6.4 km/h
2872 12-09-2013 12:35:00 15.2 C 11.16 g/m*3 15.2 C 6.4 km/h
2873 12-09-2013 12:40:00 15.2 C 11.29 g/m*3 15.2 C 3.2 km/h
2874 12-09-2013 12:45:00 15.1 C 11.22 g/m*3 15.1 C 4.8 km/h
2875 12-09-2013 12:50:00 14.9 C 11.47 g/m*3 14.9 C 0 km/h
Sensor: Nr:Datum:Temp:Abs-Feuchte:Windchill:Wind:
Aussen-T/F 2876 12-09-2013 12:55:00 14.7 C 11.58 g/m*3 14.7 C 0 km/h
2877 12-09-2013 13:00:00 14.5 C 11.57 g/m*3 14.5 C 0 km/h
2878 12-09-2013 13:05:00 14.4 C 11.5 g/m*3 14.4 C 0 km/h
2879 12-09-2013 13:10:00 14.4 C 11.37 g/m*3 14.4 C 1.6 km/h
2880 12-09-2013 13:15:00 14.6 C 11.64 g/m*3 14.6 C 0 km/h
2881 12-09-2013 13:20:00 14.8 C 11.65 g/m*3 14.8 C 1.6 km/h
2882 12-09-2013 13:25:00 14.9 C 11.73 g/m*3 14.9 C 0 km/h
2883 12-09-2013 13:30:00 14.9 C 11.73 g/m*3 14.9 C 0 km/h
2884 12-09-2013 13:35:00 14.9 C 11.85 g/m*3 14.9 C 0 km/h
2885 12-09-2013 13:40:00 14.9 C 11.98 g/m*3 14.9 C 1.6 km/h
2886 12-09-2013 13:45:00 15 C 11.67 g/m*3 15 C 4.8 km/h
2887 12-09-2013 13:50:00 15.1 C 11.74 g/m*3 15.1 C 1.6 km/h
2888 12-09-2013 13:55:00 15.2 C 11.68 g/m*3 15.2 C 0 km/h
2889 12-09-2013 14:00:00 15.2 C 11.29 g/m*3 15.2 C 12.9 km/h
2890 12-09-2013 14:05:00 15.1 C 11.35 g/m*3 15.1 C 11.3 km/h
2891 12-09-2013 14:10:00 15 C 11.16 g/m*3 15 C 9.7 km/h
2892 12-09-2013 14:15:00 14.9 C 11.09 g/m*3 14.9 C 6.4 km/h
2893 12-09-2013 14:20:00 14.8 C 11.4 g/m*3 14.8 C 1.6 km/h
2894 12-09-2013 14:25:00 14.8 C 11.53 g/m*3 14.8 C 3.2 km/h
2895 12-09-2013 14:30:00 14.8 C 11.53 g/m*3 14.8 C 4.8 km/h
2896 12-09-2013 14:35:00 14.9 C 11.47 g/m*3 14.9 C 4.8 km/h
2897 12-09-2013 14:40:00 15.1 C 11.48 g/m*3 15.1 C 4.8 km/h
2898 12-09-2013 14:45:00 15.3 C 11.36 g/m*3 15.3 C 3.2 km/h
2899 12-09-2013 14:50:00 15.7 C 12.31 g/m*3 15.7 C 4.8 km/h
2900 12-09-2013 14:55:00 15.9 C 11.92 g/m*3 15.9 C 3.2 km/h
Sensor: Nr:Datum:Temp:Abs-Feuchte:Windchill:Wind:
Aussen-T/F 2901 12-09-2013 15:00:00 16.1 C 11.79 g/m*3 16.1 C 1.6 km/h
2902 12-09-2013 15:05:00 16.3 C 12.07 g/m*3 16.3 C 6.4 km/h
2903 12-09-2013 15:10:00 16.6 C 12.29 g/m*3 16.6 C 4.8 km/h
2904 12-09-2013 15:15:00 16.8 C 12.01 g/m*3 16.8 C 4.8 km/h
2905 12-09-2013 15:20:00 16.7 C 12.08 g/m*3 16.7 C 4.8 km/h
2906 12-09-2013 15:25:00 16.7 C 12.22 g/m*3 16.7 C 1.6 km/h
2907 12-09-2013 15:30:00 16.6 C 12.29 g/m*3 16.6 C 0 km/h
2908 12-09-2013 15:35:00 16.5 C 12.5 g/m*3 16.5 C 0 km/h
2909 12-09-2013 15:40:00 16.4 C 12.42 g/m*3 16.4 C 0 km/h
2910 12-09-2013 15:45:00 16.2 C 12.14 g/m*3 16.2 C 11.3 km/h
2911 12-09-2013 15:50:00 16.2 C 12.14 g/m*3 16.2 C 4.8 km/h
2912 12-09-2013 15:55:00 16.3 C 11.79 g/m*3 16.3 C 1.6 km/h
2913 12-09-2013 16:00:00 16.4 C 11.72 g/m*3 16.4 C 6.4 km/h
2914 12-09-2013 16:05:00 16.7 C 11.37 g/m*3 16.7 C 8.1 km/h
2915 12-09-2013 16:10:00 16.9 C 11.51 g/m*3 16.9 C 6.4 km/h
2916 12-09-2013 16:15:00 17.1 C 11.21 g/m*3 17.1 C 6.4 km/h
2917 12-09-2013 16:20:00 17.2 C 11.13 g/m*3 17.2 C 9.7 km/h
2918 12-09-2013 16:25:00 17.4 C 11.12 g/m*3 17.4 C 9.7 km/h
2919 12-09-2013 16:30:00 17.4 C 10.97 g/m*3 17.4 C 11.3 km/h
2920 12-09-2013 16:35:00 17.3 C 10.9 g/m*3 17.3 C 14.5 km/h
2921 12-09-2013 16:40:00 17.1 C 10.77 g/m*3 17.1 C 16.1 km/h
2922 12-09-2013 16:45:00 16.9 C 10.64 g/m*3 16.9 C 9.7 km/h
2923 12-09-2013 16:50:00 16.9 C 11.22 g/m*3 16.9 C 11.3 km/h
2924 12-09-2013 16:55:00 16.8 C 11.15 g/m*3 16.8 C 8.1 km/h
2925 12-09-2013 17:00:00 16.6 C 11.16 g/m*3 16.6 C 6.4 km/h
Sensor: Nr:Datum:Temp:Abs-Feuchte:Windchill:Wind:
Aussen-T/F 2926 12-09-2013 17:05:00 16.5 C 11.23 g/m*3 16.5 C 3.2 km/h
2927 12-09-2013 17:10:00 16.4 C 11.31 g/m*3 16.4 C 4.8 km/h
2928 12-09-2013 17:15:00 16.3 C 11.52 g/m*3 16.3 C 1.6 km/h
2929 12-09-2013 17:20:00 16.2 C 11.58 g/m*3 16.2 C 4.8 km/h
2930 12-09-2013 17:25:00 16.1 C 11.38 g/m*3 16.1 C 8.1 km/h
2931 12-09-2013 17:30:00 15.9 C 11.1 g/m*3 15.9 C 19.3 km/h
2932 12-09-2013 17:35:00 15.8 C 11.04 g/m*3 15.8 C 8.1 km/h
2933 12-09-2013 17:40:00 15.6 C 10.51 g/m*3 15.6 C 12.9 km/h
2934 12-09-2013 17:45:00 15.4 C 10.77 g/m*3 15.4 C 12.9 km/h
2935 12-09-2013 17:50:00 15.2 C 10.77 g/m*3 15.2 C 8.1 km/h
2936 12-09-2013 17:55:00 15 C 10.77 g/m*3 15 C 19.3 km/h
2937 12-09-2013 18:00:00 14.8 C 10.89 g/m*3 14.8 C 4.8 km/h
2938 12-09-2013 18:05:00 14.7 C 11.08 g/m*3 14.7 C 3.2 km/h
2939 12-09-2013 18:10:00 14.4 C 11 g/m*3 14.4 C 1.6 km/h
2940 12-09-2013 18:15:00 14.4 C 11.25 g/m*3 14.4 C 0 km/h
2941 12-09-2013 18:20:00 14.3 C 11.3 g/m*3 14.3 C 0 km/h
2942 12-09-2013 18:25:00 14.2 C 11.23 g/m*3 14.2 C 0 km/h
2943 12-09-2013 18:30:00 14.1 C 11.29 g/m*3 14.1 C 3.2 km/h
2944 12-09-2013 18:35:00 14 C 11.22 g/m*3 14 C 3.2 km/h
2945 12-09-2013 18:40:00 14 C 11.22 g/m*3 14 C 3.2 km/h
2946 12-09-2013 18:45:00 14 C 11.22 g/m*3 14 C 0 km/h
2947 12-09-2013 18:50:00 14 C 11.34 g/m*3 14 C 0 km/h
2948 12-09-2013 18:55:00 13.9 C 11.27 g/m*3 13.9 C 0 km/h
2949 12-09-2013 19:00:00 13.9 C 11.27 g/m*3 13.9 C 0 km/h
2950 12-09-2013 19:05:00 13.8 C 11.32 g/m*3 13.8 C 0 km/h
Sensor: Nr:Datum:Temp:Abs-Feuchte:Windchill:Wind:
Aussen-T/F 2951 12-09-2013 19:10:00 13.8 C 11.32 g/m*3 13.8 C 0 km/h
2952 12-09-2013 19:15:00 13.8 C 11.32 g/m*3 13.8 C 0 km/h
2953 12-09-2013 19:20:00 13.8 C 11.32 g/m*3 13.8 C 0 km/h
2954 12-09-2013 19:25:00 13.7 C 11.25 g/m*3 13.7 C 0 km/h
2955 12-09-2013 19:30:00 13.7 C 11.25 g/m*3 13.7 C 0 km/h
2956 12-09-2013 19:35:00 13.6 C 11.18 g/m*3 13.6 C 0 km/h
2957 12-09-2013 19:40:00 13.6 C 11.18 g/m*3 13.6 C 0 km/h
2958 12-09-2013 19:45:00 13.6 C 11.18 g/m*3 13.6 C 0 km/h
2959 12-09-2013 19:50:00 13.5 C 11.11 g/m*3 13.5 C 0 km/h
2960 12-09-2013 19:55:00 13.4 C 11.04 g/m*3 13.4 C 0 km/h
2961 12-09-2013 20:00:00 13.3 C 10.98 g/m*3 13.3 C 0 km/h
2962 12-09-2013 20:05:00 13.3 C 10.98 g/m*3 13.3 C 0 km/h
2963 12-09-2013 20:10:00 13.2 C 10.91 g/m*3 13.2 C 0 km/h
2964 12-09-2013 20:15:00 13.2 C 10.91 g/m*3 13.2 C 0 km/h
2965 12-09-2013 20:20:00 13.1 C 10.95 g/m*3 13.1 C 0 km/h
2966 12-09-2013 20:25:00 12.9 C 10.71 g/m*3 12.9 C 0 km/h
2967 12-09-2013 20:30:00 12.9 C 10.71 g/m*3 12.9 C 0 km/h
2968 12-09-2013 20:35:00 12.8 C 10.75 g/m*3 12.8 C 0 km/h
2969 12-09-2013 20:40:00 12.8 C 10.75 g/m*3 12.8 C 0 km/h
2970 12-09-2013 20:45:00 12.8 C 10.75 g/m*3 12.8 C 0 km/h
2971 12-09-2013 20:50:00 12.8 C 10.75 g/m*3 12.8 C 0 km/h
2972 12-09-2013 20:55:00 12.8 C 10.75 g/m*3 12.8 C 0 km/h
2973 12-09-2013 21:00:00 12.8 C 10.75 g/m*3 12.8 C 0 km/h
2974 12-09-2013 21:05:00 12.8 C 10.75 g/m*3 12.8 C 0 km/h
2975 12-09-2013 21:10:00 12.8 C 10.75 g/m*3 12.8 C 0 km/h
Sensor: Nr:Datum:Temp:Abs-Feuchte:Windchill:Wind:
Aussen-T/F 2976 12-09-2013 21:15:00 12.7 C 10.69 g/m*3 12.7 C 0 km/h
2977 12-09-2013 21:20:00 12.7 C 10.69 g/m*3 12.7 C 0 km/h
2978 12-09-2013 21:25:00 12.6 C 10.62 g/m*3 12.6 C 0 km/h
2979 12-09-2013 21:30:00 12.6 C 10.62 g/m*3 12.6 C 1.6 km/h
2980 12-09-2013 21:35:00 12.6 C 10.62 g/m*3 12.6 C 0 km/h
2981 12-09-2013 21:40:00 12.6 C 10.62 g/m*3 12.6 C 1.6 km/h
2982 12-09-2013 21:45:00 12.6 C 10.62 g/m*3 12.6 C 0 km/h
2983 12-09-2013 21:50:00 12.7 C 10.69 g/m*3 12.7 C 0 km/h
2984 12-09-2013 21:55:00 12.7 C 10.69 g/m*3 12.7 C 0 km/h
2985 12-09-2013 22:00:00 12.7 C 10.8 g/m*3 12.7 C 0 km/h
2986 12-09-2013 22:05:00 12.8 C 10.87 g/m*3 12.8 C 1.6 km/h
2987 12-09-2013 22:10:00 12.8 C 10.87 g/m*3 12.8 C 0 km/h
2988 12-09-2013 22:15:00 12.7 C 10.69 g/m*3 12.7 C 0 km/h
2989 12-09-2013 22:20:00 12.7 C 10.69 g/m*3 12.7 C 1.6 km/h
2990 12-09-2013 22:25:00 12.7 C 10.69 g/m*3 12.7 C 1.6 km/h
2991 12-09-2013 22:30:00 12.7 C 10.69 g/m*3 12.7 C 0 km/h
2992 12-09-2013 22:35:00 12.8 C 10.75 g/m*3 12.8 C 0 km/h
2993 12-09-2013 22:40:00 12.8 C 10.75 g/m*3 12.8 C 0 km/h
2994 12-09-2013 22:45:00 12.8 C 10.75 g/m*3 12.8 C 0 km/h
2995 12-09-2013 22:50:00 12.8 C 10.75 g/m*3 12.8 C 0 km/h
2996 12-09-2013 22:55:00 12.8 C 10.75 g/m*3 12.8 C 0 km/h
2997 12-09-2013 23:00:00 12.9 C 10.82 g/m*3 12.9 C 0 km/h
2998 12-09-2013 23:05:00 12.9 C 10.82 g/m*3 12.9 C 0 km/h
2999 12-09-2013 23:10:00 12.8 C 10.75 g/m*3 12.8 C 0 km/h
3000 12-09-2013 23:15:00 12.9 C 10.82 g/m*3 12.9 C 0 km/h
Sensor: Nr:Datum:Temp:Abs-Feuchte:Windchill:Wind:
Aussen-T/F 3001 12-09-2013 23:20:00 12.8 C 10.75 g/m*3 12.8 C 0 km/h
3002 12-09-2013 23:25:00 12.8 C 10.75 g/m*3 12.8 C 0 km/h
3003 12-09-2013 23:30:00 12.8 C 10.75 g/m*3 12.8 C 0 km/h
3004 12-09-2013 23:35:00 12.7 C 10.69 g/m*3 12.7 C 0 km/h
3005 12-09-2013 23:40:00 12.7 C 10.69 g/m*3 12.7 C 0 km/h
3006 12-09-2013 23:45:00 12.7 C 10.69 g/m*3 12.7 C 0 km/h
3007 12-09-2013 23:50:00 12.6 C 10.62 g/m*3 12.6 C 0 km/h
3008 12-09-2013 23:55:00 12.6 C 10.62 g/m*3 12.6 C 0 km/h
3009 13-09-2013 00:00:00 12.5 C 10.55 g/m*3 12.5 C 0 km/h
3010 13-09-2013 00:05:00 12.4 C 10.49 g/m*3 12.4 C 0 km/h
3011 13-09-2013 00:10:00 12.4 C 10.49 g/m*3 12.4 C 0 km/h
3012 13-09-2013 00:15:00 12.4 C 10.6 g/m*3 12.4 C 1.6 km/h
3013 13-09-2013 00:20:00 12.5 C 10.66 g/m*3 12.5 C 0 km/h
3014 13-09-2013 00:25:00 12.6 C 10.73 g/m*3 12.6 C 0 km/h
3015 13-09-2013 00:30:00 12.6 C 10.73 g/m*3 12.6 C 0 km/h
3016 13-09-2013 00:35:00 12.6 C 10.73 g/m*3 12.6 C 0 km/h
3017 13-09-2013 00:40:00 12.7 C 10.8 g/m*3 12.7 C 0 km/h
3018 13-09-2013 00:45:00 12.7 C 10.8 g/m*3 12.7 C 0 km/h
3019 13-09-2013 00:50:00 12.8 C 10.87 g/m*3 12.8 C 0 km/h
3020 13-09-2013 00:55:00 12.8 C 10.87 g/m*3 12.8 C 0 km/h
3021 13-09-2013 01:00:00 12.8 C 10.87 g/m*3 12.8 C 0 km/h
3022 13-09-2013 01:05:00 12.8 C 10.75 g/m*3 12.8 C 0 km/h
3023 13-09-2013 01:10:00 12.8 C 10.75 g/m*3 12.8 C 0 km/h
3024 13-09-2013 01:15:00 12.8 C 10.75 g/m*3 12.8 C 0 km/h
3025 13-09-2013 01:20:00 12.9 C 10.82 g/m*3 12.9 C 0 km/h
Sensor: Nr:Datum:Temp:Abs-Feuchte:Windchill:Wind:
Aussen-T/F 3026 13-09-2013 01:25:00 12.9 C 10.82 g/m*3 12.9 C 0 km/h
3027 13-09-2013 01:30:00 12.9 C 10.82 g/m*3 12.9 C 0 km/h
3028 13-09-2013 01:35:00 12.9 C 10.82 g/m*3 12.9 C 0 km/h
3029 13-09-2013 01:40:00 12.9 C 10.82 g/m*3 12.9 C 0 km/h
3030 13-09-2013 01:45:00 12.9 C 10.82 g/m*3 12.9 C 0 km/h
3031 13-09-2013 01:50:00 12.9 C 10.82 g/m*3 12.9 C 0 km/h
3032 13-09-2013 01:55:00 12.9 C 10.82 g/m*3 12.9 C 0 km/h
3033 13-09-2013 02:00:00 12.8 C 10.75 g/m*3 12.8 C 0 km/h
3034 13-09-2013 02:05:00 12.8 C 10.75 g/m*3 12.8 C 0 km/h
3035 13-09-2013 02:10:00 12.7 C 10.69 g/m*3 12.7 C 0 km/h
3036 13-09-2013 02:15:00 12.7 C 10.69 g/m*3 12.7 C 0 km/h
3037 13-09-2013 02:20:00 12.7 C 10.69 g/m*3 12.7 C 0 km/h
3038 13-09-2013 02:25:00 12.7 C 10.69 g/m*3 12.7 C 0 km/h
3039 13-09-2013 02:30:00 12.6 C 10.62 g/m*3 12.6 C 0 km/h
3040 13-09-2013 02:35:00 12.6 C 10.62 g/m*3 12.6 C 0 km/h
3041 13-09-2013 02:40:00 12.5 C 10.55 g/m*3 12.5 C 0 km/h
3042 13-09-2013 02:45:00 12.4 C 10.49 g/m*3 12.4 C 0 km/h
3043 13-09-2013 02:50:00 12.3 C 10.42 g/m*3 12.3 C 0 km/h
3044 13-09-2013 02:55:00 12.2 C 10.36 g/m*3 12.2 C 0 km/h
3045 13-09-2013 03:00:00 12.2 C 10.36 g/m*3 12.2 C 0 km/h
3046 13-09-2013 03:05:00 12.3 C 10.42 g/m*3 12.3 C 0 km/h
3047 13-09-2013 03:10:00 12.3 C 10.42 g/m*3 12.3 C 0 km/h
3048 13-09-2013 03:15:00 12.3 C 10.42 g/m*3 12.3 C 1.6 km/h
3049 13-09-2013 03:20:00 12.3 C 10.42 g/m*3 12.3 C 1.6 km/h
3050 13-09-2013 03:25:00 12.3 C 10.53 g/m*3 12.3 C 0 km/h
Sensor: Nr:Datum:Temp:Abs-Feuchte:Windchill:Wind:
Aussen-T/F 3051 13-09-2013 03:30:00 12.4 C 10.6 g/m*3 12.4 C 1.6 km/h
3052 13-09-2013 03:35:00 12.4 C 10.6 g/m*3 12.4 C 1.6 km/h
3053 13-09-2013 03:40:00 12.5 C 10.55 g/m*3 12.5 C 3.2 km/h
3054 13-09-2013 03:45:00 12.6 C 10.62 g/m*3 12.6 C 3.2 km/h
3055 13-09-2013 03:50:00 12.7 C 10.69 g/m*3 12.7 C 1.6 km/h
3056 13-09-2013 03:55:00 12.7 C 10.58 g/m*3 12.7 C 3.2 km/h
3057 13-09-2013 04:00:00 12.8 C 10.64 g/m*3 12.8 C 1.6 km/h
3058 13-09-2013 04:05:00 12.8 C 10.64 g/m*3 12.8 C 8.1 km/h
3059 13-09-2013 04:10:00 12.8 C 10.53 g/m*3 12.8 C 3.2 km/h
3060 13-09-2013 04:15:00 12.9 C 10.59 g/m*3 12.9 C 4.8 km/h
3061 13-09-2013 04:20:00 12.9 C 10.59 g/m*3 12.9 C 3.2 km/h
3062 13-09-2013 04:25:00 12.9 C 10.59 g/m*3 12.9 C 4.8 km/h
3063 13-09-2013 04:30:00 12.9 C 10.48 g/m*3 12.9 C 3.2 km/h
3064 13-09-2013 04:35:00 12.9 C 10.48 g/m*3 12.9 C 1.6 km/h
3065 13-09-2013 04:40:00 12.9 C 10.48 g/m*3 12.9 C 3.2 km/h
3066 13-09-2013 04:45:00 12.9 C 10.48 g/m*3 12.9 C 1.6 km/h
3067 13-09-2013 04:50:00 12.9 C 10.48 g/m*3 12.9 C 3.2 km/h
3068 13-09-2013 04:55:00 12.9 C 10.48 g/m*3 12.9 C 3.2 km/h
3069 13-09-2013 05:00:00 12.9 C 10.48 g/m*3 12.9 C 0 km/h
3070 13-09-2013 05:05:00 12.9 C 10.48 g/m*3 12.9 C 0 km/h
3071 13-09-2013 05:10:00 12.8 C 10.42 g/m*3 12.8 C 6.4 km/h
3072 13-09-2013 05:15:00 12.8 C 10.42 g/m*3 12.8 C 3.2 km/h
3073 13-09-2013 05:20:00 12.7 C 10.46 g/m*3 12.7 C 0 km/h
3074 13-09-2013 05:25:00 12.6 C 10.29 g/m*3 12.6 C 0 km/h
3075 13-09-2013 05:30:00 12.4 C 10.16 g/m*3 12.4 C 0 km/h
Sensor: Nr:Datum:Temp:Abs-Feuchte:Windchill:Wind:
Aussen-T/F 3076 13-09-2013 05:35:00 12.3 C 10.21 g/m*3 12.3 C 0 km/h
3077 13-09-2013 05:40:00 12.2 C 10.14 g/m*3 12.2 C 0 km/h
3078 13-09-2013 05:45:00 12 C 10.02 g/m*3 12 C 0 km/h
3079 13-09-2013 05:50:00 11.9 C 9.96 g/m*3 11.9 C 0 km/h
3080 13-09-2013 05:55:00 11.8 C 9.89 g/m*3 11.8 C 0 km/h
3081 13-09-2013 06:00:00 11.8 C 10 g/m*3 11.8 C 0 km/h
3082 13-09-2013 06:05:00 11.8 C 10 g/m*3 11.8 C 0 km/h
3083 13-09-2013 06:10:00 11.9 C 10.06 g/m*3 11.9 C 3.2 km/h
3084 13-09-2013 06:15:00 11.9 C 10.06 g/m*3 11.9 C 4.8 km/h
3085 13-09-2013 06:20:00 12.1 C 10.19 g/m*3 12.1 C 3.2 km/h
3086 13-09-2013 06:25:00 12.2 C 10.25 g/m*3 12.2 C 6.4 km/h
3087 13-09-2013 06:30:00 12.3 C 10.21 g/m*3 12.3 C 6.4 km/h
3088 13-09-2013 06:35:00 12.3 C 10.21 g/m*3 12.3 C 6.4 km/h
3089 13-09-2013 06:40:00 12.2 C 10.14 g/m*3 12.2 C 0 km/h
3090 13-09-2013 06:45:00 12.1 C 10.08 g/m*3 12.1 C 0 km/h
3091 13-09-2013 06:50:00 11.9 C 9.96 g/m*3 11.9 C 0 km/h
3092 13-09-2013 06:55:00 11.9 C 9.96 g/m*3 11.9 C 4.8 km/h
3093 13-09-2013 07:00:00 11.9 C 9.96 g/m*3 11.9 C 3.2 km/h
3094 13-09-2013 07:05:00 12 C 10.02 g/m*3 12 C 3.2 km/h
3095 13-09-2013 07:10:00 12 C 10.12 g/m*3 12 C 3.2 km/h
3096 13-09-2013 07:15:00 12.1 C 10.19 g/m*3 12.1 C 3.2 km/h
3097 13-09-2013 07:20:00 12.1 C 10.19 g/m*3 12.1 C 0 km/h
3098 13-09-2013 07:25:00 12.1 C 10.19 g/m*3 12.1 C 4.8 km/h
3099 13-09-2013 07:30:00 12.2 C 10.25 g/m*3 12.2 C 1.6 km/h
3100 13-09-2013 07:35:00 12.3 C 10.21 g/m*3 12.3 C 4.8 km/h
Sensor: Nr:Datum:Temp:Abs-Feuchte:Windchill:Wind:
Aussen-T/F 3101 13-09-2013 07:40:00 12.3 C 10.21 g/m*3 12.3 C 6.4 km/h
3102 13-09-2013 07:45:00 12.3 C 10.21 g/m*3 12.3 C 9.7 km/h
3103 13-09-2013 07:50:00 12.3 C 10.21 g/m*3 12.3 C 6.4 km/h
3104 13-09-2013 07:55:00 12.3 C 10.21 g/m*3 12.3 C 3.2 km/h
3105 13-09-2013 08:00:00 12.3 C 10.21 g/m*3 12.3 C 9.7 km/h
3106 13-09-2013 08:05:00 12.3 C 10.21 g/m*3 12.3 C 4.8 km/h
3107 13-09-2013 08:10:00 12.3 C 10.21 g/m*3 12.3 C 6.4 km/h
3108 13-09-2013 08:15:00 12.3 C 10.21 g/m*3 12.3 C 4.8 km/h
3109 13-09-2013 08:20:00 12.4 C 10.27 g/m*3 12.4 C 4.8 km/h
3110 13-09-2013 08:25:00 12.4 C 10.27 g/m*3 12.4 C 4.8 km/h
3111 13-09-2013 08:30:00 12.4 C 10.27 g/m*3 12.4 C 0 km/h
3112 13-09-2013 08:35:00 12.4 C 10.27 g/m*3 12.4 C 0 km/h
3113 13-09-2013 08:40:00 12.5 C 10.33 g/m*3 12.5 C 1.6 km/h
3114 13-09-2013 08:45:00 12.6 C 10.4 g/m*3 12.6 C 0 km/h
3115 13-09-2013 08:50:00 12.6 C 10.4 g/m*3 12.6 C 3.2 km/h
3116 13-09-2013 08:55:00 12.7 C 10.46 g/m*3 12.7 C 0 km/h
3117 13-09-2013 09:00:00 12.8 C 10.53 g/m*3 12.8 C 1.6 km/h
3118 13-09-2013 09:05:00 12.8 C 10.42 g/m*3 12.8 C 3.2 km/h
3119 13-09-2013 09:10:00 12.9 C 10.48 g/m*3 12.9 C 3.2 km/h
3120 13-09-2013 09:15:00 13.1 C 10.61 g/m*3 13.1 C 1.6 km/h
3121 13-09-2013 09:20:00 13.1 C 10.61 g/m*3 13.1 C 4.8 km/h
3122 13-09-2013 09:25:00 13.2 C 10.68 g/m*3 13.2 C 4.8 km/h
3123 13-09-2013 09:30:00 13.3 C 10.74 g/m*3 13.3 C 3.2 km/h
3124 13-09-2013 09:35:00 13.4 C 10.69 g/m*3 13.4 C 3.2 km/h
3125 13-09-2013 09:40:00 13.6 C 10.83 g/m*3 13.6 C 4.8 km/h
Sensor: Nr:Datum:Temp:Abs-Feuchte:Windchill:Wind:
Aussen-T/F 3126 13-09-2013 09:45:00 13.8 C 10.84 g/m*3 13.8 C 6.4 km/h
3127 13-09-2013 09:50:00 13.9 C 10.91 g/m*3 13.9 C 9.7 km/h
3128 13-09-2013 09:55:00 14 C 10.98 g/m*3 14 C 8.1 km/h
3129 13-09-2013 10:00:00 14.1 C 10.8 g/m*3 14.1 C 6.4 km/h
3130 13-09-2013 10:05:00 14.2 C 10.87 g/m*3 14.2 C 4.8 km/h
3131 13-09-2013 10:10:00 14.2 C 10.87 g/m*3 14.2 C 6.4 km/h
3132 13-09-2013 10:15:00 14.3 C 10.93 g/m*3 14.3 C 6.4 km/h
3133 13-09-2013 10:20:00 14.4 C 11.13 g/m*3 14.4 C 8.1 km/h
3134 13-09-2013 10:25:00 14.5 C 11.07 g/m*3 14.5 C 6.4 km/h
3135 13-09-2013 10:30:00 14.6 C 11.01 g/m*3 14.6 C 6.4 km/h
3136 13-09-2013 10:35:00 14.6 C 11.14 g/m*3 14.6 C 6.4 km/h
3137 13-09-2013 10:40:00 14.7 C 11.08 g/m*3 14.7 C 6.4 km/h
3138 13-09-2013 10:45:00 14.8 C 11.15 g/m*3 14.8 C 6.4 km/h
3139 13-09-2013 10:50:00 14.8 C 11.15 g/m*3 14.8 C 8.1 km/h
3140 13-09-2013 10:55:00 14.9 C 11.09 g/m*3 14.9 C 6.4 km/h
3141 13-09-2013 11:00:00 15 C 11.16 g/m*3 15 C 4.8 km/h
3142 13-09-2013 11:05:00 15.1 C 11.35 g/m*3 15.1 C 4.8 km/h
3143 13-09-2013 11:10:00 15.2 C 11.29 g/m*3 15.2 C 4.8 km/h
3144 13-09-2013 11:15:00 15.3 C 11.36 g/m*3 15.3 C 6.4 km/h
3145 13-09-2013 11:20:00 15.3 C 11.36 g/m*3 15.3 C 8.1 km/h
3146 13-09-2013 11:25:00 15.4 C 11.43 g/m*3 15.4 C 6.4 km/h
3147 13-09-2013 11:30:00 15.6 C 11.57 g/m*3 15.6 C 8.1 km/h
3148 13-09-2013 11:35:00 15.7 C 11.51 g/m*3 15.7 C 9.7 km/h
3149 13-09-2013 11:40:00 15.7 C 11.51 g/m*3 15.7 C 9.7 km/h
3150 13-09-2013 11:45:00 15.7 C 11.51 g/m*3 15.7 C 9.7 km/h
Sensor: Nr:Datum:Temp:Abs-Feuchte:Windchill:Wind:
Aussen-T/F 3151 13-09-2013 11:50:00 15.6 C 11.44 g/m*3 15.6 C 11.3 km/h
3152 13-09-2013 11:55:00 15.6 C 11.3 g/m*3 15.6 C 4.8 km/h
3153 13-09-2013 12:00:00 15.6 C 11.44 g/m*3 15.6 C 3.2 km/h
3154 13-09-2013 12:05:00 15.7 C 11.51 g/m*3 15.7 C 6.4 km/h
3155 13-09-2013 12:10:00 15.8 C 11.58 g/m*3 15.8 C 8.1 km/h
3156 13-09-2013 12:15:00 15.8 C 11.58 g/m*3 15.8 C 8.1 km/h
3157 13-09-2013 12:20:00 16 C 11.72 g/m*3 16 C 6.4 km/h
3158 13-09-2013 12:25:00 16.2 C 11.86 g/m*3 16.2 C 4.8 km/h
3159 13-09-2013 12:30:00 16.2 C 11.72 g/m*3 16.2 C 6.4 km/h
3160 13-09-2013 12:35:00 16.3 C 11.93 g/m*3 16.3 C 8.1 km/h
3161 13-09-2013 12:40:00 16.4 C 11.58 g/m*3 16.4 C 6.4 km/h
3162 13-09-2013 12:45:00 16.6 C 11.87 g/m*3 16.6 C 8.1 km/h
3163 13-09-2013 12:50:00 16.7 C 11.65 g/m*3 16.7 C 6.4 km/h
3164 13-09-2013 12:55:00 16.7 C 11.8 g/m*3 16.7 C 4.8 km/h
3165 13-09-2013 13:00:00 16.7 C 11.8 g/m*3 16.7 C 9.7 km/h
3166 13-09-2013 13:05:00 16.7 C 11.65 g/m*3 16.7 C 4.8 km/h
3167 13-09-2013 13:10:00 16.8 C 11.87 g/m*3 16.8 C 4.8 km/h
3168 13-09-2013 13:15:00 16.8 C 11.72 g/m*3 16.8 C 4.8 km/h
3169 13-09-2013 13:20:00 16.9 C 11.79 g/m*3 16.9 C 4.8 km/h
3170 13-09-2013 13:25:00 16.9 C 11.51 g/m*3 16.9 C 6.4 km/h
3171 13-09-2013 13:30:00 16.9 C 11.51 g/m*3 16.9 C 4.8 km/h
3172 13-09-2013 13:35:00 17.1 C 11.65 g/m*3 17.1 C 4.8 km/h
3173 13-09-2013 13:40:00 17.3 C 11.49 g/m*3 17.3 C 9.7 km/h
3174 13-09-2013 13:45:00 17.5 C 11.78 g/m*3 17.5 C 9.7 km/h
3175 13-09-2013 13:50:00 17.6 C 11.85 g/m*3 17.6 C 9.7 km/h
Sensor: Nr:Datum:Temp:Abs-Feuchte:Windchill:Wind:
Aussen-T/F 3176 13-09-2013 13:55:00 17.6 C 11.85 g/m*3 17.6 C 8.1 km/h
3177 13-09-2013 14:00:00 17.6 C 11.7 g/m*3 17.6 C 6.4 km/h
3178 13-09-2013 14:05:00 17.7 C 11.77 g/m*3 17.7 C 11.3 km/h
3179 13-09-2013 14:10:00 17.8 C 11.38 g/m*3 17.8 C 6.4 km/h
3180 13-09-2013 14:15:00 17.8 C 11.23 g/m*3 17.8 C 6.4 km/h
3181 13-09-2013 14:20:00 17.8 C 11.54 g/m*3 17.8 C 8.1 km/h
3182 13-09-2013 14:25:00 17.8 C 11.69 g/m*3 17.8 C 6.4 km/h
3183 13-09-2013 14:30:00 17.8 C 11.69 g/m*3 17.8 C 4.8 km/h
3184 13-09-2013 14:35:00 18 C 11.37 g/m*3 18 C 8.1 km/h
3185 13-09-2013 14:40:00 18.1 C 11.43 g/m*3 18.1 C 8.1 km/h
3186 13-09-2013 14:45:00 18 C 11.52 g/m*3 18 C 9.7 km/h
3187 13-09-2013 14:50:00 17.9 C 11.6 g/m*3 17.9 C 8.1 km/h
3188 13-09-2013 14:55:00 17.9 C 11.76 g/m*3 17.9 C 3.2 km/h
3189 13-09-2013 15:00:00 17.9 C 11.45 g/m*3 17.9 C 8.1 km/h
3190 13-09-2013 15:05:00 17.9 C 11.6 g/m*3 17.9 C 3.2 km/h
3191 13-09-2013 15:10:00 17.9 C 11.91 g/m*3 17.9 C 4.8 km/h
3192 13-09-2013 15:15:00 17.9 C 11.76 g/m*3 17.9 C 3.2 km/h
3193 13-09-2013 15:20:00 18.1 C 11.59 g/m*3 18.1 C 4.8 km/h
3194 13-09-2013 15:25:00 18.2 C 11.66 g/m*3 18.2 C 4.8 km/h
3195 13-09-2013 15:30:00 18.3 C 11.57 g/m*3 18.3 C 6.4 km/h
3196 13-09-2013 15:35:00 18.4 C 11.8 g/m*3 18.4 C 4.8 km/h
3197 13-09-2013 15:40:00 18.6 C 11.78 g/m*3 18.6 C 3.2 km/h
3198 13-09-2013 15:45:00 18.6 C 11.3 g/m*3 18.6 C 8.1 km/h
3199 13-09-2013 15:50:00 18.6 C 11.14 g/m*3 18.6 C 14.5 km/h
3200 13-09-2013 15:55:00 18.6 C 11.3 g/m*3 18.6 C 11.3 km/h
Sensor: Nr:Datum:Temp:Abs-Feuchte:Windchill:Wind:
Aussen-T/F 3201 13-09-2013 16:00:00 18.6 C 11.14 g/m*3 18.6 C 9.7 km/h
3202 13-09-2013 16:05:00 18.6 C 11.14 g/m*3 18.6 C 9.7 km/h
3203 13-09-2013 16:10:00 18.6 C 11.3 g/m*3 18.6 C 8.1 km/h
3204 13-09-2013 16:15:00 18.5 C 11.23 g/m*3 18.5 C 8.1 km/h
3205 13-09-2013 16:20:00 18.4 C 11.32 g/m*3 18.4 C 4.8 km/h
3206 13-09-2013 16:25:00 18.3 C 12.2 g/m*3 18.3 C 0 km/h
3207 13-09-2013 16:30:00 18.2 C 11.97 g/m*3 18.2 C 0 km/h
3208 13-09-2013 16:35:00 18.2 C 12.28 g/m*3 18.2 C 3.2 km/h
3209 13-09-2013 16:40:00 18.3 C 11.88 g/m*3 18.3 C 6.4 km/h
3210 13-09-2013 16:45:00 18.3 C 11.41 g/m*3 18.3 C 8.1 km/h
3211 13